<?xml version="1.0" encoding="UTF-8" standalone="no" ?>
<gpx xmlns="http://www.topografix.com/GPX/1/1" xmlns:xsi="http://www.w3.org/2001/XMLSchema-instance" xsi:schemaLocation="http://www.topografix.com/GPX/1/1 http://www.topografix.com/GPX/1/1/gpx.xsd" version="1.1" creator="VisuGPX - https://www.visugpx.com">
  <metadata>
    <name>17 Octobre 2009 Callian - Fayence - Seillans</name>
    <desc><![CDATA[17 Octobre 2009 Callian - Fayence - Seillans
============================]]></desc>
  </metadata>
  <trk>
    <name><![CDATA[Track 24]]></name>
    <desc><![CDATA[]]></desc>
    <trkseg>
      <trkpt lat="43.62153" lon="6.77477">
        <ele>467</ele>
        <time>2009-10-17T06:50:56Z</time>
      </trkpt>
      <trkpt lat="43.62153" lon="6.77471">
        <ele>471</ele>
        <time>2009-10-17T06:51:06Z</time>
      </trkpt>
      <trkpt lat="43.62158" lon="6.77469">
        <ele>475</ele>
        <time>2009-10-17T06:52:06Z</time>
      </trkpt>
      <trkpt lat="43.62159" lon="6.77478">
        <ele>475</ele>
        <time>2009-10-17T06:52:07Z</time>
      </trkpt>
      <trkpt lat="43.62156" lon="6.77489">
        <ele>473</ele>
        <time>2009-10-17T06:52:11Z</time>
      </trkpt>
      <trkpt lat="43.62149" lon="6.77481">
        <ele>476</ele>
        <time>2009-10-17T06:52:20Z</time>
      </trkpt>
      <trkpt lat="43.62152" lon="6.77475">
        <ele>477</ele>
        <time>2009-10-17T06:52:26Z</time>
      </trkpt>
      <trkpt lat="43.62152" lon="6.77473">
        <ele>477</ele>
        <time>2009-10-17T06:52:29Z</time>
      </trkpt>
      <trkpt lat="43.62149" lon="6.77473">
        <ele>477</ele>
        <time>2009-10-17T06:52:39Z</time>
      </trkpt>
      <trkpt lat="43.62147" lon="6.77474">
        <ele>476</ele>
        <time>2009-10-17T06:52:40Z</time>
      </trkpt>
      <trkpt lat="43.62147" lon="6.77474">
        <ele>476</ele>
        <time>2009-10-17T06:52:40Z</time>
      </trkpt>
      <trkpt lat="43.62146" lon="6.77479">
        <ele>477</ele>
        <time>2009-10-17T06:53:52Z</time>
      </trkpt>
      <trkpt lat="43.62145" lon="6.7748">
        <ele>476</ele>
        <time>2009-10-17T06:53:53Z</time>
      </trkpt>
      <trkpt lat="43.62144" lon="6.77481">
        <ele>476</ele>
        <time>2009-10-17T06:54:04Z</time>
      </trkpt>
      <trkpt lat="43.62147" lon="6.77479">
        <ele>476</ele>
        <time>2009-10-17T06:55:47Z</time>
      </trkpt>
      <trkpt lat="43.62147" lon="6.77476">
        <ele>475</ele>
        <time>2009-10-17T06:55:48Z</time>
      </trkpt>
      <trkpt lat="43.62199" lon="6.77743">
        <ele>438</ele>
        <time>2009-10-17T06:56:52Z</time>
      </trkpt>
      <trkpt lat="43.62208" lon="6.77767">
        <ele>441</ele>
        <time>2009-10-17T06:56:53Z</time>
      </trkpt>
      <trkpt lat="43.62214" lon="6.77782">
        <ele>443</ele>
        <time>2009-10-17T06:56:54Z</time>
      </trkpt>
      <trkpt lat="43.62219" lon="6.77792">
        <ele>445</ele>
        <time>2009-10-17T06:56:55Z</time>
      </trkpt>
      <trkpt lat="43.62252" lon="6.77852">
        <ele>442</ele>
        <time>2009-10-17T06:57:02Z</time>
      </trkpt>
      <trkpt lat="43.62253" lon="6.77845">
        <ele>440</ele>
        <time>2009-10-17T06:57:03Z</time>
      </trkpt>
      <trkpt lat="43.62258" lon="6.77842">
        <ele>438</ele>
        <time>2009-10-17T06:57:04Z</time>
      </trkpt>
      <trkpt lat="43.62267" lon="6.77844">
        <ele>436</ele>
        <time>2009-10-17T06:57:06Z</time>
      </trkpt>
      <trkpt lat="43.62277" lon="6.77857">
        <ele>434</ele>
        <time>2009-10-17T06:57:07Z</time>
      </trkpt>
      <trkpt lat="43.62283" lon="6.77861">
        <ele>433</ele>
        <time>2009-10-17T06:57:08Z</time>
      </trkpt>
      <trkpt lat="43.62285" lon="6.77869">
        <ele>460</ele>
        <time>2009-10-17T06:57:09Z</time>
      </trkpt>
      <trkpt lat="43.6241" lon="6.77621">
        <ele>460</ele>
        <time>2009-10-17T06:57:45Z</time>
      </trkpt>
      <trkpt lat="43.62406" lon="6.77611">
        <ele>459</ele>
        <time>2009-10-17T06:57:46Z</time>
      </trkpt>
      <trkpt lat="43.62409" lon="6.77599">
        <ele>454</ele>
        <time>2009-10-17T06:57:47Z</time>
      </trkpt>
      <trkpt lat="43.62406" lon="6.7759">
        <ele>454</ele>
        <time>2009-10-17T06:57:48Z</time>
      </trkpt>
      <trkpt lat="43.6241" lon="6.77581">
        <ele>452</ele>
        <time>2009-10-17T06:57:49Z</time>
      </trkpt>
      <trkpt lat="43.62408" lon="6.77569">
        <ele>451</ele>
        <time>2009-10-17T06:57:50Z</time>
      </trkpt>
      <trkpt lat="43.62408" lon="6.77559">
        <ele>450</ele>
        <time>2009-10-17T06:57:51Z</time>
      </trkpt>
      <trkpt lat="43.62392" lon="6.77546">
        <ele>442</ele>
        <time>2009-10-17T06:57:52Z</time>
      </trkpt>
      <trkpt lat="43.62535" lon="6.77126">
        <ele>431</ele>
        <time>2009-10-17T06:58:45Z</time>
      </trkpt>
      <trkpt lat="43.62536" lon="6.77117">
        <ele>433</ele>
        <time>2009-10-17T06:58:46Z</time>
      </trkpt>
      <trkpt lat="43.62538" lon="6.7711">
        <ele>436</ele>
        <time>2009-10-17T06:58:47Z</time>
      </trkpt>
      <trkpt lat="43.62542" lon="6.771">
        <ele>436</ele>
        <time>2009-10-17T06:58:48Z</time>
      </trkpt>
      <trkpt lat="43.62673" lon="6.76803">
        <ele>442</ele>
        <time>2009-10-17T06:59:53Z</time>
      </trkpt>
      <trkpt lat="43.62677" lon="6.76801">
        <ele>437</ele>
        <time>2009-10-17T06:59:54Z</time>
      </trkpt>
      <trkpt lat="43.62682" lon="6.76799">
        <ele>439</ele>
        <time>2009-10-17T06:59:56Z</time>
      </trkpt>
      <trkpt lat="43.62687" lon="6.76793">
        <ele>441</ele>
        <time>2009-10-17T06:59:58Z</time>
      </trkpt>
      <trkpt lat="43.62802" lon="6.76518">
        <ele>447</ele>
        <time>2009-10-17T07:00:53Z</time>
      </trkpt>
      <trkpt lat="43.62795" lon="6.76526">
        <ele>463</ele>
        <time>2009-10-17T07:00:54Z</time>
      </trkpt>
      <trkpt lat="43.62797" lon="6.76519">
        <ele>462</ele>
        <time>2009-10-17T07:00:55Z</time>
      </trkpt>
      <trkpt lat="43.62799" lon="6.76511">
        <ele>461</ele>
        <time>2009-10-17T07:00:56Z</time>
      </trkpt>
      <trkpt lat="43.62801" lon="6.76502">
        <ele>457</ele>
        <time>2009-10-17T07:00:57Z</time>
      </trkpt>
      <trkpt lat="43.62945" lon="6.76179">
        <ele>464</ele>
        <time>2009-10-17T07:01:53Z</time>
      </trkpt>
      <trkpt lat="43.6295" lon="6.76165">
        <ele>464</ele>
        <time>2009-10-17T07:01:54Z</time>
      </trkpt>
      <trkpt lat="43.62955" lon="6.76151">
        <ele>471</ele>
        <time>2009-10-17T07:01:56Z</time>
      </trkpt>
      <trkpt lat="43.62957" lon="6.76142">
        <ele>469</ele>
        <time>2009-10-17T07:01:57Z</time>
      </trkpt>
      <trkpt lat="43.63002" lon="6.75829">
        <ele>469</ele>
        <time>2009-10-17T07:02:44Z</time>
      </trkpt>
      <trkpt lat="43.63006" lon="6.7582">
        <ele>474</ele>
        <time>2009-10-17T07:02:46Z</time>
      </trkpt>
      <trkpt lat="43.63011" lon="6.75809">
        <ele>472</ele>
        <time>2009-10-17T07:02:48Z</time>
      </trkpt>
      <trkpt lat="43.63015" lon="6.75801">
        <ele>471</ele>
        <time>2009-10-17T07:02:50Z</time>
      </trkpt>
      <trkpt lat="43.63018" lon="6.75791">
        <ele>465</ele>
        <time>2009-10-17T07:02:51Z</time>
      </trkpt>
      <trkpt lat="43.63021" lon="6.75782">
        <ele>461</ele>
        <time>2009-10-17T07:02:52Z</time>
      </trkpt>
      <trkpt lat="43.63174" lon="6.75495">
        <ele>456</ele>
        <time>2009-10-17T07:03:52Z</time>
      </trkpt>
      <trkpt lat="43.63179" lon="6.75485">
        <ele>454</ele>
        <time>2009-10-17T07:03:54Z</time>
      </trkpt>
      <trkpt lat="43.63185" lon="6.75482">
        <ele>473</ele>
        <time>2009-10-17T07:03:56Z</time>
      </trkpt>
      <trkpt lat="43.63193" lon="6.75476">
        <ele>474</ele>
        <time>2009-10-17T07:03:58Z</time>
      </trkpt>
      <trkpt lat="43.63198" lon="6.75471">
        <ele>474</ele>
        <time>2009-10-17T07:03:59Z</time>
      </trkpt>
      <trkpt lat="43.63207" lon="6.75459">
        <ele>474</ele>
        <time>2009-10-17T07:04:01Z</time>
      </trkpt>
      <trkpt lat="43.63211" lon="6.75455">
        <ele>478</ele>
        <time>2009-10-17T07:04:02Z</time>
      </trkpt>
      <trkpt lat="43.63237" lon="6.75405">
        <ele>478</ele>
        <time>2009-10-17T07:04:09Z</time>
      </trkpt>
      <trkpt lat="43.63241" lon="6.75397">
        <ele>478</ele>
        <time>2009-10-17T07:04:10Z</time>
      </trkpt>
      <trkpt lat="43.63244" lon="6.75389">
        <ele>478</ele>
        <time>2009-10-17T07:04:11Z</time>
      </trkpt>
      <trkpt lat="43.63248" lon="6.75382">
        <ele>478</ele>
        <time>2009-10-17T07:04:12Z</time>
      </trkpt>
      <trkpt lat="43.6325" lon="6.75374">
        <ele>478</ele>
        <time>2009-10-17T07:04:13Z</time>
      </trkpt>
      <trkpt lat="43.63253" lon="6.75366">
        <ele>478</ele>
        <time>2009-10-17T07:04:14Z</time>
      </trkpt>
      <trkpt lat="43.63256" lon="6.75358">
        <ele>478</ele>
        <time>2009-10-17T07:04:15Z</time>
      </trkpt>
      <trkpt lat="43.6326" lon="6.75346">
        <ele>480</ele>
        <time>2009-10-17T07:04:17Z</time>
      </trkpt>
      <trkpt lat="43.63263" lon="6.75338">
        <ele>477</ele>
        <time>2009-10-17T07:04:18Z</time>
      </trkpt>
      <trkpt lat="43.63266" lon="6.7533">
        <ele>475</ele>
        <time>2009-10-17T07:04:19Z</time>
      </trkpt>
      <trkpt lat="43.63287" lon="6.75286">
        <ele>473</ele>
        <time>2009-10-17T07:04:26Z</time>
      </trkpt>
      <trkpt lat="43.63293" lon="6.75279">
        <ele>472</ele>
        <time>2009-10-17T07:04:27Z</time>
      </trkpt>
      <trkpt lat="43.63299" lon="6.75277">
        <ele>471</ele>
        <time>2009-10-17T07:04:28Z</time>
      </trkpt>
      <trkpt lat="43.63304" lon="6.7527">
        <ele>471</ele>
        <time>2009-10-17T07:04:29Z</time>
      </trkpt>
      <trkpt lat="43.6331" lon="6.75262">
        <ele>470</ele>
        <time>2009-10-17T07:04:30Z</time>
      </trkpt>
      <trkpt lat="43.63367" lon="6.7515">
        <ele>479</ele>
        <time>2009-10-17T07:04:44Z</time>
      </trkpt>
      <trkpt lat="43.63371" lon="6.75137">
        <ele>480</ele>
        <time>2009-10-17T07:04:45Z</time>
      </trkpt>
      <trkpt lat="43.63375" lon="6.75125">
        <ele>479</ele>
        <time>2009-10-17T07:04:46Z</time>
      </trkpt>
      <trkpt lat="43.63379" lon="6.75114">
        <ele>476</ele>
        <time>2009-10-17T07:04:47Z</time>
      </trkpt>
      <trkpt lat="43.63253" lon="6.74888">
        <ele>420</ele>
        <time>2009-10-17T07:05:52Z</time>
      </trkpt>
      <trkpt lat="43.63242" lon="6.74893">
        <ele>413</ele>
        <time>2009-10-17T07:05:53Z</time>
      </trkpt>
      <trkpt lat="43.63237" lon="6.74895">
        <ele>407</ele>
        <time>2009-10-17T07:05:55Z</time>
      </trkpt>
      <trkpt lat="43.63233" lon="6.74897">
        <ele>408</ele>
        <time>2009-10-17T07:05:56Z</time>
      </trkpt>
      <trkpt lat="43.63228" lon="6.749">
        <ele>410</ele>
        <time>2009-10-17T07:05:57Z</time>
      </trkpt>
      <trkpt lat="43.6322" lon="6.74903">
        <ele>410</ele>
        <time>2009-10-17T07:05:59Z</time>
      </trkpt>
      <trkpt lat="43.63213" lon="6.74907">
        <ele>413</ele>
        <time>2009-10-17T07:06:01Z</time>
      </trkpt>
      <trkpt lat="43.63185" lon="6.74912">
        <ele>414</ele>
        <time>2009-10-17T07:06:09Z</time>
      </trkpt>
      <trkpt lat="43.63179" lon="6.74912">
        <ele>414</ele>
        <time>2009-10-17T07:06:11Z</time>
      </trkpt>
      <trkpt lat="43.63174" lon="6.74913">
        <ele>414</ele>
        <time>2009-10-17T07:06:13Z</time>
      </trkpt>
      <trkpt lat="43.63167" lon="6.74913">
        <ele>414</ele>
        <time>2009-10-17T07:06:15Z</time>
      </trkpt>
      <trkpt lat="43.63161" lon="6.74912">
        <ele>410</ele>
        <time>2009-10-17T07:06:17Z</time>
      </trkpt>
      <trkpt lat="43.63155" lon="6.74912">
        <ele>411</ele>
        <time>2009-10-17T07:06:19Z</time>
      </trkpt>
      <trkpt lat="43.63132" lon="6.74919">
        <ele>411</ele>
        <time>2009-10-17T07:06:26Z</time>
      </trkpt>
      <trkpt lat="43.63126" lon="6.74921">
        <ele>410</ele>
        <time>2009-10-17T07:06:28Z</time>
      </trkpt>
      <trkpt lat="43.6312" lon="6.74923">
        <ele>410</ele>
        <time>2009-10-17T07:06:30Z</time>
      </trkpt>
      <trkpt lat="43.63113" lon="6.74926">
        <ele>413</ele>
        <time>2009-10-17T07:06:32Z</time>
      </trkpt>
      <trkpt lat="43.63108" lon="6.74932">
        <ele>415</ele>
        <time>2009-10-17T07:06:35Z</time>
      </trkpt>
      <trkpt lat="43.63087" lon="6.74945">
        <ele>419</ele>
        <time>2009-10-17T07:06:43Z</time>
      </trkpt>
      <trkpt lat="43.63078" lon="6.74947">
        <ele>419</ele>
        <time>2009-10-17T07:06:46Z</time>
      </trkpt>
      <trkpt lat="43.63072" lon="6.7495">
        <ele>419</ele>
        <time>2009-10-17T07:06:48Z</time>
      </trkpt>
      <trkpt lat="43.63067" lon="6.74953">
        <ele>419</ele>
        <time>2009-10-17T07:06:50Z</time>
      </trkpt>
      <trkpt lat="43.63061" lon="6.74955">
        <ele>419</ele>
        <time>2009-10-17T07:06:52Z</time>
      </trkpt>
      <trkpt lat="43.63053" lon="6.74966">
        <ele>419</ele>
        <time>2009-10-17T07:06:53Z</time>
      </trkpt>
      <trkpt lat="43.63047" lon="6.7497">
        <ele>419</ele>
        <time>2009-10-17T07:06:54Z</time>
      </trkpt>
      <trkpt lat="43.63045" lon="6.74976">
        <ele>420</ele>
        <time>2009-10-17T07:06:55Z</time>
      </trkpt>
      <trkpt lat="43.63016" lon="6.7499">
        <ele>420</ele>
        <time>2009-10-17T07:07:03Z</time>
      </trkpt>
      <trkpt lat="43.63009" lon="6.74992">
        <ele>420</ele>
        <time>2009-10-17T07:07:05Z</time>
      </trkpt>
      <trkpt lat="43.63001" lon="6.74995">
        <ele>420</ele>
        <time>2009-10-17T07:07:07Z</time>
      </trkpt>
      <trkpt lat="43.62994" lon="6.74998">
        <ele>420</ele>
        <time>2009-10-17T07:07:09Z</time>
      </trkpt>
      <trkpt lat="43.63001" lon="6.74992">
        <ele>420</ele>
        <time>2009-10-17T07:07:10Z</time>
      </trkpt>
      <trkpt lat="43.62994" lon="6.74992">
        <ele>418</ele>
        <time>2009-10-17T07:07:12Z</time>
      </trkpt>
      <trkpt lat="43.62989" lon="6.74996">
        <ele>423</ele>
        <time>2009-10-17T07:07:13Z</time>
      </trkpt>
      <trkpt lat="43.62971" lon="6.7499">
        <ele>429</ele>
        <time>2009-10-17T07:07:20Z</time>
      </trkpt>
      <trkpt lat="43.62966" lon="6.74986">
        <ele>431</ele>
        <time>2009-10-17T07:07:21Z</time>
      </trkpt>
      <trkpt lat="43.6296" lon="6.74978">
        <ele>438</ele>
        <time>2009-10-17T07:07:23Z</time>
      </trkpt>
      <trkpt lat="43.62911" lon="6.74872">
        <ele>426</ele>
        <time>2009-10-17T07:07:44Z</time>
      </trkpt>
      <trkpt lat="43.62944" lon="6.74836">
        <ele>450</ele>
        <time>2009-10-17T07:07:45Z</time>
      </trkpt>
      <trkpt lat="43.62942" lon="6.74828">
        <ele>454</ele>
        <time>2009-10-17T07:07:46Z</time>
      </trkpt>
      <trkpt lat="43.62939" lon="6.74822">
        <ele>456</ele>
        <time>2009-10-17T07:07:47Z</time>
      </trkpt>
      <trkpt lat="43.6283" lon="6.74607">
        <ele>456</ele>
        <time>2009-10-17T07:08:45Z</time>
      </trkpt>
      <trkpt lat="43.62832" lon="6.74608">
        <ele>459</ele>
        <time>2009-10-17T07:08:47Z</time>
      </trkpt>
      <trkpt lat="43.62832" lon="6.74609">
        <ele>462</ele>
        <time>2009-10-17T07:08:51Z</time>
      </trkpt>
      <trkpt lat="43.62836" lon="6.74593">
        <ele>433</ele>
        <time>2009-10-17T07:08:52Z</time>
      </trkpt>
      <trkpt lat="43.62835" lon="6.74603">
        <ele>455</ele>
        <time>2009-10-17T07:08:56Z</time>
      </trkpt>
      <trkpt lat="43.62833" lon="6.74611">
        <ele>466</ele>
        <time>2009-10-17T07:09:45Z</time>
      </trkpt>
      <trkpt lat="43.62835" lon="6.74604">
        <ele>459</ele>
        <time>2009-10-17T07:10:46Z</time>
      </trkpt>
      <trkpt lat="43.62836" lon="6.74603">
        <ele>461</ele>
        <time>2009-10-17T07:12:45Z</time>
      </trkpt>
      <trkpt lat="43.62835" lon="6.74608">
        <ele>471</ele>
        <time>2009-10-17T07:14:47Z</time>
      </trkpt>
      <trkpt lat="43.62835" lon="6.74609">
        <ele>471</ele>
        <time>2009-10-17T07:14:48Z</time>
      </trkpt>
      <trkpt lat="43.62835" lon="6.74609">
        <ele>471</ele>
        <time>2009-10-17T07:14:48Z</time>
      </trkpt>
      <trkpt lat="43.62837" lon="6.74604">
        <ele>467</ele>
        <time>2009-10-17T07:15:45Z</time>
      </trkpt>
      <trkpt lat="43.62837" lon="6.74603">
        <ele>469</ele>
        <time>2009-10-17T07:15:46Z</time>
      </trkpt>
      <trkpt lat="43.62872" lon="6.74509">
        <ele>445</ele>
        <time>2009-10-17T07:15:48Z</time>
      </trkpt>
      <trkpt lat="43.62875" lon="6.74495">
        <ele>442</ele>
        <time>2009-10-17T07:15:50Z</time>
      </trkpt>
      <trkpt lat="43.62875" lon="6.74489">
        <ele>441</ele>
        <time>2009-10-17T07:15:51Z</time>
      </trkpt>
      <trkpt lat="43.62896" lon="6.74483">
        <ele>452</ele>
        <time>2009-10-17T07:15:52Z</time>
      </trkpt>
      <trkpt lat="43.62984" lon="6.74234">
        <ele>460</ele>
        <time>2009-10-17T07:16:45Z</time>
      </trkpt>
      <trkpt lat="43.62991" lon="6.7423">
        <ele>464</ele>
        <time>2009-10-17T07:16:47Z</time>
      </trkpt>
      <trkpt lat="43.63237" lon="6.74027">
        <ele>473</ele>
        <time>2009-10-17T07:17:45Z</time>
      </trkpt>
      <trkpt lat="43.63241" lon="6.74022">
        <ele>482</ele>
        <time>2009-10-17T07:17:47Z</time>
      </trkpt>
      <trkpt lat="43.63244" lon="6.74017">
        <ele>485</ele>
        <time>2009-10-17T07:17:49Z</time>
      </trkpt>
      <trkpt lat="43.6352" lon="6.74015">
        <ele>494</ele>
        <time>2009-10-17T07:18:52Z</time>
      </trkpt>
      <trkpt lat="43.63533" lon="6.74024">
        <ele>475</ele>
        <time>2009-10-17T07:18:53Z</time>
      </trkpt>
      <trkpt lat="43.63662" lon="6.74141">
        <ele>496</ele>
        <time>2009-10-17T07:19:46Z</time>
      </trkpt>
      <trkpt lat="43.63663" lon="6.74159">
        <ele>500</ele>
        <time>2009-10-17T07:19:47Z</time>
      </trkpt>
      <trkpt lat="43.63664" lon="6.74168">
        <ele>502</ele>
        <time>2009-10-17T07:19:48Z</time>
      </trkpt>
      <trkpt lat="43.63665" lon="6.7418">
        <ele>504</ele>
        <time>2009-10-17T07:19:50Z</time>
      </trkpt>
      <trkpt lat="43.63675" lon="6.74193">
        <ele>478</ele>
        <time>2009-10-17T07:19:53Z</time>
      </trkpt>
      <trkpt lat="43.63679" lon="6.74197">
        <ele>468</ele>
        <time>2009-10-17T07:19:54Z</time>
      </trkpt>
      <trkpt lat="43.63733" lon="6.74122">
        <ele>463</ele>
        <time>2009-10-17T07:20:44Z</time>
      </trkpt>
      <trkpt lat="43.63734" lon="6.74108">
        <ele>463</ele>
        <time>2009-10-17T07:20:45Z</time>
      </trkpt>
      <trkpt lat="43.63736" lon="6.74099">
        <ele>462</ele>
        <time>2009-10-17T07:20:46Z</time>
      </trkpt>
      <trkpt lat="43.63737" lon="6.74075">
        <ele>460</ele>
        <time>2009-10-17T07:20:47Z</time>
      </trkpt>
      <trkpt lat="43.6374" lon="6.74068">
        <ele>458</ele>
        <time>2009-10-17T07:20:49Z</time>
      </trkpt>
      <trkpt lat="43.63742" lon="6.74061">
        <ele>458</ele>
        <time>2009-10-17T07:20:50Z</time>
      </trkpt>
      <trkpt lat="43.63742" lon="6.74048">
        <ele>466</ele>
        <time>2009-10-17T07:20:52Z</time>
      </trkpt>
      <trkpt lat="43.63764" lon="6.73862">
        <ele>450</ele>
        <time>2009-10-17T07:21:51Z</time>
      </trkpt>
      <trkpt lat="43.63764" lon="6.73844">
        <ele>450</ele>
        <time>2009-10-17T07:21:53Z</time>
      </trkpt>
      <trkpt lat="43.63765" lon="6.73837">
        <ele>448</ele>
        <time>2009-10-17T07:21:54Z</time>
      </trkpt>
      <trkpt lat="43.6377" lon="6.738">
        <ele>454</ele>
        <time>2009-10-17T07:22:01Z</time>
      </trkpt>
      <trkpt lat="43.63771" lon="6.73792">
        <ele>453</ele>
        <time>2009-10-17T07:22:02Z</time>
      </trkpt>
      <trkpt lat="43.63774" lon="6.73782">
        <ele>452</ele>
        <time>2009-10-17T07:22:03Z</time>
      </trkpt>
      <trkpt lat="43.63775" lon="6.73776">
        <ele>451</ele>
        <time>2009-10-17T07:22:04Z</time>
      </trkpt>
      <trkpt lat="43.63777" lon="6.73769">
        <ele>452</ele>
        <time>2009-10-17T07:22:05Z</time>
      </trkpt>
      <trkpt lat="43.63779" lon="6.73763">
        <ele>451</ele>
        <time>2009-10-17T07:22:06Z</time>
      </trkpt>
      <trkpt lat="43.63831" lon="6.7358">
        <ele>453</ele>
        <time>2009-10-17T07:22:44Z</time>
      </trkpt>
      <trkpt lat="43.63822" lon="6.73571">
        <ele>450</ele>
        <time>2009-10-17T07:22:45Z</time>
      </trkpt>
      <trkpt lat="43.63828" lon="6.73576">
        <ele>450</ele>
        <time>2009-10-17T07:22:47Z</time>
      </trkpt>
      <trkpt lat="43.6383" lon="6.73559">
        <ele>450</ele>
        <time>2009-10-17T07:22:49Z</time>
      </trkpt>
      <trkpt lat="43.63832" lon="6.73546">
        <ele>451</ele>
        <time>2009-10-17T07:22:51Z</time>
      </trkpt>
      <trkpt lat="43.63837" lon="6.73542">
        <ele>441</ele>
        <time>2009-10-17T07:22:52Z</time>
      </trkpt>
      <trkpt lat="43.63862" lon="6.73295">
        <ele>452</ele>
        <time>2009-10-17T07:23:52Z</time>
      </trkpt>
      <trkpt lat="43.63874" lon="6.73317">
        <ele>456</ele>
        <time>2009-10-17T07:23:53Z</time>
      </trkpt>
      <trkpt lat="43.63871" lon="6.73325">
        <ele>468</ele>
        <time>2009-10-17T07:23:54Z</time>
      </trkpt>
      <trkpt lat="43.63868" lon="6.73311">
        <ele>460</ele>
        <time>2009-10-17T07:23:57Z</time>
      </trkpt>
      <trkpt lat="43.63869" lon="6.73302">
        <ele>453</ele>
        <time>2009-10-17T07:23:58Z</time>
      </trkpt>
      <trkpt lat="43.63891" lon="6.72884">
        <ele>481</ele>
        <time>2009-10-17T07:25:04Z</time>
      </trkpt>
      <trkpt lat="43.63904" lon="6.72852">
        <ele>456</ele>
        <time>2009-10-17T07:25:05Z</time>
      </trkpt>
      <trkpt lat="43.63905" lon="6.72841">
        <ele>458</ele>
        <time>2009-10-17T07:25:06Z</time>
      </trkpt>
      <trkpt lat="43.63903" lon="6.72834">
        <ele>455</ele>
        <time>2009-10-17T07:25:07Z</time>
      </trkpt>
      <trkpt lat="43.63904" lon="6.72825">
        <ele>459</ele>
        <time>2009-10-17T07:25:09Z</time>
      </trkpt>
      <trkpt lat="43.6395" lon="6.72666">
        <ele>462</ele>
        <time>2009-10-17T07:25:44Z</time>
      </trkpt>
      <trkpt lat="43.63957" lon="6.72659">
        <ele>456</ele>
        <time>2009-10-17T07:25:46Z</time>
      </trkpt>
      <trkpt lat="43.63963" lon="6.72655">
        <ele>455</ele>
        <time>2009-10-17T07:25:48Z</time>
      </trkpt>
      <trkpt lat="43.64248" lon="6.72603">
        <ele>486</ele>
        <time>2009-10-17T07:26:52Z</time>
      </trkpt>
      <trkpt lat="43.64254" lon="6.72611">
        <ele>482</ele>
        <time>2009-10-17T07:26:53Z</time>
      </trkpt>
      <trkpt lat="43.64262" lon="6.72608">
        <ele>477</ele>
        <time>2009-10-17T07:26:54Z</time>
      </trkpt>
      <trkpt lat="43.64267" lon="6.72604">
        <ele>475</ele>
        <time>2009-10-17T07:26:55Z</time>
      </trkpt>
      <trkpt lat="43.64275" lon="6.72601">
        <ele>477</ele>
        <time>2009-10-17T07:26:57Z</time>
      </trkpt>
      <trkpt lat="43.6428" lon="6.72595">
        <ele>474</ele>
        <time>2009-10-17T07:26:58Z</time>
      </trkpt>
      <trkpt lat="43.64285" lon="6.72588">
        <ele>473</ele>
        <time>2009-10-17T07:26:59Z</time>
      </trkpt>
      <trkpt lat="43.64509" lon="6.7245">
        <ele>475</ele>
        <time>2009-10-17T07:27:54Z</time>
      </trkpt>
      <trkpt lat="43.64514" lon="6.72446">
        <ele>475</ele>
        <time>2009-10-17T07:27:57Z</time>
      </trkpt>
      <trkpt lat="43.64515" lon="6.72435">
        <ele>473</ele>
        <time>2009-10-17T07:28:00Z</time>
      </trkpt>
      <trkpt lat="43.64516" lon="6.72428">
        <ele>471</ele>
        <time>2009-10-17T07:28:01Z</time>
      </trkpt>
      <trkpt lat="43.64518" lon="6.72418">
        <ele>470</ele>
        <time>2009-10-17T07:28:03Z</time>
      </trkpt>
      <trkpt lat="43.64517" lon="6.72383">
        <ele>472</ele>
        <time>2009-10-17T07:28:09Z</time>
      </trkpt>
      <trkpt lat="43.64516" lon="6.72374">
        <ele>471</ele>
        <time>2009-10-17T07:28:11Z</time>
      </trkpt>
      <trkpt lat="43.64517" lon="6.72368">
        <ele>470</ele>
        <time>2009-10-17T07:28:12Z</time>
      </trkpt>
      <trkpt lat="43.64515" lon="6.72356">
        <ele>470</ele>
        <time>2009-10-17T07:28:14Z</time>
      </trkpt>
      <trkpt lat="43.64515" lon="6.7235">
        <ele>470</ele>
        <time>2009-10-17T07:28:15Z</time>
      </trkpt>
      <trkpt lat="43.64522" lon="6.72339">
        <ele>471</ele>
        <time>2009-10-17T07:28:16Z</time>
      </trkpt>
      <trkpt lat="43.64524" lon="6.72325">
        <ele>471</ele>
        <time>2009-10-17T07:28:19Z</time>
      </trkpt>
      <trkpt lat="43.64525" lon="6.72317">
        <ele>471</ele>
        <time>2009-10-17T07:28:20Z</time>
      </trkpt>
      <trkpt lat="43.64531" lon="6.72274">
        <ele>472</ele>
        <time>2009-10-17T07:28:26Z</time>
      </trkpt>
      <trkpt lat="43.64532" lon="6.72267">
        <ele>472</ele>
        <time>2009-10-17T07:28:27Z</time>
      </trkpt>
      <trkpt lat="43.64532" lon="6.72261">
        <ele>472</ele>
        <time>2009-10-17T07:28:28Z</time>
      </trkpt>
      <trkpt lat="43.64534" lon="6.72252">
        <ele>472</ele>
        <time>2009-10-17T07:28:29Z</time>
      </trkpt>
      <trkpt lat="43.64535" lon="6.72245">
        <ele>472</ele>
        <time>2009-10-17T07:28:30Z</time>
      </trkpt>
      <trkpt lat="43.64537" lon="6.72237">
        <ele>472</ele>
        <time>2009-10-17T07:28:31Z</time>
      </trkpt>
      <trkpt lat="43.64538" lon="6.72228">
        <ele>472</ele>
        <time>2009-10-17T07:28:32Z</time>
      </trkpt>
      <trkpt lat="43.64532" lon="6.72223">
        <ele>470</ele>
        <time>2009-10-17T07:28:33Z</time>
      </trkpt>
      <trkpt lat="43.64532" lon="6.72208">
        <ele>469</ele>
        <time>2009-10-17T07:28:35Z</time>
      </trkpt>
      <trkpt lat="43.64531" lon="6.72193">
        <ele>469</ele>
        <time>2009-10-17T07:28:37Z</time>
      </trkpt>
      <trkpt lat="43.64525" lon="6.72132">
        <ele>469</ele>
        <time>2009-10-17T07:28:43Z</time>
      </trkpt>
      <trkpt lat="43.64522" lon="6.7211">
        <ele>469</ele>
        <time>2009-10-17T07:28:46Z</time>
      </trkpt>
      <trkpt lat="43.64522" lon="6.72103">
        <ele>469</ele>
        <time>2009-10-17T07:28:47Z</time>
      </trkpt>
      <trkpt lat="43.64523" lon="6.72095">
        <ele>469</ele>
        <time>2009-10-17T07:28:48Z</time>
      </trkpt>
      <trkpt lat="43.64523" lon="6.72083">
        <ele>469</ele>
        <time>2009-10-17T07:28:50Z</time>
      </trkpt>
      <trkpt lat="43.64521" lon="6.72075">
        <ele>469</ele>
        <time>2009-10-17T07:28:52Z</time>
      </trkpt>
      <trkpt lat="43.64519" lon="6.72062">
        <ele>470</ele>
        <time>2009-10-17T07:28:55Z</time>
      </trkpt>
      <trkpt lat="43.64517" lon="6.72053">
        <ele>471</ele>
        <time>2009-10-17T07:28:57Z</time>
      </trkpt>
      <trkpt lat="43.64518" lon="6.72023">
        <ele>471</ele>
        <time>2009-10-17T07:29:04Z</time>
      </trkpt>
      <trkpt lat="43.64519" lon="6.72015">
        <ele>470</ele>
        <time>2009-10-17T07:29:06Z</time>
      </trkpt>
      <trkpt lat="43.64511" lon="6.7201">
        <ele>468</ele>
        <time>2009-10-17T07:29:08Z</time>
      </trkpt>
      <trkpt lat="43.64511" lon="6.72002">
        <ele>468</ele>
        <time>2009-10-17T07:29:10Z</time>
      </trkpt>
      <trkpt lat="43.64548" lon="6.71783">
        <ele>466</ele>
        <time>2009-10-17T07:29:53Z</time>
      </trkpt>
      <trkpt lat="43.64552" lon="6.71775">
        <ele>472</ele>
        <time>2009-10-17T07:29:55Z</time>
      </trkpt>
      <trkpt lat="43.64551" lon="6.71768">
        <ele>473</ele>
        <time>2009-10-17T07:29:57Z</time>
      </trkpt>
      <trkpt lat="43.64417" lon="6.71701">
        <ele>514</ele>
        <time>2009-10-17T07:30:52Z</time>
      </trkpt>
      <trkpt lat="43.64417" lon="6.71678">
        <ele>491</ele>
        <time>2009-10-17T07:30:53Z</time>
      </trkpt>
      <trkpt lat="43.64414" lon="6.71657">
        <ele>477</ele>
        <time>2009-10-17T07:30:54Z</time>
      </trkpt>
      <trkpt lat="43.64412" lon="6.7165">
        <ele>479</ele>
        <time>2009-10-17T07:30:56Z</time>
      </trkpt>
      <trkpt lat="43.64407" lon="6.71637">
        <ele>480</ele>
        <time>2009-10-17T07:30:59Z</time>
      </trkpt>
      <trkpt lat="43.64403" lon="6.71631">
        <ele>483</ele>
        <time>2009-10-17T07:31:01Z</time>
      </trkpt>
      <trkpt lat="43.644" lon="6.71624">
        <ele>484</ele>
        <time>2009-10-17T07:31:02Z</time>
      </trkpt>
      <trkpt lat="43.64388" lon="6.71587">
        <ele>483</ele>
        <time>2009-10-17T07:31:10Z</time>
      </trkpt>
      <trkpt lat="43.64383" lon="6.71583">
        <ele>481</ele>
        <time>2009-10-17T07:31:11Z</time>
      </trkpt>
      <trkpt lat="43.64374" lon="6.71582">
        <ele>479</ele>
        <time>2009-10-17T07:31:12Z</time>
      </trkpt>
      <trkpt lat="43.64366" lon="6.71581">
        <ele>478</ele>
        <time>2009-10-17T07:31:13Z</time>
      </trkpt>
      <trkpt lat="43.64297" lon="6.71498">
        <ele>478</ele>
        <time>2009-10-17T07:31:44Z</time>
      </trkpt>
      <trkpt lat="43.64206" lon="6.71453">
        <ele>469</ele>
        <time>2009-10-17T07:31:45Z</time>
      </trkpt>
      <trkpt lat="43.64204" lon="6.71445">
        <ele>473</ele>
        <time>2009-10-17T07:31:46Z</time>
      </trkpt>
      <trkpt lat="43.64199" lon="6.71447">
        <ele>475</ele>
        <time>2009-10-17T07:31:48Z</time>
      </trkpt>
      <trkpt lat="43.64034" lon="6.71333">
        <ele>487</ele>
        <time>2009-10-17T07:32:44Z</time>
      </trkpt>
      <trkpt lat="43.64033" lon="6.71323">
        <ele>482</ele>
        <time>2009-10-17T07:32:45Z</time>
      </trkpt>
      <trkpt lat="43.64029" lon="6.71319">
        <ele>484</ele>
        <time>2009-10-17T07:32:46Z</time>
      </trkpt>
      <trkpt lat="43.64024" lon="6.71313">
        <ele>485</ele>
        <time>2009-10-17T07:32:47Z</time>
      </trkpt>
      <trkpt lat="43.64017" lon="6.71308">
        <ele>480</ele>
        <time>2009-10-17T07:32:48Z</time>
      </trkpt>
      <trkpt lat="43.63829" lon="6.71148">
        <ele>496</ele>
        <time>2009-10-17T07:33:45Z</time>
      </trkpt>
      <trkpt lat="43.6382" lon="6.71154">
        <ele>501</ele>
        <time>2009-10-17T07:33:46Z</time>
      </trkpt>
      <trkpt lat="43.63809" lon="6.71163">
        <ele>504</ele>
        <time>2009-10-17T07:33:47Z</time>
      </trkpt>
      <trkpt lat="43.638" lon="6.71164">
        <ele>506</ele>
        <time>2009-10-17T07:33:49Z</time>
      </trkpt>
      <trkpt lat="43.63795" lon="6.71161">
        <ele>508</ele>
        <time>2009-10-17T07:33:51Z</time>
      </trkpt>
      <trkpt lat="43.63783" lon="6.71144">
        <ele>489</ele>
        <time>2009-10-17T07:33:52Z</time>
      </trkpt>
      <trkpt lat="43.63778" lon="6.71136">
        <ele>481</ele>
        <time>2009-10-17T07:33:53Z</time>
      </trkpt>
      <trkpt lat="43.63697" lon="6.70907">
        <ele>481</ele>
        <time>2009-10-17T07:34:44Z</time>
      </trkpt>
      <trkpt lat="43.63701" lon="6.70886">
        <ele>480</ele>
        <time>2009-10-17T07:34:45Z</time>
      </trkpt>
      <trkpt lat="43.63606" lon="6.70777">
        <ele>464</ele>
        <time>2009-10-17T07:34:51Z</time>
      </trkpt>
      <trkpt lat="43.63602" lon="6.70764">
        <ele>461</ele>
        <time>2009-10-17T07:34:52Z</time>
      </trkpt>
      <trkpt lat="43.63598" lon="6.70757">
        <ele>461</ele>
        <time>2009-10-17T07:34:53Z</time>
      </trkpt>
      <trkpt lat="43.63595" lon="6.70745">
        <ele>460</ele>
        <time>2009-10-17T07:34:54Z</time>
      </trkpt>
      <trkpt lat="43.63598" lon="6.7067">
        <ele>459</ele>
        <time>2009-10-17T07:35:01Z</time>
      </trkpt>
      <trkpt lat="43.63601" lon="6.70655">
        <ele>457</ele>
        <time>2009-10-17T07:35:02Z</time>
      </trkpt>
      <trkpt lat="43.63603" lon="6.70642">
        <ele>457</ele>
        <time>2009-10-17T07:35:03Z</time>
      </trkpt>
      <trkpt lat="43.63602" lon="6.7063">
        <ele>458</ele>
        <time>2009-10-17T07:35:04Z</time>
      </trkpt>
      <trkpt lat="43.63601" lon="6.70616">
        <ele>458</ele>
        <time>2009-10-17T07:35:05Z</time>
      </trkpt>
      <trkpt lat="43.63604" lon="6.70602">
        <ele>457</ele>
        <time>2009-10-17T07:35:06Z</time>
      </trkpt>
      <trkpt lat="43.63601" lon="6.70588">
        <ele>457</ele>
        <time>2009-10-17T07:35:07Z</time>
      </trkpt>
      <trkpt lat="43.63596" lon="6.70575">
        <ele>454</ele>
        <time>2009-10-17T07:35:08Z</time>
      </trkpt>
      <trkpt lat="43.6359" lon="6.70569">
        <ele>452</ele>
        <time>2009-10-17T07:35:09Z</time>
      </trkpt>
      <trkpt lat="43.63403" lon="6.7053">
        <ele>439</ele>
        <time>2009-10-17T07:35:45Z</time>
      </trkpt>
      <trkpt lat="43.63393" lon="6.7055">
        <ele>439</ele>
        <time>2009-10-17T07:35:46Z</time>
      </trkpt>
      <trkpt lat="43.63383" lon="6.70561">
        <ele>441</ele>
        <time>2009-10-17T07:35:47Z</time>
      </trkpt>
      <trkpt lat="43.63374" lon="6.70565">
        <ele>442</ele>
        <time>2009-10-17T07:35:49Z</time>
      </trkpt>
      <trkpt lat="43.63369" lon="6.70568">
        <ele>443</ele>
        <time>2009-10-17T07:35:51Z</time>
      </trkpt>
      <trkpt lat="43.63382" lon="6.70568">
        <ele>454</ele>
        <time>2009-10-17T07:35:52Z</time>
      </trkpt>
      <trkpt lat="43.63372" lon="6.70566">
        <ele>455</ele>
        <time>2009-10-17T07:36:01Z</time>
      </trkpt>
      <trkpt lat="43.63368" lon="6.7057">
        <ele>457</ele>
        <time>2009-10-17T07:36:02Z</time>
      </trkpt>
      <trkpt lat="43.63363" lon="6.7057">
        <ele>458</ele>
        <time>2009-10-17T07:36:04Z</time>
      </trkpt>
      <trkpt lat="43.63358" lon="6.70575">
        <ele>458</ele>
        <time>2009-10-17T07:36:06Z</time>
      </trkpt>
      <trkpt lat="43.63353" lon="6.70574">
        <ele>456</ele>
        <time>2009-10-17T07:36:08Z</time>
      </trkpt>
      <trkpt lat="43.63295" lon="6.70605">
        <ele>456</ele>
        <time>2009-10-17T07:36:43Z</time>
      </trkpt>
      <trkpt lat="43.63273" lon="6.70586">
        <ele>458</ele>
        <time>2009-10-17T07:36:44Z</time>
      </trkpt>
      <trkpt lat="43.63264" lon="6.7059">
        <ele>459</ele>
        <time>2009-10-17T07:36:45Z</time>
      </trkpt>
      <trkpt lat="43.63262" lon="6.70582">
        <ele>460</ele>
        <time>2009-10-17T07:36:46Z</time>
      </trkpt>
      <trkpt lat="43.63259" lon="6.70577">
        <ele>460</ele>
        <time>2009-10-17T07:36:48Z</time>
      </trkpt>
      <trkpt lat="43.63259" lon="6.7057">
        <ele>459</ele>
        <time>2009-10-17T07:36:50Z</time>
      </trkpt>
      <trkpt lat="43.63137" lon="6.70418">
        <ele>434</ele>
        <time>2009-10-17T07:37:43Z</time>
      </trkpt>
      <trkpt lat="43.63091" lon="6.70366">
        <ele>451</ele>
        <time>2009-10-17T07:37:44Z</time>
      </trkpt>
      <trkpt lat="43.63086" lon="6.70348">
        <ele>452</ele>
        <time>2009-10-17T07:37:45Z</time>
      </trkpt>
      <trkpt lat="43.63083" lon="6.70341">
        <ele>454</ele>
        <time>2009-10-17T07:37:46Z</time>
      </trkpt>
      <trkpt lat="43.63081" lon="6.70333">
        <ele>454</ele>
        <time>2009-10-17T07:37:47Z</time>
      </trkpt>
      <trkpt lat="43.63079" lon="6.70322">
        <ele>456</ele>
        <time>2009-10-17T07:37:48Z</time>
      </trkpt>
      <trkpt lat="43.63078" lon="6.70312">
        <ele>456</ele>
        <time>2009-10-17T07:37:49Z</time>
      </trkpt>
      <trkpt lat="43.63078" lon="6.70303">
        <ele>456</ele>
        <time>2009-10-17T07:37:50Z</time>
      </trkpt>
      <trkpt lat="43.6286" lon="6.70132">
        <ele>454</ele>
        <time>2009-10-17T07:38:44Z</time>
      </trkpt>
      <trkpt lat="43.62856" lon="6.70126">
        <ele>456</ele>
        <time>2009-10-17T07:38:45Z</time>
      </trkpt>
      <trkpt lat="43.62853" lon="6.70117">
        <ele>455</ele>
        <time>2009-10-17T07:38:46Z</time>
      </trkpt>
      <trkpt lat="43.62847" lon="6.70117">
        <ele>460</ele>
        <time>2009-10-17T07:38:47Z</time>
      </trkpt>
      <trkpt lat="43.62842" lon="6.70116">
        <ele>462</ele>
        <time>2009-10-17T07:38:48Z</time>
      </trkpt>
      <trkpt lat="43.62839" lon="6.70109">
        <ele>461</ele>
        <time>2009-10-17T07:38:49Z</time>
      </trkpt>
      <trkpt lat="43.6247" lon="6.69765">
        <ele>425</ele>
        <time>2009-10-17T07:39:44Z</time>
      </trkpt>
      <trkpt lat="43.62456" lon="6.69754">
        <ele>422</ele>
        <time>2009-10-17T07:39:45Z</time>
      </trkpt>
      <trkpt lat="43.62442" lon="6.69757">
        <ele>424</ele>
        <time>2009-10-17T07:39:46Z</time>
      </trkpt>
      <trkpt lat="43.62431" lon="6.69752">
        <ele>428</ele>
        <time>2009-10-17T07:39:47Z</time>
      </trkpt>
      <trkpt lat="43.6242" lon="6.69754">
        <ele>432</ele>
        <time>2009-10-17T07:39:48Z</time>
      </trkpt>
      <trkpt lat="43.62411" lon="6.69744">
        <ele>430</ele>
        <time>2009-10-17T07:39:49Z</time>
      </trkpt>
      <trkpt lat="43.62526" lon="6.69442">
        <ele>471</ele>
        <time>2009-10-17T07:40:52Z</time>
      </trkpt>
      <trkpt lat="43.62533" lon="6.69435">
        <ele>457</ele>
        <time>2009-10-17T07:40:53Z</time>
      </trkpt>
      <trkpt lat="43.62536" lon="6.69429">
        <ele>451</ele>
        <time>2009-10-17T07:41:04Z</time>
      </trkpt>
      <trkpt lat="43.62536" lon="6.69431">
        <ele>451</ele>
        <time>2009-10-17T07:41:05Z</time>
      </trkpt>
      <trkpt lat="43.62536" lon="6.69433">
        <ele>451</ele>
        <time>2009-10-17T07:41:07Z</time>
      </trkpt>
      <trkpt lat="43.62539" lon="6.69403">
        <ele>441</ele>
        <time>2009-10-17T07:41:08Z</time>
      </trkpt>
      <trkpt lat="43.62534" lon="6.69397">
        <ele>438</ele>
        <time>2009-10-17T07:41:17Z</time>
      </trkpt>
      <trkpt lat="43.6253" lon="6.69401">
        <ele>438</ele>
        <time>2009-10-17T07:41:19Z</time>
      </trkpt>
      <trkpt lat="43.62527" lon="6.6939">
        <ele>438</ele>
        <time>2009-10-17T07:41:24Z</time>
      </trkpt>
      <trkpt lat="43.62529" lon="6.69397">
        <ele>433</ele>
        <time>2009-10-17T07:41:25Z</time>
      </trkpt>
      <trkpt lat="43.62531" lon="6.69412">
        <ele>426</ele>
        <time>2009-10-17T07:41:27Z</time>
      </trkpt>
      <trkpt lat="43.62526" lon="6.69418">
        <ele>426</ele>
        <time>2009-10-17T07:41:35Z</time>
      </trkpt>
      <trkpt lat="43.62522" lon="6.69422">
        <ele>426</ele>
        <time>2009-10-17T07:41:38Z</time>
      </trkpt>
      <trkpt lat="43.62531" lon="6.69383">
        <ele>421</ele>
        <time>2009-10-17T07:41:42Z</time>
      </trkpt>
      <trkpt lat="43.62533" lon="6.69373">
        <ele>420</ele>
        <time>2009-10-17T07:41:43Z</time>
      </trkpt>
      <trkpt lat="43.62535" lon="6.69367">
        <ele>420</ele>
        <time>2009-10-17T07:41:45Z</time>
      </trkpt>
      <trkpt lat="43.62536" lon="6.69356">
        <ele>420</ele>
        <time>2009-10-17T07:41:47Z</time>
      </trkpt>
      <trkpt lat="43.62538" lon="6.69347">
        <ele>420</ele>
        <time>2009-10-17T07:41:49Z</time>
      </trkpt>
      <trkpt lat="43.62539" lon="6.69338">
        <ele>420</ele>
        <time>2009-10-17T07:41:51Z</time>
      </trkpt>
      <trkpt lat="43.62547" lon="6.69335">
        <ele>420</ele>
        <time>2009-10-17T07:41:52Z</time>
      </trkpt>
      <trkpt lat="43.6255" lon="6.69329">
        <ele>419</ele>
        <time>2009-10-17T07:41:53Z</time>
      </trkpt>
      <trkpt lat="43.62553" lon="6.69323">
        <ele>420</ele>
        <time>2009-10-17T07:41:54Z</time>
      </trkpt>
      <trkpt lat="43.62557" lon="6.69315">
        <ele>420</ele>
        <time>2009-10-17T07:41:55Z</time>
      </trkpt>
      <trkpt lat="43.62572" lon="6.69288">
        <ele>420</ele>
        <time>2009-10-17T07:42:02Z</time>
      </trkpt>
      <trkpt lat="43.62576" lon="6.6928">
        <ele>420</ele>
        <time>2009-10-17T07:42:04Z</time>
      </trkpt>
      <trkpt lat="43.62581" lon="6.69271">
        <ele>420</ele>
        <time>2009-10-17T07:42:06Z</time>
      </trkpt>
      <trkpt lat="43.62584" lon="6.69263">
        <ele>420</ele>
        <time>2009-10-17T07:42:07Z</time>
      </trkpt>
      <trkpt lat="43.62605" lon="6.69258">
        <ele>420</ele>
        <time>2009-10-17T07:42:09Z</time>
      </trkpt>
      <trkpt lat="43.62609" lon="6.69248">
        <ele>420</ele>
        <time>2009-10-17T07:42:10Z</time>
      </trkpt>
      <trkpt lat="43.62615" lon="6.69234">
        <ele>421</ele>
        <time>2009-10-17T07:42:11Z</time>
      </trkpt>
      <trkpt lat="43.62618" lon="6.69225">
        <ele>421</ele>
        <time>2009-10-17T07:42:12Z</time>
      </trkpt>
      <trkpt lat="43.62651" lon="6.69186">
        <ele>421</ele>
        <time>2009-10-17T07:42:19Z</time>
      </trkpt>
      <trkpt lat="43.6266" lon="6.69177">
        <ele>421</ele>
        <time>2009-10-17T07:42:21Z</time>
      </trkpt>
      <trkpt lat="43.62665" lon="6.69171">
        <ele>421</ele>
        <time>2009-10-17T07:42:22Z</time>
      </trkpt>
      <trkpt lat="43.62669" lon="6.69166">
        <ele>421</ele>
        <time>2009-10-17T07:42:23Z</time>
      </trkpt>
      <trkpt lat="43.62673" lon="6.69161">
        <ele>421</ele>
        <time>2009-10-17T07:42:24Z</time>
      </trkpt>
      <trkpt lat="43.62676" lon="6.69156">
        <ele>421</ele>
        <time>2009-10-17T07:42:25Z</time>
      </trkpt>
      <trkpt lat="43.62679" lon="6.69129">
        <ele>421</ele>
        <time>2009-10-17T07:42:26Z</time>
      </trkpt>
      <trkpt lat="43.62687" lon="6.69116">
        <ele>412</ele>
        <time>2009-10-17T07:42:27Z</time>
      </trkpt>
      <trkpt lat="43.62692" lon="6.69107">
        <ele>409</ele>
        <time>2009-10-17T07:42:28Z</time>
      </trkpt>
      <trkpt lat="43.62696" lon="6.69095">
        <ele>409</ele>
        <time>2009-10-17T07:42:29Z</time>
      </trkpt>
      <trkpt lat="43.62727" lon="6.69039">
        <ele>410</ele>
        <time>2009-10-17T07:42:36Z</time>
      </trkpt>
      <trkpt lat="43.62734" lon="6.69024">
        <ele>409</ele>
        <time>2009-10-17T07:42:37Z</time>
      </trkpt>
      <trkpt lat="43.62741" lon="6.69012">
        <ele>408</ele>
        <time>2009-10-17T07:42:38Z</time>
      </trkpt>
      <trkpt lat="43.62745" lon="6.68998">
        <ele>408</ele>
        <time>2009-10-17T07:42:39Z</time>
      </trkpt>
      <trkpt lat="43.6275" lon="6.68985">
        <ele>408</ele>
        <time>2009-10-17T07:42:40Z</time>
      </trkpt>
      <trkpt lat="43.62754" lon="6.6897">
        <ele>408</ele>
        <time>2009-10-17T07:42:41Z</time>
      </trkpt>
      <trkpt lat="43.62758" lon="6.68957">
        <ele>408</ele>
        <time>2009-10-17T07:42:42Z</time>
      </trkpt>
      <trkpt lat="43.62765" lon="6.68938">
        <ele>408</ele>
        <time>2009-10-17T07:42:44Z</time>
      </trkpt>
      <trkpt lat="43.62769" lon="6.68927">
        <ele>408</ele>
        <time>2009-10-17T07:42:45Z</time>
      </trkpt>
      <trkpt lat="43.62773" lon="6.68912">
        <ele>407</ele>
        <time>2009-10-17T07:42:46Z</time>
      </trkpt>
      <trkpt lat="43.62777" lon="6.68902">
        <ele>407</ele>
        <time>2009-10-17T07:42:47Z</time>
      </trkpt>
      <trkpt lat="43.6278" lon="6.68892">
        <ele>407</ele>
        <time>2009-10-17T07:42:48Z</time>
      </trkpt>
      <trkpt lat="43.62784" lon="6.68886">
        <ele>407</ele>
        <time>2009-10-17T07:42:49Z</time>
      </trkpt>
      <trkpt lat="43.62787" lon="6.68876">
        <ele>407</ele>
        <time>2009-10-17T07:42:50Z</time>
      </trkpt>
      <trkpt lat="43.62797" lon="6.68847">
        <ele>407</ele>
        <time>2009-10-17T07:42:51Z</time>
      </trkpt>
      <trkpt lat="43.62808" lon="6.68835">
        <ele>404</ele>
        <time>2009-10-17T07:42:52Z</time>
      </trkpt>
      <trkpt lat="43.62815" lon="6.68827">
        <ele>400</ele>
        <time>2009-10-17T07:42:53Z</time>
      </trkpt>
      <trkpt lat="43.62823" lon="6.68831">
        <ele>395</ele>
        <time>2009-10-17T07:42:54Z</time>
      </trkpt>
      <trkpt lat="43.62846" lon="6.68807">
        <ele>379</ele>
        <time>2009-10-17T07:43:00Z</time>
      </trkpt>
      <trkpt lat="43.62847" lon="6.68815">
        <ele>372</ele>
        <time>2009-10-17T07:43:01Z</time>
      </trkpt>
      <trkpt lat="43.62941" lon="6.68695">
        <ele>339</ele>
        <time>2009-10-17T07:43:44Z</time>
      </trkpt>
      <trkpt lat="43.62929" lon="6.68714">
        <ele>340</ele>
        <time>2009-10-17T07:43:45Z</time>
      </trkpt>
      <trkpt lat="43.62925" lon="6.68719">
        <ele>339</ele>
        <time>2009-10-17T07:43:47Z</time>
      </trkpt>
      <trkpt lat="43.62933" lon="6.68717">
        <ele>332</ele>
        <time>2009-10-17T07:43:50Z</time>
      </trkpt>
      <trkpt lat="43.6295" lon="6.68734">
        <ele>350</ele>
        <time>2009-10-17T07:43:51Z</time>
      </trkpt>
      <trkpt lat="43.6295" lon="6.68728">
        <ele>348</ele>
        <time>2009-10-17T07:44:03Z</time>
      </trkpt>
      <trkpt lat="43.62946" lon="6.68716">
        <ele>346</ele>
        <time>2009-10-17T07:44:07Z</time>
      </trkpt>
      <trkpt lat="43.6294" lon="6.68719">
        <ele>345</ele>
        <time>2009-10-17T07:44:10Z</time>
      </trkpt>
      <trkpt lat="43.62924" lon="6.68692">
        <ele>353</ele>
        <time>2009-10-17T07:44:18Z</time>
      </trkpt>
      <trkpt lat="43.6292" lon="6.68689">
        <ele>353</ele>
        <time>2009-10-17T07:44:20Z</time>
      </trkpt>
      <trkpt lat="43.62908" lon="6.68622">
        <ele>353</ele>
        <time>2009-10-17T07:44:43Z</time>
      </trkpt>
      <trkpt lat="43.62909" lon="6.68612">
        <ele>353</ele>
        <time>2009-10-17T07:44:45Z</time>
      </trkpt>
      <trkpt lat="43.62909" lon="6.68602">
        <ele>352</ele>
        <time>2009-10-17T07:44:47Z</time>
      </trkpt>
      <trkpt lat="43.6291" lon="6.68593">
        <ele>352</ele>
        <time>2009-10-17T07:44:49Z</time>
      </trkpt>
      <trkpt lat="43.62921" lon="6.68595">
        <ele>353</ele>
        <time>2009-10-17T07:44:51Z</time>
      </trkpt>
      <trkpt lat="43.62929" lon="6.68599">
        <ele>351</ele>
        <time>2009-10-17T07:44:53Z</time>
      </trkpt>
      <trkpt lat="43.62931" lon="6.68588">
        <ele>352</ele>
        <time>2009-10-17T07:45:00Z</time>
      </trkpt>
      <trkpt lat="43.62934" lon="6.68582">
        <ele>352</ele>
        <time>2009-10-17T07:45:03Z</time>
      </trkpt>
      <trkpt lat="43.62955" lon="6.6849">
        <ele>353</ele>
        <time>2009-10-17T07:45:43Z</time>
      </trkpt>
      <trkpt lat="43.62992" lon="6.68509">
        <ele>354</ele>
        <time>2009-10-17T07:45:44Z</time>
      </trkpt>
      <trkpt lat="43.62993" lon="6.68498">
        <ele>354</ele>
        <time>2009-10-17T07:45:45Z</time>
      </trkpt>
      <trkpt lat="43.62998" lon="6.68494">
        <ele>354</ele>
        <time>2009-10-17T07:45:47Z</time>
      </trkpt>
      <trkpt lat="43.63002" lon="6.6849">
        <ele>354</ele>
        <time>2009-10-17T07:45:49Z</time>
      </trkpt>
      <trkpt lat="43.63008" lon="6.68488">
        <ele>352</ele>
        <time>2009-10-17T07:45:51Z</time>
      </trkpt>
      <trkpt lat="43.63023" lon="6.68491">
        <ele>357</ele>
        <time>2009-10-17T07:46:00Z</time>
      </trkpt>
      <trkpt lat="43.63027" lon="6.68494">
        <ele>359</ele>
        <time>2009-10-17T07:46:03Z</time>
      </trkpt>
      <trkpt lat="43.63031" lon="6.68497">
        <ele>360</ele>
        <time>2009-10-17T07:46:06Z</time>
      </trkpt>
      <trkpt lat="43.63035" lon="6.68491">
        <ele>363</ele>
        <time>2009-10-17T07:46:08Z</time>
      </trkpt>
      <trkpt lat="43.63088" lon="6.6845">
        <ele>366</ele>
        <time>2009-10-17T07:46:43Z</time>
      </trkpt>
      <trkpt lat="43.63079" lon="6.68487">
        <ele>367</ele>
        <time>2009-10-17T07:46:44Z</time>
      </trkpt>
      <trkpt lat="43.63076" lon="6.68504">
        <ele>367</ele>
        <time>2009-10-17T07:46:45Z</time>
      </trkpt>
      <trkpt lat="43.63075" lon="6.68517">
        <ele>367</ele>
        <time>2009-10-17T07:46:47Z</time>
      </trkpt>
      <trkpt lat="43.63075" lon="6.68526">
        <ele>366</ele>
        <time>2009-10-17T07:46:49Z</time>
      </trkpt>
      <trkpt lat="43.63108" lon="6.68553">
        <ele>371</ele>
        <time>2009-10-17T07:46:51Z</time>
      </trkpt>
      <trkpt lat="43.63197" lon="6.6854">
        <ele>372</ele>
        <time>2009-10-17T07:47:44Z</time>
      </trkpt>
      <trkpt lat="43.6319" lon="6.68537">
        <ele>371</ele>
        <time>2009-10-17T07:47:45Z</time>
      </trkpt>
      <trkpt lat="43.63181" lon="6.68534">
        <ele>393</ele>
        <time>2009-10-17T07:47:51Z</time>
      </trkpt>
      <trkpt lat="43.63182" lon="6.68538">
        <ele>393</ele>
        <time>2009-10-17T07:47:53Z</time>
      </trkpt>
      <trkpt lat="43.63184" lon="6.68536">
        <ele>394</ele>
        <time>2009-10-17T07:48:08Z</time>
      </trkpt>
      <trkpt lat="43.63195" lon="6.68542">
        <ele>395</ele>
        <time>2009-10-17T07:48:43Z</time>
      </trkpt>
      <trkpt lat="43.6321" lon="6.68533">
        <ele>396</ele>
        <time>2009-10-17T07:48:44Z</time>
      </trkpt>
      <trkpt lat="43.63214" lon="6.68525">
        <ele>395</ele>
        <time>2009-10-17T07:48:46Z</time>
      </trkpt>
      <trkpt lat="43.63215" lon="6.6852">
        <ele>396</ele>
        <time>2009-10-17T07:48:49Z</time>
      </trkpt>
      <trkpt lat="43.63217" lon="6.68515">
        <ele>396</ele>
        <time>2009-10-17T07:50:49Z</time>
      </trkpt>
      <trkpt lat="43.63217" lon="6.68514">
        <ele>396</ele>
        <time>2009-10-17T07:50:50Z</time>
      </trkpt>
      <trkpt lat="43.63217" lon="6.68512">
        <ele>396</ele>
        <time>2009-10-17T07:50:54Z</time>
      </trkpt>
      <trkpt lat="43.63218" lon="6.68506">
        <ele>398</ele>
        <time>2009-10-17T07:51:21Z</time>
      </trkpt>
      <trkpt lat="43.63218" lon="6.68506">
        <ele>398</ele>
        <time>2009-10-17T07:51:22Z</time>
      </trkpt>
      <trkpt lat="43.63218" lon="6.68506">
        <ele>398</ele>
        <time>2009-10-17T07:51:22Z</time>
      </trkpt>
      <trkpt lat="43.63218" lon="6.68504">
        <ele>399</ele>
        <time>2009-10-17T07:51:36Z</time>
      </trkpt>
      <trkpt lat="43.63235" lon="6.68344">
        <ele>398</ele>
        <time>2009-10-17T07:51:37Z</time>
      </trkpt>
      <trkpt lat="43.63236" lon="6.68337">
        <ele>398</ele>
        <time>2009-10-17T07:51:40Z</time>
      </trkpt>
      <trkpt lat="43.63237" lon="6.68321">
        <ele>398</ele>
        <time>2009-10-17T07:51:42Z</time>
      </trkpt>
      <trkpt lat="43.63238" lon="6.6831">
        <ele>398</ele>
        <time>2009-10-17T07:51:44Z</time>
      </trkpt>
      <trkpt lat="43.63242" lon="6.68297">
        <ele>397</ele>
        <time>2009-10-17T07:51:47Z</time>
      </trkpt>
      <trkpt lat="43.63245" lon="6.68289">
        <ele>397</ele>
        <time>2009-10-17T07:51:49Z</time>
      </trkpt>
      <trkpt lat="43.63249" lon="6.68281">
        <ele>398</ele>
        <time>2009-10-17T07:51:51Z</time>
      </trkpt>
      <trkpt lat="43.63251" lon="6.68273">
        <ele>398</ele>
        <time>2009-10-17T07:51:52Z</time>
      </trkpt>
      <trkpt lat="43.63266" lon="6.68255">
        <ele>400</ele>
        <time>2009-10-17T07:52:01Z</time>
      </trkpt>
      <trkpt lat="43.6327" lon="6.68251">
        <ele>400</ele>
        <time>2009-10-17T07:52:02Z</time>
      </trkpt>
      <trkpt lat="43.63276" lon="6.68245">
        <ele>400</ele>
        <time>2009-10-17T07:52:04Z</time>
      </trkpt>
      <trkpt lat="43.63282" lon="6.68236">
        <ele>401</ele>
        <time>2009-10-17T07:52:06Z</time>
      </trkpt>
      <trkpt lat="43.63288" lon="6.68242">
        <ele>401</ele>
        <time>2009-10-17T07:52:09Z</time>
      </trkpt>
      <trkpt lat="43.63292" lon="6.68246">
        <ele>401</ele>
        <time>2009-10-17T07:52:11Z</time>
      </trkpt>
      <trkpt lat="43.63305" lon="6.68233">
        <ele>401</ele>
        <time>2009-10-17T07:52:18Z</time>
      </trkpt>
      <trkpt lat="43.6331" lon="6.68232">
        <ele>401</ele>
        <time>2009-10-17T07:52:21Z</time>
      </trkpt>
      <trkpt lat="43.63316" lon="6.68227">
        <ele>401</ele>
        <time>2009-10-17T07:52:24Z</time>
      </trkpt>
      <trkpt lat="43.63311" lon="6.6823">
        <ele>401</ele>
        <time>2009-10-17T07:52:25Z</time>
      </trkpt>
      <trkpt lat="43.63314" lon="6.68222">
        <ele>401</ele>
        <time>2009-10-17T07:52:26Z</time>
      </trkpt>
      <trkpt lat="43.63314" lon="6.68222">
        <ele>401</ele>
        <time>2009-10-17T07:52:27Z</time>
      </trkpt>
      <trkpt lat="43.63314" lon="6.68222">
        <ele>401</ele>
        <time>2009-10-17T07:52:28Z</time>
      </trkpt>
      <trkpt lat="43.63321" lon="6.68207">
        <ele>401</ele>
        <time>2009-10-17T07:52:35Z</time>
      </trkpt>
      <trkpt lat="43.63317" lon="6.68196">
        <ele>400</ele>
        <time>2009-10-17T07:52:44Z</time>
      </trkpt>
      <trkpt lat="43.63317" lon="6.68189">
        <ele>400</ele>
        <time>2009-10-17T07:52:45Z</time>
      </trkpt>
      <trkpt lat="43.63318" lon="6.68182">
        <ele>400</ele>
        <time>2009-10-17T07:52:47Z</time>
      </trkpt>
      <trkpt lat="43.63315" lon="6.68173">
        <ele>400</ele>
        <time>2009-10-17T07:52:49Z</time>
      </trkpt>
      <trkpt lat="43.63314" lon="6.68166">
        <ele>402</ele>
        <time>2009-10-17T07:52:52Z</time>
      </trkpt>
      <trkpt lat="43.63316" lon="6.68144">
        <ele>407</ele>
        <time>2009-10-17T07:54:05Z</time>
      </trkpt>
      <trkpt lat="43.63317" lon="6.68133">
        <ele>407</ele>
        <time>2009-10-17T07:54:06Z</time>
      </trkpt>
      <trkpt lat="43.63317" lon="6.68124">
        <ele>408</ele>
        <time>2009-10-17T07:54:07Z</time>
      </trkpt>
      <trkpt lat="43.63317" lon="6.68121">
        <ele>409</ele>
        <time>2009-10-17T07:54:15Z</time>
      </trkpt>
      <trkpt lat="43.63315" lon="6.68118">
        <ele>410</ele>
        <time>2009-10-17T07:54:22Z</time>
      </trkpt>
      <trkpt lat="43.63315" lon="6.68114">
        <ele>412</ele>
        <time>2009-10-17T07:54:23Z</time>
      </trkpt>
      <trkpt lat="43.63311" lon="6.6811">
        <ele>415</ele>
        <time>2009-10-17T07:54:32Z</time>
      </trkpt>
      <trkpt lat="43.6331" lon="6.68101">
        <ele>418</ele>
        <time>2009-10-17T07:54:38Z</time>
      </trkpt>
      <trkpt lat="43.63311" lon="6.68095">
        <ele>419</ele>
        <time>2009-10-17T07:54:41Z</time>
      </trkpt>
      <trkpt lat="43.63312" lon="6.68088">
        <ele>419</ele>
        <time>2009-10-17T07:54:46Z</time>
      </trkpt>
      <trkpt lat="43.63329" lon="6.68002">
        <ele>416</ele>
        <time>2009-10-17T07:54:50Z</time>
      </trkpt>
      <trkpt lat="43.63332" lon="6.67991">
        <ele>416</ele>
        <time>2009-10-17T07:54:52Z</time>
      </trkpt>
      <trkpt lat="43.63335" lon="6.67983">
        <ele>416</ele>
        <time>2009-10-17T07:54:53Z</time>
      </trkpt>
      <trkpt lat="43.63345" lon="6.67953">
        <ele>416</ele>
        <time>2009-10-17T07:55:01Z</time>
      </trkpt>
      <trkpt lat="43.63348" lon="6.67946">
        <ele>416</ele>
        <time>2009-10-17T07:55:05Z</time>
      </trkpt>
      <trkpt lat="43.6335" lon="6.67939">
        <ele>416</ele>
        <time>2009-10-17T07:55:07Z</time>
      </trkpt>
      <trkpt lat="43.63355" lon="6.67935">
        <ele>417</ele>
        <time>2009-10-17T07:55:08Z</time>
      </trkpt>
      <trkpt lat="43.63359" lon="6.67927">
        <ele>417</ele>
        <time>2009-10-17T07:55:09Z</time>
      </trkpt>
      <trkpt lat="43.63369" lon="6.67909">
        <ele>418</ele>
        <time>2009-10-17T07:55:18Z</time>
      </trkpt>
      <trkpt lat="43.63378" lon="6.67917">
        <ele>418</ele>
        <time>2009-10-17T07:55:25Z</time>
      </trkpt>
      <trkpt lat="43.63383" lon="6.67919">
        <ele>418</ele>
        <time>2009-10-17T07:55:26Z</time>
      </trkpt>
      <trkpt lat="43.63398" lon="6.67917">
        <ele>419</ele>
        <time>2009-10-17T07:55:35Z</time>
      </trkpt>
      <trkpt lat="43.63403" lon="6.67916">
        <ele>419</ele>
        <time>2009-10-17T07:55:37Z</time>
      </trkpt>
      <trkpt lat="43.63409" lon="6.67913">
        <ele>419</ele>
        <time>2009-10-17T07:55:40Z</time>
      </trkpt>
      <trkpt lat="43.63414" lon="6.67907">
        <ele>419</ele>
        <time>2009-10-17T07:55:44Z</time>
      </trkpt>
      <trkpt lat="43.63418" lon="6.67911">
        <ele>419</ele>
        <time>2009-10-17T07:55:49Z</time>
      </trkpt>
      <trkpt lat="43.63494" lon="6.67808">
        <ele>421</ele>
        <time>2009-10-17T07:56:44Z</time>
      </trkpt>
      <trkpt lat="43.63498" lon="6.67813">
        <ele>419</ele>
        <time>2009-10-17T07:56:47Z</time>
      </trkpt>
      <trkpt lat="43.63501" lon="6.67805">
        <ele>420</ele>
        <time>2009-10-17T07:56:50Z</time>
      </trkpt>
      <trkpt lat="43.63495" lon="6.67805">
        <ele>423</ele>
        <time>2009-10-17T07:57:05Z</time>
      </trkpt>
      <trkpt lat="43.63493" lon="6.67811">
        <ele>423</ele>
        <time>2009-10-17T07:57:07Z</time>
      </trkpt>
      <trkpt lat="43.63486" lon="6.67815">
        <ele>423</ele>
        <time>2009-10-17T07:57:10Z</time>
      </trkpt>
      <trkpt lat="43.63477" lon="6.6782">
        <ele>423</ele>
        <time>2009-10-17T07:57:17Z</time>
      </trkpt>
      <trkpt lat="43.63472" lon="6.67826">
        <ele>423</ele>
        <time>2009-10-17T07:57:18Z</time>
      </trkpt>
      <trkpt lat="43.63472" lon="6.67832">
        <ele>423</ele>
        <time>2009-10-17T07:57:19Z</time>
      </trkpt>
      <trkpt lat="43.63471" lon="6.67839">
        <ele>423</ele>
        <time>2009-10-17T07:57:20Z</time>
      </trkpt>
      <trkpt lat="43.63469" lon="6.6785">
        <ele>422</ele>
        <time>2009-10-17T07:57:22Z</time>
      </trkpt>
      <trkpt lat="43.63463" lon="6.67861">
        <ele>422</ele>
        <time>2009-10-17T07:57:24Z</time>
      </trkpt>
      <trkpt lat="43.63462" lon="6.67867">
        <ele>422</ele>
        <time>2009-10-17T07:57:25Z</time>
      </trkpt>
      <trkpt lat="43.63461" lon="6.67875">
        <ele>422</ele>
        <time>2009-10-17T07:57:26Z</time>
      </trkpt>
      <trkpt lat="43.63458" lon="6.67883">
        <ele>422</ele>
        <time>2009-10-17T07:57:27Z</time>
      </trkpt>
      <trkpt lat="43.63448" lon="6.67896">
        <ele>422</ele>
        <time>2009-10-17T07:57:34Z</time>
      </trkpt>
      <trkpt lat="43.63443" lon="6.67892">
        <ele>422</ele>
        <time>2009-10-17T07:57:35Z</time>
      </trkpt>
      <trkpt lat="43.63438" lon="6.67893">
        <ele>422</ele>
        <time>2009-10-17T07:57:39Z</time>
      </trkpt>
      <trkpt lat="43.63432" lon="6.67917">
        <ele>421</ele>
        <time>2009-10-17T07:57:41Z</time>
      </trkpt>
      <trkpt lat="43.63429" lon="6.67931">
        <ele>421</ele>
        <time>2009-10-17T07:57:42Z</time>
      </trkpt>
      <trkpt lat="43.63427" lon="6.67942">
        <ele>421</ele>
        <time>2009-10-17T07:57:44Z</time>
      </trkpt>
      <trkpt lat="43.63425" lon="6.67951">
        <ele>421</ele>
        <time>2009-10-17T07:57:46Z</time>
      </trkpt>
      <trkpt lat="43.63423" lon="6.67962">
        <ele>421</ele>
        <time>2009-10-17T07:57:48Z</time>
      </trkpt>
      <trkpt lat="43.63424" lon="6.67969">
        <ele>421</ele>
        <time>2009-10-17T07:57:49Z</time>
      </trkpt>
      <trkpt lat="43.6342" lon="6.68006">
        <ele>421</ele>
        <time>2009-10-17T07:57:51Z</time>
      </trkpt>
      <trkpt lat="43.63419" lon="6.68018">
        <ele>421</ele>
        <time>2009-10-17T07:57:52Z</time>
      </trkpt>
      <trkpt lat="43.63419" lon="6.68026">
        <ele>421</ele>
        <time>2009-10-17T07:57:53Z</time>
      </trkpt>
      <trkpt lat="43.63424" lon="6.68066">
        <ele>421</ele>
        <time>2009-10-17T07:58:01Z</time>
      </trkpt>
      <trkpt lat="43.63423" lon="6.6808">
        <ele>421</ele>
        <time>2009-10-17T07:58:03Z</time>
      </trkpt>
      <trkpt lat="43.63425" lon="6.68091">
        <ele>421</ele>
        <time>2009-10-17T07:58:05Z</time>
      </trkpt>
      <trkpt lat="43.63425" lon="6.68097">
        <ele>421</ele>
        <time>2009-10-17T07:58:06Z</time>
      </trkpt>
      <trkpt lat="43.63414" lon="6.68094">
        <ele>441</ele>
        <time>2009-10-17T07:58:08Z</time>
      </trkpt>
      <trkpt lat="43.63413" lon="6.68111">
        <ele>450</ele>
        <time>2009-10-17T07:58:18Z</time>
      </trkpt>
      <trkpt lat="43.63417" lon="6.68116">
        <ele>451</ele>
        <time>2009-10-17T07:58:20Z</time>
      </trkpt>
      <trkpt lat="43.6342" lon="6.68121">
        <ele>451</ele>
        <time>2009-10-17T07:58:24Z</time>
      </trkpt>
      <trkpt lat="43.63435" lon="6.68155">
        <ele>451</ele>
        <time>2009-10-17T07:58:43Z</time>
      </trkpt>
      <trkpt lat="43.6344" lon="6.68151">
        <ele>451</ele>
        <time>2009-10-17T07:58:44Z</time>
      </trkpt>
      <trkpt lat="43.63445" lon="6.68154">
        <ele>451</ele>
        <time>2009-10-17T07:58:47Z</time>
      </trkpt>
      <trkpt lat="43.63448" lon="6.68162">
        <ele>451</ele>
        <time>2009-10-17T07:58:50Z</time>
      </trkpt>
      <trkpt lat="43.63455" lon="6.68165">
        <ele>453</ele>
        <time>2009-10-17T07:59:00Z</time>
      </trkpt>
      <trkpt lat="43.63459" lon="6.68162">
        <ele>452</ele>
        <time>2009-10-17T07:59:04Z</time>
      </trkpt>
      <trkpt lat="43.63469" lon="6.68151">
        <ele>456</ele>
        <time>2009-10-17T07:59:07Z</time>
      </trkpt>
      <trkpt lat="43.6352" lon="6.68142">
        <ele>458</ele>
        <time>2009-10-17T07:59:43Z</time>
      </trkpt>
      <trkpt lat="43.63528" lon="6.68139">
        <ele>467</ele>
        <time>2009-10-17T07:59:44Z</time>
      </trkpt>
      <trkpt lat="43.63532" lon="6.68145">
        <ele>467</ele>
        <time>2009-10-17T07:59:46Z</time>
      </trkpt>
      <trkpt lat="43.63537" lon="6.6814">
        <ele>465</ele>
        <time>2009-10-17T07:59:49Z</time>
      </trkpt>
      <trkpt lat="43.63608" lon="6.6805">
        <ele>467</ele>
        <time>2009-10-17T08:00:43Z</time>
      </trkpt>
      <trkpt lat="43.63577" lon="6.68016">
        <ele>475</ele>
        <time>2009-10-17T08:00:44Z</time>
      </trkpt>
      <trkpt lat="43.63576" lon="6.68022">
        <ele>476</ele>
        <time>2009-10-17T08:00:45Z</time>
      </trkpt>
      <trkpt lat="43.63577" lon="6.68022">
        <ele>480</ele>
        <time>2009-10-17T08:00:49Z</time>
      </trkpt>
      <trkpt lat="43.63617" lon="6.67935">
        <ele>475</ele>
        <time>2009-10-17T08:01:44Z</time>
      </trkpt>
      <trkpt lat="43.63619" lon="6.67929">
        <ele>476</ele>
        <time>2009-10-17T08:01:45Z</time>
      </trkpt>
      <trkpt lat="43.6362" lon="6.67923">
        <ele>476</ele>
        <time>2009-10-17T08:01:47Z</time>
      </trkpt>
      <trkpt lat="43.63626" lon="6.67924">
        <ele>484</ele>
        <time>2009-10-17T08:01:51Z</time>
      </trkpt>
      <trkpt lat="43.6363" lon="6.67911">
        <ele>487</ele>
        <time>2009-10-17T08:02:01Z</time>
      </trkpt>
      <trkpt lat="43.63634" lon="6.67908">
        <ele>487</ele>
        <time>2009-10-17T08:02:06Z</time>
      </trkpt>
      <trkpt lat="43.6364" lon="6.67901">
        <ele>489</ele>
        <time>2009-10-17T08:02:10Z</time>
      </trkpt>
      <trkpt lat="43.63644" lon="6.6789">
        <ele>489</ele>
        <time>2009-10-17T08:02:11Z</time>
      </trkpt>
      <trkpt lat="43.63652" lon="6.67876">
        <ele>489</ele>
        <time>2009-10-17T08:02:18Z</time>
      </trkpt>
      <trkpt lat="43.63657" lon="6.67867">
        <ele>488</ele>
        <time>2009-10-17T08:02:20Z</time>
      </trkpt>
      <trkpt lat="43.63657" lon="6.67874">
        <ele>489</ele>
        <time>2009-10-17T08:02:22Z</time>
      </trkpt>
      <trkpt lat="43.63663" lon="6.67872">
        <ele>492</ele>
        <time>2009-10-17T08:02:24Z</time>
      </trkpt>
      <trkpt lat="43.63669" lon="6.6787">
        <ele>495</ele>
        <time>2009-10-17T08:02:27Z</time>
      </trkpt>
      <trkpt lat="43.63674" lon="6.67871">
        <ele>496</ele>
        <time>2009-10-17T08:02:30Z</time>
      </trkpt>
      <trkpt lat="43.63684" lon="6.67861">
        <ele>495</ele>
        <time>2009-10-17T08:02:37Z</time>
      </trkpt>
      <trkpt lat="43.63686" lon="6.67867">
        <ele>495</ele>
        <time>2009-10-17T08:02:39Z</time>
      </trkpt>
      <trkpt lat="43.63691" lon="6.67865">
        <ele>495</ele>
        <time>2009-10-17T08:02:44Z</time>
      </trkpt>
      <trkpt lat="43.63694" lon="6.67856">
        <ele>494</ele>
        <time>2009-10-17T08:02:48Z</time>
      </trkpt>
      <trkpt lat="43.63698" lon="6.67853">
        <ele>494</ele>
        <time>2009-10-17T08:02:51Z</time>
      </trkpt>
      <trkpt lat="43.63754" lon="6.67819">
        <ele>494</ele>
        <time>2009-10-17T08:03:43Z</time>
      </trkpt>
      <trkpt lat="43.63731" lon="6.67807">
        <ele>495</ele>
        <time>2009-10-17T08:03:44Z</time>
      </trkpt>
      <trkpt lat="43.63731" lon="6.67821">
        <ele>495</ele>
        <time>2009-10-17T08:03:45Z</time>
      </trkpt>
      <trkpt lat="43.63738" lon="6.67801">
        <ele>496</ele>
        <time>2009-10-17T08:03:46Z</time>
      </trkpt>
      <trkpt lat="43.63743" lon="6.67806">
        <ele>494</ele>
        <time>2009-10-17T08:03:48Z</time>
      </trkpt>
      <trkpt lat="43.63751" lon="6.67789">
        <ele>494</ele>
        <time>2009-10-17T08:03:49Z</time>
      </trkpt>
      <trkpt lat="43.63753" lon="6.67795">
        <ele>494</ele>
        <time>2009-10-17T08:03:51Z</time>
      </trkpt>
      <trkpt lat="43.63757" lon="6.67801">
        <ele>499</ele>
        <time>2009-10-17T08:03:52Z</time>
      </trkpt>
      <trkpt lat="43.63758" lon="6.67817">
        <ele>500</ele>
        <time>2009-10-17T08:04:00Z</time>
      </trkpt>
      <trkpt lat="43.63757" lon="6.67828">
        <ele>500</ele>
        <time>2009-10-17T08:04:01Z</time>
      </trkpt>
      <trkpt lat="43.63757" lon="6.67828">
        <ele>499</ele>
        <time>2009-10-17T08:04:03Z</time>
      </trkpt>
      <trkpt lat="43.63757" lon="6.67832">
        <ele>499</ele>
        <time>2009-10-17T08:04:05Z</time>
      </trkpt>
      <trkpt lat="43.63757" lon="6.67834">
        <ele>499</ele>
        <time>2009-10-17T08:04:06Z</time>
      </trkpt>
      <trkpt lat="43.63756" lon="6.67827">
        <ele>495</ele>
        <time>2009-10-17T08:04:08Z</time>
      </trkpt>
      <trkpt lat="43.63755" lon="6.67831">
        <ele>494</ele>
        <time>2009-10-17T08:04:24Z</time>
      </trkpt>
      <trkpt lat="43.63758" lon="6.67835">
        <ele>497</ele>
        <time>2009-10-17T08:04:39Z</time>
      </trkpt>
      <trkpt lat="43.63759" lon="6.67836">
        <ele>499</ele>
        <time>2009-10-17T08:04:40Z</time>
      </trkpt>
      <trkpt lat="43.63761" lon="6.67837">
        <ele>501</ele>
        <time>2009-10-17T08:04:42Z</time>
      </trkpt>
      <trkpt lat="43.63765" lon="6.67835">
        <ele>506</ele>
        <time>2009-10-17T08:05:04Z</time>
      </trkpt>
      <trkpt lat="43.63766" lon="6.67836">
        <ele>507</ele>
        <time>2009-10-17T08:05:05Z</time>
      </trkpt>
      <trkpt lat="43.63767" lon="6.67838">
        <ele>511</ele>
        <time>2009-10-17T08:05:09Z</time>
      </trkpt>
      <trkpt lat="43.63768" lon="6.67838">
        <ele>512</ele>
        <time>2009-10-17T08:05:21Z</time>
      </trkpt>
      <trkpt lat="43.63802" lon="6.6772">
        <ele>500</ele>
        <time>2009-10-17T08:05:22Z</time>
      </trkpt>
      <trkpt lat="43.63805" lon="6.67701">
        <ele>500</ele>
        <time>2009-10-17T08:05:25Z</time>
      </trkpt>
      <trkpt lat="43.6381" lon="6.67682">
        <ele>500</ele>
        <time>2009-10-17T08:05:26Z</time>
      </trkpt>
      <trkpt lat="43.63809" lon="6.67675">
        <ele>500</ele>
        <time>2009-10-17T08:05:27Z</time>
      </trkpt>
      <trkpt lat="43.63811" lon="6.67665">
        <ele>500</ele>
        <time>2009-10-17T08:05:28Z</time>
      </trkpt>
      <trkpt lat="43.6381" lon="6.6764">
        <ele>500</ele>
        <time>2009-10-17T08:05:35Z</time>
      </trkpt>
      <trkpt lat="43.63806" lon="6.67637">
        <ele>499</ele>
        <time>2009-10-17T08:05:40Z</time>
      </trkpt>
      <trkpt lat="43.6382" lon="6.6761">
        <ele>499</ele>
        <time>2009-10-17T08:05:42Z</time>
      </trkpt>
      <trkpt lat="43.63825" lon="6.67598">
        <ele>499</ele>
        <time>2009-10-17T08:05:44Z</time>
      </trkpt>
      <trkpt lat="43.63831" lon="6.67592">
        <ele>499</ele>
        <time>2009-10-17T08:05:46Z</time>
      </trkpt>
      <trkpt lat="43.63836" lon="6.67583">
        <ele>499</ele>
        <time>2009-10-17T08:05:48Z</time>
      </trkpt>
      <trkpt lat="43.63841" lon="6.67569">
        <ele>499</ele>
        <time>2009-10-17T08:05:50Z</time>
      </trkpt>
      <trkpt lat="43.63844" lon="6.67564">
        <ele>499</ele>
        <time>2009-10-17T08:05:52Z</time>
      </trkpt>
      <trkpt lat="43.63858" lon="6.67531">
        <ele>499</ele>
        <time>2009-10-17T08:06:01Z</time>
      </trkpt>
      <trkpt lat="43.63862" lon="6.67525">
        <ele>499</ele>
        <time>2009-10-17T08:06:04Z</time>
      </trkpt>
      <trkpt lat="43.63866" lon="6.6752">
        <ele>499</ele>
        <time>2009-10-17T08:06:07Z</time>
      </trkpt>
      <trkpt lat="43.63907" lon="6.67425">
        <ele>499</ele>
        <time>2009-10-17T08:06:43Z</time>
      </trkpt>
      <trkpt lat="43.63929" lon="6.67449">
        <ele>504</ele>
        <time>2009-10-17T08:06:44Z</time>
      </trkpt>
      <trkpt lat="43.63929" lon="6.67459">
        <ele>506</ele>
        <time>2009-10-17T08:06:46Z</time>
      </trkpt>
      <trkpt lat="43.63931" lon="6.67451">
        <ele>505</ele>
        <time>2009-10-17T08:06:48Z</time>
      </trkpt>
      <trkpt lat="43.63932" lon="6.67469">
        <ele>505</ele>
        <time>2009-10-17T08:06:50Z</time>
      </trkpt>
      <trkpt lat="43.63933" lon="6.67477">
        <ele>505</ele>
        <time>2009-10-17T08:06:51Z</time>
      </trkpt>
      <trkpt lat="43.63941" lon="6.67473">
        <ele>506</ele>
        <time>2009-10-17T08:07:00Z</time>
      </trkpt>
      <trkpt lat="43.63946" lon="6.67471">
        <ele>506</ele>
        <time>2009-10-17T08:07:06Z</time>
      </trkpt>
      <trkpt lat="43.63951" lon="6.67473">
        <ele>506</ele>
        <time>2009-10-17T08:07:08Z</time>
      </trkpt>
      <trkpt lat="43.63957" lon="6.67476">
        <ele>506</ele>
        <time>2009-10-17T08:07:10Z</time>
      </trkpt>
      <trkpt lat="43.63967" lon="6.67469">
        <ele>506</ele>
        <time>2009-10-17T08:07:17Z</time>
      </trkpt>
      <trkpt lat="43.63972" lon="6.67463">
        <ele>506</ele>
        <time>2009-10-17T08:07:19Z</time>
      </trkpt>
      <trkpt lat="43.63976" lon="6.67461">
        <ele>506</ele>
        <time>2009-10-17T08:07:22Z</time>
      </trkpt>
      <trkpt lat="43.63985" lon="6.67454">
        <ele>506</ele>
        <time>2009-10-17T08:07:25Z</time>
      </trkpt>
      <trkpt lat="43.63995" lon="6.67446">
        <ele>506</ele>
        <time>2009-10-17T08:07:34Z</time>
      </trkpt>
      <trkpt lat="43.63999" lon="6.67434">
        <ele>506</ele>
        <time>2009-10-17T08:07:35Z</time>
      </trkpt>
      <trkpt lat="43.64002" lon="6.6743">
        <ele>506</ele>
        <time>2009-10-17T08:07:37Z</time>
      </trkpt>
      <trkpt lat="43.64006" lon="6.67425">
        <ele>506</ele>
        <time>2009-10-17T08:07:40Z</time>
      </trkpt>
      <trkpt lat="43.64014" lon="6.67423">
        <ele>506</ele>
        <time>2009-10-17T08:07:41Z</time>
      </trkpt>
      <trkpt lat="43.64017" lon="6.67418">
        <ele>507</ele>
        <time>2009-10-17T08:07:42Z</time>
      </trkpt>
      <trkpt lat="43.64021" lon="6.67414">
        <ele>507</ele>
        <time>2009-10-17T08:07:44Z</time>
      </trkpt>
      <trkpt lat="43.64025" lon="6.6741">
        <ele>507</ele>
        <time>2009-10-17T08:07:48Z</time>
      </trkpt>
      <trkpt lat="43.64035" lon="6.67417">
        <ele>507</ele>
        <time>2009-10-17T08:07:50Z</time>
      </trkpt>
      <trkpt lat="43.64039" lon="6.67411">
        <ele>508</ele>
        <time>2009-10-17T08:07:52Z</time>
      </trkpt>
      <trkpt lat="43.64044" lon="6.67401">
        <ele>509</ele>
        <time>2009-10-17T08:07:54Z</time>
      </trkpt>
      <trkpt lat="43.64061" lon="6.67378">
        <ele>504</ele>
        <time>2009-10-17T08:08:01Z</time>
      </trkpt>
      <trkpt lat="43.64064" lon="6.67372">
        <ele>503</ele>
        <time>2009-10-17T08:08:02Z</time>
      </trkpt>
      <trkpt lat="43.64067" lon="6.67377">
        <ele>505</ele>
        <time>2009-10-17T08:08:04Z</time>
      </trkpt>
      <trkpt lat="43.64075" lon="6.67371">
        <ele>502</ele>
        <time>2009-10-17T08:08:06Z</time>
      </trkpt>
      <trkpt lat="43.64091" lon="6.67367">
        <ele>504</ele>
        <time>2009-10-17T08:08:52Z</time>
      </trkpt>
      <trkpt lat="43.64097" lon="6.67351">
        <ele>506</ele>
        <time>2009-10-17T08:08:53Z</time>
      </trkpt>
      <trkpt lat="43.64102" lon="6.67341">
        <ele>507</ele>
        <time>2009-10-17T08:08:54Z</time>
      </trkpt>
      <trkpt lat="43.64107" lon="6.67335">
        <ele>507</ele>
        <time>2009-10-17T08:08:55Z</time>
      </trkpt>
      <trkpt lat="43.64113" lon="6.67322">
        <ele>508</ele>
        <time>2009-10-17T08:08:57Z</time>
      </trkpt>
      <trkpt lat="43.64121" lon="6.67322">
        <ele>510</ele>
        <time>2009-10-17T08:09:00Z</time>
      </trkpt>
      <trkpt lat="43.64124" lon="6.67316">
        <ele>510</ele>
        <time>2009-10-17T08:09:01Z</time>
      </trkpt>
      <trkpt lat="43.64126" lon="6.67309">
        <ele>510</ele>
        <time>2009-10-17T08:09:10Z</time>
      </trkpt>
      <trkpt lat="43.64128" lon="6.67301">
        <ele>509</ele>
        <time>2009-10-17T08:09:12Z</time>
      </trkpt>
      <trkpt lat="43.64131" lon="6.67294">
        <ele>510</ele>
        <time>2009-10-17T08:09:16Z</time>
      </trkpt>
      <trkpt lat="43.6414" lon="6.67301">
        <ele>518</ele>
        <time>2009-10-17T08:09:18Z</time>
      </trkpt>
      <trkpt lat="43.64146" lon="6.6731">
        <ele>524</ele>
        <time>2009-10-17T08:09:19Z</time>
      </trkpt>
      <trkpt lat="43.64158" lon="6.67327">
        <ele>535</ele>
        <time>2009-10-17T08:09:26Z</time>
      </trkpt>
      <trkpt lat="43.64162" lon="6.67334">
        <ele>539</ele>
        <time>2009-10-17T08:09:28Z</time>
      </trkpt>
      <trkpt lat="43.64166" lon="6.67338">
        <ele>542</ele>
        <time>2009-10-17T08:09:33Z</time>
      </trkpt>
      <trkpt lat="43.64169" lon="6.67331">
        <ele>538</ele>
        <time>2009-10-17T08:09:48Z</time>
      </trkpt>
      <trkpt lat="43.64172" lon="6.67327">
        <ele>539</ele>
        <time>2009-10-17T08:10:03Z</time>
      </trkpt>
      <trkpt lat="43.64174" lon="6.67321">
        <ele>538</ele>
        <time>2009-10-17T08:10:05Z</time>
      </trkpt>
      <trkpt lat="43.64177" lon="6.67316">
        <ele>535</ele>
        <time>2009-10-17T08:10:18Z</time>
      </trkpt>
      <trkpt lat="43.6418" lon="6.6731">
        <ele>533</ele>
        <time>2009-10-17T08:10:24Z</time>
      </trkpt>
      <trkpt lat="43.64182" lon="6.67304">
        <ele>532</ele>
        <time>2009-10-17T08:10:35Z</time>
      </trkpt>
      <trkpt lat="43.64184" lon="6.67296">
        <ele>531</ele>
        <time>2009-10-17T08:10:42Z</time>
      </trkpt>
      <trkpt lat="43.64188" lon="6.67291">
        <ele>526</ele>
        <time>2009-10-17T08:10:47Z</time>
      </trkpt>
      <trkpt lat="43.64192" lon="6.67289">
        <ele>523</ele>
        <time>2009-10-17T08:10:52Z</time>
      </trkpt>
      <trkpt lat="43.64194" lon="6.67284">
        <ele>521</ele>
        <time>2009-10-17T08:11:04Z</time>
      </trkpt>
      <trkpt lat="43.64198" lon="6.6728">
        <ele>520</ele>
        <time>2009-10-17T08:11:35Z</time>
      </trkpt>
      <trkpt lat="43.64198" lon="6.6728">
        <ele>520</ele>
        <time>2009-10-17T08:11:36Z</time>
      </trkpt>
      <trkpt lat="43.64199" lon="6.67274">
        <ele>520</ele>
        <time>2009-10-17T08:11:44Z</time>
      </trkpt>
      <trkpt lat="43.642" lon="6.67267">
        <ele>520</ele>
        <time>2009-10-17T08:11:49Z</time>
      </trkpt>
      <trkpt lat="43.64201" lon="6.67266">
        <ele>519</ele>
        <time>2009-10-17T08:11:52Z</time>
      </trkpt>
      <trkpt lat="43.64203" lon="6.67262">
        <ele>518</ele>
        <time>2009-10-17T08:12:05Z</time>
      </trkpt>
      <trkpt lat="43.64204" lon="6.6726">
        <ele>518</ele>
        <time>2009-10-17T08:12:06Z</time>
      </trkpt>
      <trkpt lat="43.64206" lon="6.67255">
        <ele>517</ele>
        <time>2009-10-17T08:12:10Z</time>
      </trkpt>
      <trkpt lat="43.64207" lon="6.67254">
        <ele>517</ele>
        <time>2009-10-17T08:12:11Z</time>
      </trkpt>
      <trkpt lat="43.64209" lon="6.67249">
        <ele>515</ele>
        <time>2009-10-17T08:12:22Z</time>
      </trkpt>
      <trkpt lat="43.64209" lon="6.67249">
        <ele>514</ele>
        <time>2009-10-17T08:12:23Z</time>
      </trkpt>
      <trkpt lat="43.64213" lon="6.67244">
        <ele>512</ele>
        <time>2009-10-17T08:12:28Z</time>
      </trkpt>
      <trkpt lat="43.64216" lon="6.67238">
        <ele>508</ele>
        <time>2009-10-17T08:12:37Z</time>
      </trkpt>
      <trkpt lat="43.64338" lon="6.67183">
        <ele>532</ele>
        <time>2009-10-17T08:12:41Z</time>
      </trkpt>
      <trkpt lat="43.64341" lon="6.67178">
        <ele>532</ele>
        <time>2009-10-17T08:12:45Z</time>
      </trkpt>
      <trkpt lat="43.64345" lon="6.67171">
        <ele>532</ele>
        <time>2009-10-17T08:12:47Z</time>
      </trkpt>
      <trkpt lat="43.64347" lon="6.67165">
        <ele>532</ele>
        <time>2009-10-17T08:12:48Z</time>
      </trkpt>
      <trkpt lat="43.64348" lon="6.67158">
        <ele>532</ele>
        <time>2009-10-17T08:12:50Z</time>
      </trkpt>
      <trkpt lat="43.64348" lon="6.67158">
        <ele>532</ele>
        <time>2009-10-17T08:12:50Z</time>
      </trkpt>
      <trkpt lat="43.64349" lon="6.67154">
        <ele>532</ele>
        <time>2009-10-17T08:12:52Z</time>
      </trkpt>
      <trkpt lat="43.6435" lon="6.67151">
        <ele>532</ele>
        <time>2009-10-17T08:12:53Z</time>
      </trkpt>
      <trkpt lat="43.64354" lon="6.67144">
        <ele>532</ele>
        <time>2009-10-17T08:13:01Z</time>
      </trkpt>
      <trkpt lat="43.64356" lon="6.67137">
        <ele>532</ele>
        <time>2009-10-17T08:13:05Z</time>
      </trkpt>
      <trkpt lat="43.64355" lon="6.67146">
        <ele>532</ele>
        <time>2009-10-17T08:13:10Z</time>
      </trkpt>
      <trkpt lat="43.64358" lon="6.6714">
        <ele>533</ele>
        <time>2009-10-17T08:13:19Z</time>
      </trkpt>
      <trkpt lat="43.64359" lon="6.67147">
        <ele>532</ele>
        <time>2009-10-17T08:13:20Z</time>
      </trkpt>
      <trkpt lat="43.64362" lon="6.67142">
        <ele>532</ele>
        <time>2009-10-17T08:13:22Z</time>
      </trkpt>
      <trkpt lat="43.64363" lon="6.67149">
        <ele>532</ele>
        <time>2009-10-17T08:13:27Z</time>
      </trkpt>
      <trkpt lat="43.64363" lon="6.67149">
        <ele>532</ele>
        <time>2009-10-17T08:13:27Z</time>
      </trkpt>
      <trkpt lat="43.64363" lon="6.67149">
        <ele>532</ele>
        <time>2009-10-17T08:13:28Z</time>
      </trkpt>
      <trkpt lat="43.64365" lon="6.67142">
        <ele>531</ele>
        <time>2009-10-17T08:13:35Z</time>
      </trkpt>
      <trkpt lat="43.64368" lon="6.67137">
        <ele>531</ele>
        <time>2009-10-17T08:13:36Z</time>
      </trkpt>
      <trkpt lat="43.64368" lon="6.67143">
        <ele>531</ele>
        <time>2009-10-17T08:13:37Z</time>
      </trkpt>
      <trkpt lat="43.64366" lon="6.67149">
        <ele>531</ele>
        <time>2009-10-17T08:13:39Z</time>
      </trkpt>
      <trkpt lat="43.64369" lon="6.67138">
        <ele>531</ele>
        <time>2009-10-17T08:13:44Z</time>
      </trkpt>
      <trkpt lat="43.64369" lon="6.67133">
        <ele>531</ele>
        <time>2009-10-17T08:13:47Z</time>
      </trkpt>
      <trkpt lat="43.64368" lon="6.67138">
        <ele>532</ele>
        <time>2009-10-17T08:14:11Z</time>
      </trkpt>
      <trkpt lat="43.64368" lon="6.6714">
        <ele>532</ele>
        <time>2009-10-17T08:14:18Z</time>
      </trkpt>
      <trkpt lat="43.64368" lon="6.67137">
        <ele>531</ele>
        <time>2009-10-17T08:14:23Z</time>
      </trkpt>
      <trkpt lat="43.64368" lon="6.6714">
        <ele>532</ele>
        <time>2009-10-17T08:15:03Z</time>
      </trkpt>
      <trkpt lat="43.64367" lon="6.67146">
        <ele>532</ele>
        <time>2009-10-17T08:15:04Z</time>
      </trkpt>
      <trkpt lat="43.64367" lon="6.67139">
        <ele>533</ele>
        <time>2009-10-17T08:15:09Z</time>
      </trkpt>
      <trkpt lat="43.64367" lon="6.67139">
        <ele>533</ele>
        <time>2009-10-17T08:15:09Z</time>
      </trkpt>
      <trkpt lat="43.64371" lon="6.67136">
        <ele>532</ele>
        <time>2009-10-17T08:15:47Z</time>
      </trkpt>
      <trkpt lat="43.64371" lon="6.67135">
        <ele>532</ele>
        <time>2009-10-17T08:15:48Z</time>
      </trkpt>
      <trkpt lat="43.64372" lon="6.67132">
        <ele>532</ele>
        <time>2009-10-17T08:15:50Z</time>
      </trkpt>
      <trkpt lat="43.64376" lon="6.6713">
        <ele>531</ele>
        <time>2009-10-17T08:16:27Z</time>
      </trkpt>
      <trkpt lat="43.64376" lon="6.67129">
        <ele>531</ele>
        <time>2009-10-17T08:16:34Z</time>
      </trkpt>
      <trkpt lat="43.64377" lon="6.67128">
        <ele>531</ele>
        <time>2009-10-17T08:16:37Z</time>
      </trkpt>
      <trkpt lat="43.64378" lon="6.67122">
        <ele>532</ele>
        <time>2009-10-17T08:16:42Z</time>
      </trkpt>
      <trkpt lat="43.64378" lon="6.67121">
        <ele>532</ele>
        <time>2009-10-17T08:16:44Z</time>
      </trkpt>
      <trkpt lat="43.6438" lon="6.67114">
        <ele>532</ele>
        <time>2009-10-17T08:16:47Z</time>
      </trkpt>
      <trkpt lat="43.64382" lon="6.67106">
        <ele>532</ele>
        <time>2009-10-17T08:16:50Z</time>
      </trkpt>
      <trkpt lat="43.64383" lon="6.67099">
        <ele>533</ele>
        <time>2009-10-17T08:16:53Z</time>
      </trkpt>
      <trkpt lat="43.64385" lon="6.67092">
        <ele>533</ele>
        <time>2009-10-17T08:17:03Z</time>
      </trkpt>
      <trkpt lat="43.64386" lon="6.67086">
        <ele>533</ele>
        <time>2009-10-17T08:17:06Z</time>
      </trkpt>
      <trkpt lat="43.64388" lon="6.67079">
        <ele>534</ele>
        <time>2009-10-17T08:17:11Z</time>
      </trkpt>
      <trkpt lat="43.64388" lon="6.67077">
        <ele>534</ele>
        <time>2009-10-17T08:17:20Z</time>
      </trkpt>
      <trkpt lat="43.64389" lon="6.67072">
        <ele>534</ele>
        <time>2009-10-17T08:17:27Z</time>
      </trkpt>
      <trkpt lat="43.6439" lon="6.6707">
        <ele>534</ele>
        <time>2009-10-17T08:17:28Z</time>
      </trkpt>
      <trkpt lat="43.64391" lon="6.67063">
        <ele>535</ele>
        <time>2009-10-17T08:17:41Z</time>
      </trkpt>
      <trkpt lat="43.64393" lon="6.67056">
        <ele>535</ele>
        <time>2009-10-17T08:17:46Z</time>
      </trkpt>
      <trkpt lat="43.64505" lon="6.66643">
        <ele>528</ele>
        <time>2009-10-17T08:21:10Z</time>
      </trkpt>
      <trkpt lat="43.64503" lon="6.66634">
        <ele>529</ele>
        <time>2009-10-17T08:21:24Z</time>
      </trkpt>
      <trkpt lat="43.645" lon="6.66627">
        <ele>529</ele>
        <time>2009-10-17T08:21:27Z</time>
      </trkpt>
      <trkpt lat="43.64501" lon="6.66625">
        <ele>529</ele>
        <time>2009-10-17T08:21:38Z</time>
      </trkpt>
      <trkpt lat="43.64501" lon="6.66623">
        <ele>529</ele>
        <time>2009-10-17T08:21:42Z</time>
      </trkpt>
      <trkpt lat="43.64629" lon="6.66252">
        <ele>520</ele>
        <time>2009-10-17T08:28:11Z</time>
      </trkpt>
      <trkpt lat="43.64625" lon="6.66249">
        <ele>520</ele>
        <time>2009-10-17T08:28:19Z</time>
      </trkpt>
      <trkpt lat="43.6462" lon="6.66245">
        <ele>521</ele>
        <time>2009-10-17T08:28:27Z</time>
      </trkpt>
      <trkpt lat="43.64615" lon="6.66242">
        <ele>520</ele>
        <time>2009-10-17T08:28:28Z</time>
      </trkpt>
      <trkpt lat="43.64615" lon="6.66242">
        <ele>520</ele>
        <time>2009-10-17T08:28:36Z</time>
      </trkpt>
      <trkpt lat="43.64613" lon="6.66242">
        <ele>520</ele>
        <time>2009-10-17T08:28:42Z</time>
      </trkpt>
      <trkpt lat="43.64611" lon="6.66242">
        <ele>519</ele>
        <time>2009-10-17T08:28:44Z</time>
      </trkpt>
      <trkpt lat="43.64609" lon="6.66242">
        <ele>519</ele>
        <time>2009-10-17T08:28:46Z</time>
      </trkpt>
      <trkpt lat="43.64605" lon="6.66243">
        <ele>518</ele>
        <time>2009-10-17T08:28:54Z</time>
      </trkpt>
      <trkpt lat="43.64604" lon="6.66242">
        <ele>517</ele>
        <time>2009-10-17T08:29:01Z</time>
      </trkpt>
      <trkpt lat="43.64598" lon="6.66241">
        <ele>517</ele>
        <time>2009-10-17T08:29:03Z</time>
      </trkpt>
      <trkpt lat="43.64591" lon="6.66238">
        <ele>517</ele>
        <time>2009-10-17T08:29:06Z</time>
      </trkpt>
      <trkpt lat="43.64589" lon="6.66245">
        <ele>512</ele>
        <time>2009-10-17T08:29:20Z</time>
      </trkpt>
      <trkpt lat="43.64584" lon="6.66248">
        <ele>513</ele>
        <time>2009-10-17T08:29:24Z</time>
      </trkpt>
      <trkpt lat="43.64549" lon="6.66237">
        <ele>539</ele>
        <time>2009-10-17T08:29:25Z</time>
      </trkpt>
      <trkpt lat="43.6453" lon="6.66231">
        <ele>554</ele>
        <time>2009-10-17T08:29:26Z</time>
      </trkpt>
      <trkpt lat="43.64519" lon="6.66231">
        <ele>563</ele>
        <time>2009-10-17T08:29:28Z</time>
      </trkpt>
      <trkpt lat="43.64522" lon="6.66238">
        <ele>561</ele>
        <time>2009-10-17T08:29:38Z</time>
      </trkpt>
      <trkpt lat="43.64506" lon="6.66234">
        <ele>573</ele>
        <time>2009-10-17T08:29:41Z</time>
      </trkpt>
      <trkpt lat="43.64423" lon="6.66303">
        <ele>567</ele>
        <time>2009-10-17T08:29:42Z</time>
      </trkpt>
      <trkpt lat="43.64404" lon="6.66304">
        <ele>572</ele>
        <time>2009-10-17T08:29:48Z</time>
      </trkpt>
      <trkpt lat="43.64385" lon="6.66275">
        <ele>583</ele>
        <time>2009-10-17T08:30:43Z</time>
      </trkpt>
      <trkpt lat="43.64391" lon="6.66278">
        <ele>585</ele>
        <time>2009-10-17T08:30:44Z</time>
      </trkpt>
      <trkpt lat="43.64395" lon="6.66283">
        <ele>586</ele>
        <time>2009-10-17T08:30:47Z</time>
      </trkpt>
      <trkpt lat="43.64401" lon="6.66287">
        <ele>591</ele>
        <time>2009-10-17T08:30:53Z</time>
      </trkpt>
      <trkpt lat="43.64405" lon="6.66291">
        <ele>597</ele>
        <time>2009-10-17T08:31:00Z</time>
      </trkpt>
      <trkpt lat="43.64408" lon="6.66293">
        <ele>603</ele>
        <time>2009-10-17T08:31:05Z</time>
      </trkpt>
      <trkpt lat="43.64404" lon="6.66293">
        <ele>595</ele>
        <time>2009-10-17T08:31:47Z</time>
      </trkpt>
      <trkpt lat="43.64404" lon="6.66293">
        <ele>595</ele>
        <time>2009-10-17T08:31:48Z</time>
      </trkpt>
      <trkpt lat="43.64404" lon="6.66292">
        <ele>595</ele>
        <time>2009-10-17T08:31:49Z</time>
      </trkpt>
      <trkpt lat="43.64406" lon="6.66293">
        <ele>597</ele>
        <time>2009-10-17T08:32:42Z</time>
      </trkpt>
      <trkpt lat="43.64411" lon="6.66295">
        <ele>606</ele>
        <time>2009-10-17T08:32:44Z</time>
      </trkpt>
      <trkpt lat="43.64414" lon="6.66295">
        <ele>613</ele>
        <time>2009-10-17T08:32:47Z</time>
      </trkpt>
      <trkpt lat="43.6441" lon="6.66292">
        <ele>609</ele>
        <time>2009-10-17T08:33:26Z</time>
      </trkpt>
      <trkpt lat="43.6441" lon="6.66292">
        <ele>609</ele>
        <time>2009-10-17T08:33:27Z</time>
      </trkpt>
      <trkpt lat="43.64409" lon="6.66292">
        <ele>609</ele>
        <time>2009-10-17T08:33:36Z</time>
      </trkpt>
      <trkpt lat="43.64405" lon="6.66291">
        <ele>610</ele>
        <time>2009-10-17T08:36:05Z</time>
      </trkpt>
      <trkpt lat="43.64404" lon="6.6629">
        <ele>610</ele>
        <time>2009-10-17T08:36:06Z</time>
      </trkpt>
      <trkpt lat="43.64404" lon="6.6629">
        <ele>610</ele>
        <time>2009-10-17T08:36:06Z</time>
      </trkpt>
      <trkpt lat="43.644" lon="6.66288">
        <ele>614</ele>
        <time>2009-10-17T08:36:49Z</time>
      </trkpt>
      <trkpt lat="43.644" lon="6.66287">
        <ele>614</ele>
        <time>2009-10-17T08:36:50Z</time>
      </trkpt>
      <trkpt lat="43.644" lon="6.66287">
        <ele>614</ele>
        <time>2009-10-17T08:36:50Z</time>
      </trkpt>
      <trkpt lat="43.644" lon="6.66285">
        <ele>614</ele>
        <time>2009-10-17T08:37:03Z</time>
      </trkpt>
      <trkpt lat="43.64422" lon="6.66211">
        <ele>611</ele>
        <time>2009-10-17T08:37:04Z</time>
      </trkpt>
      <trkpt lat="43.64425" lon="6.66206">
        <ele>612</ele>
        <time>2009-10-17T08:37:06Z</time>
      </trkpt>
      <trkpt lat="43.64432" lon="6.66205">
        <ele>611</ele>
        <time>2009-10-17T08:37:07Z</time>
      </trkpt>
      <trkpt lat="43.6443" lon="6.66199">
        <ele>612</ele>
        <time>2009-10-17T08:37:09Z</time>
      </trkpt>
      <trkpt lat="43.64429" lon="6.66193">
        <ele>612</ele>
        <time>2009-10-17T08:37:11Z</time>
      </trkpt>
      <trkpt lat="43.64437" lon="6.66175">
        <ele>612</ele>
        <time>2009-10-17T08:37:18Z</time>
      </trkpt>
      <trkpt lat="43.64446" lon="6.66176">
        <ele>612</ele>
        <time>2009-10-17T08:37:19Z</time>
      </trkpt>
      <trkpt lat="43.64447" lon="6.66168">
        <ele>612</ele>
        <time>2009-10-17T08:37:22Z</time>
      </trkpt>
      <trkpt lat="43.64452" lon="6.66165">
        <ele>612</ele>
        <time>2009-10-17T08:37:24Z</time>
      </trkpt>
      <trkpt lat="43.64457" lon="6.66158">
        <ele>612</ele>
        <time>2009-10-17T08:37:27Z</time>
      </trkpt>
      <trkpt lat="43.64472" lon="6.66141">
        <ele>612</ele>
        <time>2009-10-17T08:37:35Z</time>
      </trkpt>
      <trkpt lat="43.6448" lon="6.66136">
        <ele>613</ele>
        <time>2009-10-17T08:37:38Z</time>
      </trkpt>
      <trkpt lat="43.64474" lon="6.66126">
        <ele>613</ele>
        <time>2009-10-17T08:37:41Z</time>
      </trkpt>
      <trkpt lat="43.64478" lon="6.66122">
        <ele>613</ele>
        <time>2009-10-17T08:37:44Z</time>
      </trkpt>
      <trkpt lat="43.64481" lon="6.66116">
        <ele>614</ele>
        <time>2009-10-17T08:37:46Z</time>
      </trkpt>
      <trkpt lat="43.64481" lon="6.66109">
        <ele>616</ele>
        <time>2009-10-17T08:37:48Z</time>
      </trkpt>
      <trkpt lat="43.64482" lon="6.66099">
        <ele>616</ele>
        <time>2009-10-17T08:37:50Z</time>
      </trkpt>
      <trkpt lat="43.64487" lon="6.66092">
        <ele>615</ele>
        <time>2009-10-17T08:37:52Z</time>
      </trkpt>
      <trkpt lat="43.64486" lon="6.66083">
        <ele>616</ele>
        <time>2009-10-17T08:37:54Z</time>
      </trkpt>
      <trkpt lat="43.64492" lon="6.66063">
        <ele>617</ele>
        <time>2009-10-17T08:38:00Z</time>
      </trkpt>
      <trkpt lat="43.64488" lon="6.66056">
        <ele>618</ele>
        <time>2009-10-17T08:38:03Z</time>
      </trkpt>
      <trkpt lat="43.64484" lon="6.6605">
        <ele>619</ele>
        <time>2009-10-17T08:38:04Z</time>
      </trkpt>
      <trkpt lat="43.64482" lon="6.66043">
        <ele>619</ele>
        <time>2009-10-17T08:38:06Z</time>
      </trkpt>
      <trkpt lat="43.6448" lon="6.66036">
        <ele>620</ele>
        <time>2009-10-17T08:38:08Z</time>
      </trkpt>
      <trkpt lat="43.64484" lon="6.66008">
        <ele>619</ele>
        <time>2009-10-17T08:38:18Z</time>
      </trkpt>
      <trkpt lat="43.64487" lon="6.66002">
        <ele>619</ele>
        <time>2009-10-17T08:38:19Z</time>
      </trkpt>
      <trkpt lat="43.64482" lon="6.65989">
        <ele>617</ele>
        <time>2009-10-17T08:38:20Z</time>
      </trkpt>
      <trkpt lat="43.64477" lon="6.6598">
        <ele>617</ele>
        <time>2009-10-17T08:38:21Z</time>
      </trkpt>
      <trkpt lat="43.64475" lon="6.65973">
        <ele>617</ele>
        <time>2009-10-17T08:38:22Z</time>
      </trkpt>
      <trkpt lat="43.64474" lon="6.65966">
        <ele>617</ele>
        <time>2009-10-17T08:38:23Z</time>
      </trkpt>
      <trkpt lat="43.6447" lon="6.65959">
        <ele>617</ele>
        <time>2009-10-17T08:38:24Z</time>
      </trkpt>
      <trkpt lat="43.64469" lon="6.65951">
        <ele>617</ele>
        <time>2009-10-17T08:38:25Z</time>
      </trkpt>
      <trkpt lat="43.64465" lon="6.65942">
        <ele>617</ele>
        <time>2009-10-17T08:38:26Z</time>
      </trkpt>
      <trkpt lat="43.64465" lon="6.65935">
        <ele>617</ele>
        <time>2009-10-17T08:38:27Z</time>
      </trkpt>
      <trkpt lat="43.64469" lon="6.65928">
        <ele>617</ele>
        <time>2009-10-17T08:38:28Z</time>
      </trkpt>
      <trkpt lat="43.64472" lon="6.65872">
        <ele>616</ele>
        <time>2009-10-17T08:38:35Z</time>
      </trkpt>
      <trkpt lat="43.64471" lon="6.65862">
        <ele>616</ele>
        <time>2009-10-17T08:38:36Z</time>
      </trkpt>
      <trkpt lat="43.64471" lon="6.65853">
        <ele>615</ele>
        <time>2009-10-17T08:38:37Z</time>
      </trkpt>
      <trkpt lat="43.64467" lon="6.65843">
        <ele>614</ele>
        <time>2009-10-17T08:38:38Z</time>
      </trkpt>
      <trkpt lat="43.6447" lon="6.65835">
        <ele>614</ele>
        <time>2009-10-17T08:38:39Z</time>
      </trkpt>
      <trkpt lat="43.64471" lon="6.65826">
        <ele>613</ele>
        <time>2009-10-17T08:38:40Z</time>
      </trkpt>
      <trkpt lat="43.64472" lon="6.65818">
        <ele>613</ele>
        <time>2009-10-17T08:38:41Z</time>
      </trkpt>
      <trkpt lat="43.64472" lon="6.65812">
        <ele>613</ele>
        <time>2009-10-17T08:38:42Z</time>
      </trkpt>
      <trkpt lat="43.64473" lon="6.65801">
        <ele>613</ele>
        <time>2009-10-17T08:38:44Z</time>
      </trkpt>
      <trkpt lat="43.64473" lon="6.65795">
        <ele>612</ele>
        <time>2009-10-17T08:38:46Z</time>
      </trkpt>
      <trkpt lat="43.64469" lon="6.65791">
        <ele>612</ele>
        <time>2009-10-17T08:38:47Z</time>
      </trkpt>
      <trkpt lat="43.64464" lon="6.65784">
        <ele>612</ele>
        <time>2009-10-17T08:38:49Z</time>
      </trkpt>
      <trkpt lat="43.64459" lon="6.65778">
        <ele>613</ele>
        <time>2009-10-17T08:38:51Z</time>
      </trkpt>
      <trkpt lat="43.64452" lon="6.65773">
        <ele>613</ele>
        <time>2009-10-17T08:38:52Z</time>
      </trkpt>
      <trkpt lat="43.64448" lon="6.65768">
        <ele>613</ele>
        <time>2009-10-17T08:38:53Z</time>
      </trkpt>
      <trkpt lat="43.6444" lon="6.65761">
        <ele>613</ele>
        <time>2009-10-17T08:38:54Z</time>
      </trkpt>
      <trkpt lat="43.64433" lon="6.65731">
        <ele>612</ele>
        <time>2009-10-17T08:39:01Z</time>
      </trkpt>
      <trkpt lat="43.64432" lon="6.65722">
        <ele>612</ele>
        <time>2009-10-17T08:39:04Z</time>
      </trkpt>
      <trkpt lat="43.64427" lon="6.65717">
        <ele>612</ele>
        <time>2009-10-17T08:39:05Z</time>
      </trkpt>
      <trkpt lat="43.64431" lon="6.65711">
        <ele>612</ele>
        <time>2009-10-17T08:39:07Z</time>
      </trkpt>
      <trkpt lat="43.64432" lon="6.65705">
        <ele>612</ele>
        <time>2009-10-17T08:39:09Z</time>
      </trkpt>
      <trkpt lat="43.64427" lon="6.65696">
        <ele>611</ele>
        <time>2009-10-17T08:39:11Z</time>
      </trkpt>
      <trkpt lat="43.64419" lon="6.65665">
        <ele>611</ele>
        <time>2009-10-17T08:39:18Z</time>
      </trkpt>
      <trkpt lat="43.64415" lon="6.65659">
        <ele>611</ele>
        <time>2009-10-17T08:39:20Z</time>
      </trkpt>
      <trkpt lat="43.64413" lon="6.65652">
        <ele>610</ele>
        <time>2009-10-17T08:39:22Z</time>
      </trkpt>
      <trkpt lat="43.64408" lon="6.65649">
        <ele>611</ele>
        <time>2009-10-17T08:39:24Z</time>
      </trkpt>
      <trkpt lat="43.64402" lon="6.65646">
        <ele>610</ele>
        <time>2009-10-17T08:39:27Z</time>
      </trkpt>
      <trkpt lat="43.64392" lon="6.65637">
        <ele>609</ele>
        <time>2009-10-17T08:39:35Z</time>
      </trkpt>
      <trkpt lat="43.64388" lon="6.65634">
        <ele>609</ele>
        <time>2009-10-17T08:39:39Z</time>
      </trkpt>
      <trkpt lat="43.64381" lon="6.65635">
        <ele>609</ele>
        <time>2009-10-17T08:39:41Z</time>
      </trkpt>
      <trkpt lat="43.64381" lon="6.65636">
        <ele>609</ele>
        <time>2009-10-17T08:39:48Z</time>
      </trkpt>
      <trkpt lat="43.64377" lon="6.65635">
        <ele>610</ele>
        <time>2009-10-17T08:39:54Z</time>
      </trkpt>
      <trkpt lat="43.64368" lon="6.65633">
        <ele>610</ele>
        <time>2009-10-17T08:40:01Z</time>
      </trkpt>
      <trkpt lat="43.64359" lon="6.6563">
        <ele>609</ele>
        <time>2009-10-17T08:40:03Z</time>
      </trkpt>
      <trkpt lat="43.64367" lon="6.65631">
        <ele>609</ele>
        <time>2009-10-17T08:40:06Z</time>
      </trkpt>
      <trkpt lat="43.64376" lon="6.65633">
        <ele>608</ele>
        <time>2009-10-17T08:40:07Z</time>
      </trkpt>
      <trkpt lat="43.64367" lon="6.65629">
        <ele>608</ele>
        <time>2009-10-17T08:40:08Z</time>
      </trkpt>
      <trkpt lat="43.64361" lon="6.65628">
        <ele>607</ele>
        <time>2009-10-17T08:40:09Z</time>
      </trkpt>
      <trkpt lat="43.64368" lon="6.65629">
        <ele>607</ele>
        <time>2009-10-17T08:40:10Z</time>
      </trkpt>
      <trkpt lat="43.64374" lon="6.65631">
        <ele>607</ele>
        <time>2009-10-17T08:40:11Z</time>
      </trkpt>
      <trkpt lat="43.64388" lon="6.65637">
        <ele>607</ele>
        <time>2009-10-17T08:40:18Z</time>
      </trkpt>
      <trkpt lat="43.64404" lon="6.65644">
        <ele>607</ele>
        <time>2009-10-17T08:40:19Z</time>
      </trkpt>
      <trkpt lat="43.64412" lon="6.6565">
        <ele>608</ele>
        <time>2009-10-17T08:40:22Z</time>
      </trkpt>
      <trkpt lat="43.64418" lon="6.65654">
        <ele>608</ele>
        <time>2009-10-17T08:40:23Z</time>
      </trkpt>
      <trkpt lat="43.6441" lon="6.6565">
        <ele>608</ele>
        <time>2009-10-17T08:40:25Z</time>
      </trkpt>
      <trkpt lat="43.64401" lon="6.65646">
        <ele>608</ele>
        <time>2009-10-17T08:40:27Z</time>
      </trkpt>
      <trkpt lat="43.64396" lon="6.65644">
        <ele>608</ele>
        <time>2009-10-17T08:40:28Z</time>
      </trkpt>
      <trkpt lat="43.64403" lon="6.65648">
        <ele>610</ele>
        <time>2009-10-17T08:40:36Z</time>
      </trkpt>
      <trkpt lat="43.64413" lon="6.6565">
        <ele>611</ele>
        <time>2009-10-17T08:40:38Z</time>
      </trkpt>
      <trkpt lat="43.6442" lon="6.65652">
        <ele>612</ele>
        <time>2009-10-17T08:40:40Z</time>
      </trkpt>
      <trkpt lat="43.64424" lon="6.65652">
        <ele>611</ele>
        <time>2009-10-17T08:40:48Z</time>
      </trkpt>
      <trkpt lat="43.64421" lon="6.65651">
        <ele>611</ele>
        <time>2009-10-17T08:40:56Z</time>
      </trkpt>
      <trkpt lat="43.64419" lon="6.6565">
        <ele>611</ele>
        <time>2009-10-17T08:41:02Z</time>
      </trkpt>
      <trkpt lat="43.64413" lon="6.65649">
        <ele>612</ele>
        <time>2009-10-17T08:41:05Z</time>
      </trkpt>
      <trkpt lat="43.64409" lon="6.65645">
        <ele>612</ele>
        <time>2009-10-17T08:41:11Z</time>
      </trkpt>
      <trkpt lat="43.64404" lon="6.65643">
        <ele>612</ele>
        <time>2009-10-17T08:41:12Z</time>
      </trkpt>
      <trkpt lat="43.64393" lon="6.65571">
        <ele>611</ele>
        <time>2009-10-17T08:41:20Z</time>
      </trkpt>
      <trkpt lat="43.64385" lon="6.65564">
        <ele>611</ele>
        <time>2009-10-17T08:41:21Z</time>
      </trkpt>
      <trkpt lat="43.64382" lon="6.65557">
        <ele>611</ele>
        <time>2009-10-17T08:41:22Z</time>
      </trkpt>
      <trkpt lat="43.64378" lon="6.65551">
        <ele>611</ele>
        <time>2009-10-17T08:41:23Z</time>
      </trkpt>
      <trkpt lat="43.64375" lon="6.65545">
        <ele>610</ele>
        <time>2009-10-17T08:41:24Z</time>
      </trkpt>
      <trkpt lat="43.64372" lon="6.65539">
        <ele>610</ele>
        <time>2009-10-17T08:41:25Z</time>
      </trkpt>
      <trkpt lat="43.64369" lon="6.65528">
        <ele>610</ele>
        <time>2009-10-17T08:41:27Z</time>
      </trkpt>
      <trkpt lat="43.64365" lon="6.65522">
        <ele>609</ele>
        <time>2009-10-17T08:41:28Z</time>
      </trkpt>
      <trkpt lat="43.64362" lon="6.65517">
        <ele>609</ele>
        <time>2009-10-17T08:41:29Z</time>
      </trkpt>
      <trkpt lat="43.64357" lon="6.65511">
        <ele>608</ele>
        <time>2009-10-17T08:41:30Z</time>
      </trkpt>
      <trkpt lat="43.64348" lon="6.65484">
        <ele>606</ele>
        <time>2009-10-17T08:41:37Z</time>
      </trkpt>
      <trkpt lat="43.64344" lon="6.65483">
        <ele>606</ele>
        <time>2009-10-17T08:41:38Z</time>
      </trkpt>
      <trkpt lat="43.64338" lon="6.65483">
        <ele>605</ele>
        <time>2009-10-17T08:41:40Z</time>
      </trkpt>
      <trkpt lat="43.64332" lon="6.65481">
        <ele>605</ele>
        <time>2009-10-17T08:41:46Z</time>
      </trkpt>
      <trkpt lat="43.64324" lon="6.65479">
        <ele>604</ele>
        <time>2009-10-17T08:41:49Z</time>
      </trkpt>
      <trkpt lat="43.6433" lon="6.6548">
        <ele>603</ele>
        <time>2009-10-17T08:41:50Z</time>
      </trkpt>
      <trkpt lat="43.64324" lon="6.65478">
        <ele>603</ele>
        <time>2009-10-17T08:41:51Z</time>
      </trkpt>
      <trkpt lat="43.64319" lon="6.65481">
        <ele>603</ele>
        <time>2009-10-17T08:41:54Z</time>
      </trkpt>
      <trkpt lat="43.64307" lon="6.65494">
        <ele>603</ele>
        <time>2009-10-17T08:42:01Z</time>
      </trkpt>
      <trkpt lat="43.64307" lon="6.65502">
        <ele>603</ele>
        <time>2009-10-17T08:42:02Z</time>
      </trkpt>
      <trkpt lat="43.64307" lon="6.65509">
        <ele>603</ele>
        <time>2009-10-17T08:42:03Z</time>
      </trkpt>
      <trkpt lat="43.6431" lon="6.65516">
        <ele>603</ele>
        <time>2009-10-17T08:42:04Z</time>
      </trkpt>
      <trkpt lat="43.64312" lon="6.65527">
        <ele>603</ele>
        <time>2009-10-17T08:42:06Z</time>
      </trkpt>
      <trkpt lat="43.64309" lon="6.65531">
        <ele>603</ele>
        <time>2009-10-17T08:42:07Z</time>
      </trkpt>
      <trkpt lat="43.64313" lon="6.65539">
        <ele>603</ele>
        <time>2009-10-17T08:42:08Z</time>
      </trkpt>
      <trkpt lat="43.64314" lon="6.65546">
        <ele>603</ele>
        <time>2009-10-17T08:42:09Z</time>
      </trkpt>
      <trkpt lat="43.64314" lon="6.65553">
        <ele>603</ele>
        <time>2009-10-17T08:42:10Z</time>
      </trkpt>
      <trkpt lat="43.64315" lon="6.65561">
        <ele>603</ele>
        <time>2009-10-17T08:42:11Z</time>
      </trkpt>
      <trkpt lat="43.64311" lon="6.65584">
        <ele>603</ele>
        <time>2009-10-17T08:42:18Z</time>
      </trkpt>
      <trkpt lat="43.64334" lon="6.65585">
        <ele>600</ele>
        <time>2009-10-17T08:42:19Z</time>
      </trkpt>
      <trkpt lat="43.6434" lon="6.65583">
        <ele>597</ele>
        <time>2009-10-17T08:42:20Z</time>
      </trkpt>
      <trkpt lat="43.64345" lon="6.65581">
        <ele>595</ele>
        <time>2009-10-17T08:42:21Z</time>
      </trkpt>
      <trkpt lat="43.64347" lon="6.65575">
        <ele>595</ele>
        <time>2009-10-17T08:42:23Z</time>
      </trkpt>
      <trkpt lat="43.64347" lon="6.65567">
        <ele>594</ele>
        <time>2009-10-17T08:42:25Z</time>
      </trkpt>
      <trkpt lat="43.64341" lon="6.65562">
        <ele>594</ele>
        <time>2009-10-17T08:42:34Z</time>
      </trkpt>
      <trkpt lat="43.64338" lon="6.65555">
        <ele>592</ele>
        <time>2009-10-17T08:42:38Z</time>
      </trkpt>
      <trkpt lat="43.64332" lon="6.6555">
        <ele>591</ele>
        <time>2009-10-17T08:42:40Z</time>
      </trkpt>
      <trkpt lat="43.64348" lon="6.65511">
        <ele>594</ele>
        <time>2009-10-17T08:42:41Z</time>
      </trkpt>
      <trkpt lat="43.6434" lon="6.655">
        <ele>594</ele>
        <time>2009-10-17T08:42:44Z</time>
      </trkpt>
      <trkpt lat="43.64327" lon="6.6549">
        <ele>594</ele>
        <time>2009-10-17T08:42:45Z</time>
      </trkpt>
      <trkpt lat="43.64318" lon="6.6548">
        <ele>593</ele>
        <time>2009-10-17T08:42:46Z</time>
      </trkpt>
      <trkpt lat="43.64313" lon="6.65471">
        <ele>593</ele>
        <time>2009-10-17T08:42:47Z</time>
      </trkpt>
      <trkpt lat="43.64308" lon="6.6546">
        <ele>592</ele>
        <time>2009-10-17T08:42:48Z</time>
      </trkpt>
      <trkpt lat="43.64304" lon="6.65453">
        <ele>592</ele>
        <time>2009-10-17T08:42:49Z</time>
      </trkpt>
      <trkpt lat="43.643" lon="6.65446">
        <ele>592</ele>
        <time>2009-10-17T08:42:50Z</time>
      </trkpt>
      <trkpt lat="43.64296" lon="6.6544">
        <ele>591</ele>
        <time>2009-10-17T08:42:51Z</time>
      </trkpt>
      <trkpt lat="43.64294" lon="6.65431">
        <ele>590</ele>
        <time>2009-10-17T08:42:53Z</time>
      </trkpt>
      <trkpt lat="43.64275" lon="6.65398">
        <ele>589</ele>
        <time>2009-10-17T08:43:01Z</time>
      </trkpt>
      <trkpt lat="43.64278" lon="6.6539">
        <ele>588</ele>
        <time>2009-10-17T08:43:04Z</time>
      </trkpt>
      <trkpt lat="43.64274" lon="6.65384">
        <ele>586</ele>
        <time>2009-10-17T08:43:07Z</time>
      </trkpt>
      <trkpt lat="43.64264" lon="6.65376">
        <ele>583</ele>
        <time>2009-10-17T08:43:18Z</time>
      </trkpt>
      <trkpt lat="43.64258" lon="6.65376">
        <ele>583</ele>
        <time>2009-10-17T08:43:20Z</time>
      </trkpt>
      <trkpt lat="43.64262" lon="6.65377">
        <ele>582</ele>
        <time>2009-10-17T08:43:21Z</time>
      </trkpt>
      <trkpt lat="43.64268" lon="6.65378">
        <ele>581</ele>
        <time>2009-10-17T08:43:25Z</time>
      </trkpt>
      <trkpt lat="43.64264" lon="6.65375">
        <ele>580</ele>
        <time>2009-10-17T08:43:27Z</time>
      </trkpt>
      <trkpt lat="43.6426" lon="6.6535">
        <ele>578</ele>
        <time>2009-10-17T08:43:35Z</time>
      </trkpt>
      <trkpt lat="43.6426" lon="6.65343">
        <ele>578</ele>
        <time>2009-10-17T08:43:36Z</time>
      </trkpt>
      <trkpt lat="43.64259" lon="6.65336">
        <ele>577</ele>
        <time>2009-10-17T08:43:37Z</time>
      </trkpt>
      <trkpt lat="43.64253" lon="6.65329">
        <ele>576</ele>
        <time>2009-10-17T08:43:38Z</time>
      </trkpt>
      <trkpt lat="43.64249" lon="6.65324">
        <ele>576</ele>
        <time>2009-10-17T08:43:39Z</time>
      </trkpt>
      <trkpt lat="43.64249" lon="6.65313">
        <ele>575</ele>
        <time>2009-10-17T08:43:41Z</time>
      </trkpt>
      <trkpt lat="43.64248" lon="6.65304">
        <ele>574</ele>
        <time>2009-10-17T08:43:43Z</time>
      </trkpt>
      <trkpt lat="43.64246" lon="6.65296">
        <ele>573</ele>
        <time>2009-10-17T08:43:45Z</time>
      </trkpt>
      <trkpt lat="43.64245" lon="6.65287">
        <ele>572</ele>
        <time>2009-10-17T08:43:49Z</time>
      </trkpt>
      <trkpt lat="43.64245" lon="6.65287">
        <ele>572</ele>
        <time>2009-10-17T08:43:49Z</time>
      </trkpt>
      <trkpt lat="43.64243" lon="6.65283">
        <ele>569</ele>
        <time>2009-10-17T08:43:56Z</time>
      </trkpt>
      <trkpt lat="43.64241" lon="6.65282">
        <ele>568</ele>
        <time>2009-10-17T08:43:57Z</time>
      </trkpt>
      <trkpt lat="43.64236" lon="6.65279">
        <ele>566</ele>
        <time>2009-10-17T08:44:10Z</time>
      </trkpt>
      <trkpt lat="43.64242" lon="6.65277">
        <ele>565</ele>
        <time>2009-10-17T08:44:16Z</time>
      </trkpt>
      <trkpt lat="43.64248" lon="6.65273">
        <ele>565</ele>
        <time>2009-10-17T08:44:23Z</time>
      </trkpt>
      <trkpt lat="43.64253" lon="6.65269">
        <ele>564</ele>
        <time>2009-10-17T08:44:40Z</time>
      </trkpt>
      <trkpt lat="43.6425" lon="6.65266">
        <ele>563</ele>
        <time>2009-10-17T08:44:45Z</time>
      </trkpt>
      <trkpt lat="43.64249" lon="6.65264">
        <ele>563</ele>
        <time>2009-10-17T08:44:54Z</time>
      </trkpt>
      <trkpt lat="43.64245" lon="6.65263">
        <ele>563</ele>
        <time>2009-10-17T08:45:01Z</time>
      </trkpt>
      <trkpt lat="43.64243" lon="6.65262">
        <ele>564</ele>
        <time>2009-10-17T08:45:03Z</time>
      </trkpt>
      <trkpt lat="43.64242" lon="6.65257">
        <ele>562</ele>
        <time>2009-10-17T08:45:25Z</time>
      </trkpt>
      <trkpt lat="43.64242" lon="6.65257">
        <ele>562</ele>
        <time>2009-10-17T08:45:26Z</time>
      </trkpt>
      <trkpt lat="43.64242" lon="6.65257">
        <ele>562</ele>
        <time>2009-10-17T08:45:26Z</time>
      </trkpt>
      <trkpt lat="43.64242" lon="6.65257">
        <ele>562</ele>
        <time>2009-10-17T08:45:27Z</time>
      </trkpt>
      <trkpt lat="43.64249" lon="6.65258">
        <ele>562</ele>
        <time>2009-10-17T08:45:28Z</time>
      </trkpt>
      <trkpt lat="43.64254" lon="6.65258">
        <ele>563</ele>
        <time>2009-10-17T08:45:34Z</time>
      </trkpt>
      <trkpt lat="43.64259" lon="6.65259">
        <ele>563</ele>
        <time>2009-10-17T08:45:35Z</time>
      </trkpt>
      <trkpt lat="43.6426" lon="6.65258">
        <ele>562</ele>
        <time>2009-10-17T08:45:37Z</time>
      </trkpt>
      <trkpt lat="43.64259" lon="6.65252">
        <ele>559</ele>
        <time>2009-10-17T08:45:48Z</time>
      </trkpt>
      <trkpt lat="43.64279" lon="6.65116">
        <ele>545</ele>
        <time>2009-10-17T08:46:50Z</time>
      </trkpt>
      <trkpt lat="43.64283" lon="6.65112">
        <ele>544</ele>
        <time>2009-10-17T08:46:51Z</time>
      </trkpt>
      <trkpt lat="43.64304" lon="6.65111">
        <ele>545</ele>
        <time>2009-10-17T08:46:52Z</time>
      </trkpt>
      <trkpt lat="43.64316" lon="6.65107">
        <ele>547</ele>
        <time>2009-10-17T08:46:53Z</time>
      </trkpt>
      <trkpt lat="43.6433" lon="6.65062">
        <ele>542</ele>
        <time>2009-10-17T08:47:00Z</time>
      </trkpt>
      <trkpt lat="43.6433" lon="6.65051">
        <ele>541</ele>
        <time>2009-10-17T08:47:01Z</time>
      </trkpt>
      <trkpt lat="43.6433" lon="6.65042">
        <ele>540</ele>
        <time>2009-10-17T08:47:02Z</time>
      </trkpt>
      <trkpt lat="43.64328" lon="6.65033">
        <ele>538</ele>
        <time>2009-10-17T08:47:03Z</time>
      </trkpt>
      <trkpt lat="43.64331" lon="6.65024">
        <ele>538</ele>
        <time>2009-10-17T08:47:04Z</time>
      </trkpt>
      <trkpt lat="43.64333" lon="6.65015">
        <ele>537</ele>
        <time>2009-10-17T08:47:05Z</time>
      </trkpt>
      <trkpt lat="43.64335" lon="6.65004">
        <ele>536</ele>
        <time>2009-10-17T08:47:06Z</time>
      </trkpt>
      <trkpt lat="43.64343" lon="6.64996">
        <ele>535</ele>
        <time>2009-10-17T08:47:07Z</time>
      </trkpt>
      <trkpt lat="43.64353" lon="6.64988">
        <ele>533</ele>
        <time>2009-10-17T08:47:08Z</time>
      </trkpt>
      <trkpt lat="43.64363" lon="6.64981">
        <ele>534</ele>
        <time>2009-10-17T08:47:09Z</time>
      </trkpt>
      <trkpt lat="43.64371" lon="6.64975">
        <ele>533</ele>
        <time>2009-10-17T08:47:10Z</time>
      </trkpt>
      <trkpt lat="43.644" lon="6.6493">
        <ele>533</ele>
        <time>2009-10-17T08:47:17Z</time>
      </trkpt>
      <trkpt lat="43.64405" lon="6.64924">
        <ele>533</ele>
        <time>2009-10-17T08:47:18Z</time>
      </trkpt>
      <trkpt lat="43.64409" lon="6.64919">
        <ele>533</ele>
        <time>2009-10-17T08:47:19Z</time>
      </trkpt>
      <trkpt lat="43.64413" lon="6.64914">
        <ele>533</ele>
        <time>2009-10-17T08:47:20Z</time>
      </trkpt>
      <trkpt lat="43.64418" lon="6.64908">
        <ele>533</ele>
        <time>2009-10-17T08:47:21Z</time>
      </trkpt>
      <trkpt lat="43.64409" lon="6.64954">
        <ele>532</ele>
        <time>2009-10-17T08:47:22Z</time>
      </trkpt>
      <trkpt lat="43.64408" lon="6.64961">
        <ele>531</ele>
        <time>2009-10-17T08:47:23Z</time>
      </trkpt>
      <trkpt lat="43.644" lon="6.64961">
        <ele>529</ele>
        <time>2009-10-17T08:47:24Z</time>
      </trkpt>
      <trkpt lat="43.64395" lon="6.64963">
        <ele>529</ele>
        <time>2009-10-17T08:47:25Z</time>
      </trkpt>
      <trkpt lat="43.64391" lon="6.64965">
        <ele>528</ele>
        <time>2009-10-17T08:47:26Z</time>
      </trkpt>
      <trkpt lat="43.64386" lon="6.64967">
        <ele>528</ele>
        <time>2009-10-17T08:47:27Z</time>
      </trkpt>
      <trkpt lat="43.64204" lon="6.65055">
        <ele>525</ele>
        <time>2009-10-17T08:47:53Z</time>
      </trkpt>
      <trkpt lat="43.64187" lon="6.65057">
        <ele>525</ele>
        <time>2009-10-17T08:47:54Z</time>
      </trkpt>
      <trkpt lat="43.6411" lon="6.65074">
        <ele>526</ele>
        <time>2009-10-17T08:48:01Z</time>
      </trkpt>
      <trkpt lat="43.64103" lon="6.65078">
        <ele>527</ele>
        <time>2009-10-17T08:48:02Z</time>
      </trkpt>
      <trkpt lat="43.64097" lon="6.65082">
        <ele>526</ele>
        <time>2009-10-17T08:48:03Z</time>
      </trkpt>
      <trkpt lat="43.64091" lon="6.65093">
        <ele>526</ele>
        <time>2009-10-17T08:48:05Z</time>
      </trkpt>
      <trkpt lat="43.64089" lon="6.65116">
        <ele>524</ele>
        <time>2009-10-17T08:48:06Z</time>
      </trkpt>
      <trkpt lat="43.63929" lon="6.65417">
        <ele>472</ele>
        <time>2009-10-17T08:48:49Z</time>
      </trkpt>
      <trkpt lat="43.63922" lon="6.65412">
        <ele>469</ele>
        <time>2009-10-17T08:48:51Z</time>
      </trkpt>
      <trkpt lat="43.63918" lon="6.65406">
        <ele>470</ele>
        <time>2009-10-17T08:48:52Z</time>
      </trkpt>
      <trkpt lat="43.63874" lon="6.64995">
        <ele>476</ele>
        <time>2009-10-17T08:49:45Z</time>
      </trkpt>
      <trkpt lat="43.63896" lon="6.64995">
        <ele>481</ele>
        <time>2009-10-17T08:49:46Z</time>
      </trkpt>
      <trkpt lat="43.63898" lon="6.65004">
        <ele>491</ele>
        <time>2009-10-17T08:49:48Z</time>
      </trkpt>
      <trkpt lat="43.63922" lon="6.64918">
        <ele>435</ele>
        <time>2009-10-17T08:49:49Z</time>
      </trkpt>
      <trkpt lat="43.63927" lon="6.64918">
        <ele>435</ele>
        <time>2009-10-17T08:49:50Z</time>
      </trkpt>
      <trkpt lat="43.63726" lon="6.64755">
        <ele>429</ele>
        <time>2009-10-17T08:50:44Z</time>
      </trkpt>
      <trkpt lat="43.6372" lon="6.64753">
        <ele>422</ele>
        <time>2009-10-17T08:50:45Z</time>
      </trkpt>
      <trkpt lat="43.63466" lon="6.64952">
        <ele>409</ele>
        <time>2009-10-17T08:51:44Z</time>
      </trkpt>
      <trkpt lat="43.63461" lon="6.64947">
        <ele>395</ele>
        <time>2009-10-17T08:51:47Z</time>
      </trkpt>
      <trkpt lat="43.63451" lon="6.6513">
        <ele>384</ele>
        <time>2009-10-17T08:52:45Z</time>
      </trkpt>
      <trkpt lat="43.63454" lon="6.6514">
        <ele>384</ele>
        <time>2009-10-17T08:52:46Z</time>
      </trkpt>
      <trkpt lat="43.63459" lon="6.6515">
        <ele>384</ele>
        <time>2009-10-17T08:52:47Z</time>
      </trkpt>
      <trkpt lat="43.63467" lon="6.65161">
        <ele>384</ele>
        <time>2009-10-17T08:52:48Z</time>
      </trkpt>
      <trkpt lat="43.63474" lon="6.65173">
        <ele>387</ele>
        <time>2009-10-17T08:52:49Z</time>
      </trkpt>
      <trkpt lat="43.63474" lon="6.65182">
        <ele>388</ele>
        <time>2009-10-17T08:52:50Z</time>
      </trkpt>
      <trkpt lat="43.63479" lon="6.65193">
        <ele>388</ele>
        <time>2009-10-17T08:52:51Z</time>
      </trkpt>
      <trkpt lat="43.63476" lon="6.65202">
        <ele>385</ele>
        <time>2009-10-17T08:52:52Z</time>
      </trkpt>
      <trkpt lat="43.63476" lon="6.65212">
        <ele>385</ele>
        <time>2009-10-17T08:52:53Z</time>
      </trkpt>
      <trkpt lat="43.63475" lon="6.6527">
        <ele>384</ele>
        <time>2009-10-17T08:53:00Z</time>
      </trkpt>
      <trkpt lat="43.63475" lon="6.6528">
        <ele>386</ele>
        <time>2009-10-17T08:53:01Z</time>
      </trkpt>
      <trkpt lat="43.63476" lon="6.65287">
        <ele>385</ele>
        <time>2009-10-17T08:53:02Z</time>
      </trkpt>
      <trkpt lat="43.63476" lon="6.65297">
        <ele>386</ele>
        <time>2009-10-17T08:53:03Z</time>
      </trkpt>
      <trkpt lat="43.63476" lon="6.65306">
        <ele>386</ele>
        <time>2009-10-17T08:53:04Z</time>
      </trkpt>
      <trkpt lat="43.63488" lon="6.65318">
        <ele>385</ele>
        <time>2009-10-17T08:53:05Z</time>
      </trkpt>
      <trkpt lat="43.63492" lon="6.65328">
        <ele>387</ele>
        <time>2009-10-17T08:53:06Z</time>
      </trkpt>
      <trkpt lat="43.63496" lon="6.65339">
        <ele>387</ele>
        <time>2009-10-17T08:53:07Z</time>
      </trkpt>
      <trkpt lat="43.63542" lon="6.65573">
        <ele>378</ele>
        <time>2009-10-17T08:53:45Z</time>
      </trkpt>
      <trkpt lat="43.63531" lon="6.65576">
        <ele>374</ele>
        <time>2009-10-17T08:53:47Z</time>
      </trkpt>
      <trkpt lat="43.63485" lon="6.65573">
        <ele>387</ele>
        <time>2009-10-17T08:53:50Z</time>
      </trkpt>
      <trkpt lat="43.63489" lon="6.65577">
        <ele>386</ele>
        <time>2009-10-17T08:53:52Z</time>
      </trkpt>
      <trkpt lat="43.635" lon="6.65579">
        <ele>385</ele>
        <time>2009-10-17T08:53:53Z</time>
      </trkpt>
      <trkpt lat="43.63503" lon="6.65585">
        <ele>386</ele>
        <time>2009-10-17T08:54:00Z</time>
      </trkpt>
      <trkpt lat="43.63508" lon="6.65589">
        <ele>385</ele>
        <time>2009-10-17T08:54:03Z</time>
      </trkpt>
      <trkpt lat="43.6351" lon="6.65594">
        <ele>385</ele>
        <time>2009-10-17T08:54:05Z</time>
      </trkpt>
      <trkpt lat="43.63526" lon="6.656">
        <ele>382</ele>
        <time>2009-10-17T08:54:06Z</time>
      </trkpt>
      <trkpt lat="43.63533" lon="6.65604">
        <ele>380</ele>
        <time>2009-10-17T08:54:07Z</time>
      </trkpt>
      <trkpt lat="43.63623" lon="6.65658">
        <ele>322</ele>
        <time>2009-10-17T08:54:49Z</time>
      </trkpt>
      <trkpt lat="43.63619" lon="6.65669">
        <ele>324</ele>
        <time>2009-10-17T08:54:50Z</time>
      </trkpt>
      <trkpt lat="43.63615" lon="6.65677">
        <ele>325</ele>
        <time>2009-10-17T08:54:51Z</time>
      </trkpt>
      <trkpt lat="43.63609" lon="6.65685">
        <ele>324</ele>
        <time>2009-10-17T08:54:52Z</time>
      </trkpt>
      <trkpt lat="43.6361" lon="6.65697">
        <ele>329</ele>
        <time>2009-10-17T08:55:01Z</time>
      </trkpt>
      <trkpt lat="43.63612" lon="6.65703">
        <ele>332</ele>
        <time>2009-10-17T08:55:02Z</time>
      </trkpt>
      <trkpt lat="43.63615" lon="6.6571">
        <ele>337</ele>
        <time>2009-10-17T08:55:03Z</time>
      </trkpt>
      <trkpt lat="43.63616" lon="6.65719">
        <ele>340</ele>
        <time>2009-10-17T08:55:06Z</time>
      </trkpt>
      <trkpt lat="43.63617" lon="6.65727">
        <ele>344</ele>
        <time>2009-10-17T08:55:08Z</time>
      </trkpt>
      <trkpt lat="43.63615" lon="6.65733">
        <ele>344</ele>
        <time>2009-10-17T08:55:11Z</time>
      </trkpt>
      <trkpt lat="43.63616" lon="6.6574">
        <ele>346</ele>
        <time>2009-10-17T08:55:26Z</time>
      </trkpt>
      <trkpt lat="43.63618" lon="6.65748">
        <ele>350</ele>
        <time>2009-10-17T08:55:28Z</time>
      </trkpt>
      <trkpt lat="43.63618" lon="6.65754">
        <ele>352</ele>
        <time>2009-10-17T08:55:31Z</time>
      </trkpt>
      <trkpt lat="43.63622" lon="6.65758">
        <ele>354</ele>
        <time>2009-10-17T08:55:42Z</time>
      </trkpt>
      <trkpt lat="43.63617" lon="6.65759">
        <ele>351</ele>
        <time>2009-10-17T08:55:46Z</time>
      </trkpt>
      <trkpt lat="43.6362" lon="6.65766">
        <ele>340</ele>
        <time>2009-10-17T08:55:50Z</time>
      </trkpt>
      <trkpt lat="43.63624" lon="6.65768">
        <ele>334</ele>
        <time>2009-10-17T08:55:51Z</time>
      </trkpt>
      <trkpt lat="43.63481" lon="6.65843">
        <ele>421</ele>
        <time>2009-10-17T08:55:54Z</time>
      </trkpt>
      <trkpt lat="43.63473" lon="6.65855">
        <ele>417</ele>
        <time>2009-10-17T08:56:01Z</time>
      </trkpt>
      <trkpt lat="43.63471" lon="6.65862">
        <ele>414</ele>
        <time>2009-10-17T08:56:04Z</time>
      </trkpt>
      <trkpt lat="43.63483" lon="6.65872">
        <ele>422</ele>
        <time>2009-10-17T08:56:06Z</time>
      </trkpt>
      <trkpt lat="43.63479" lon="6.65876">
        <ele>424</ele>
        <time>2009-10-17T08:56:07Z</time>
      </trkpt>
      <trkpt lat="43.63403" lon="6.66119">
        <ele>428</ele>
        <time>2009-10-17T08:56:43Z</time>
      </trkpt>
      <trkpt lat="43.634" lon="6.66133">
        <ele>429</ele>
        <time>2009-10-17T08:56:44Z</time>
      </trkpt>
      <trkpt lat="43.63398" lon="6.66144">
        <ele>429</ele>
        <time>2009-10-17T08:56:45Z</time>
      </trkpt>
      <trkpt lat="43.63396" lon="6.66153">
        <ele>429</ele>
        <time>2009-10-17T08:56:46Z</time>
      </trkpt>
      <trkpt lat="43.63393" lon="6.66164">
        <ele>429</ele>
        <time>2009-10-17T08:56:47Z</time>
      </trkpt>
      <trkpt lat="43.63391" lon="6.66172">
        <ele>429</ele>
        <time>2009-10-17T08:56:48Z</time>
      </trkpt>
      <trkpt lat="43.63462" lon="6.66194">
        <ele>422</ele>
        <time>2009-10-17T08:56:49Z</time>
      </trkpt>
      <trkpt lat="43.635" lon="6.6621">
        <ele>409</ele>
        <time>2009-10-17T08:56:50Z</time>
      </trkpt>
      <trkpt lat="43.63514" lon="6.66222">
        <ele>407</ele>
        <time>2009-10-17T08:56:51Z</time>
      </trkpt>
      <trkpt lat="43.63513" lon="6.6623">
        <ele>402</ele>
        <time>2009-10-17T08:56:52Z</time>
      </trkpt>
      <trkpt lat="43.63514" lon="6.66239">
        <ele>401</ele>
        <time>2009-10-17T08:56:53Z</time>
      </trkpt>
      <trkpt lat="43.63517" lon="6.66303">
        <ele>401</ele>
        <time>2009-10-17T08:57:00Z</time>
      </trkpt>
      <trkpt lat="43.63517" lon="6.66312">
        <ele>401</ele>
        <time>2009-10-17T08:57:01Z</time>
      </trkpt>
      <trkpt lat="43.63518" lon="6.66321">
        <ele>401</ele>
        <time>2009-10-17T08:57:02Z</time>
      </trkpt>
      <trkpt lat="43.63518" lon="6.6633">
        <ele>401</ele>
        <time>2009-10-17T08:57:03Z</time>
      </trkpt>
      <trkpt lat="43.63519" lon="6.66339">
        <ele>401</ele>
        <time>2009-10-17T08:57:04Z</time>
      </trkpt>
      <trkpt lat="43.63487" lon="6.66315">
        <ele>402</ele>
        <time>2009-10-17T08:57:05Z</time>
      </trkpt>
      <trkpt lat="43.63531" lon="6.6633">
        <ele>405</ele>
        <time>2009-10-17T08:57:06Z</time>
      </trkpt>
      <trkpt lat="43.63546" lon="6.66336">
        <ele>406</ele>
        <time>2009-10-17T08:57:07Z</time>
      </trkpt>
      <trkpt lat="43.63552" lon="6.66496">
        <ele>395</ele>
        <time>2009-10-17T08:57:44Z</time>
      </trkpt>
      <trkpt lat="43.6356" lon="6.665">
        <ele>391</ele>
        <time>2009-10-17T08:57:45Z</time>
      </trkpt>
      <trkpt lat="43.63567" lon="6.66504">
        <ele>392</ele>
        <time>2009-10-17T08:57:46Z</time>
      </trkpt>
      <trkpt lat="43.63572" lon="6.66507">
        <ele>392</ele>
        <time>2009-10-17T08:57:47Z</time>
      </trkpt>
      <trkpt lat="43.63576" lon="6.66516">
        <ele>393</ele>
        <time>2009-10-17T08:57:50Z</time>
      </trkpt>
      <trkpt lat="43.6358" lon="6.66519">
        <ele>392</ele>
        <time>2009-10-17T08:57:52Z</time>
      </trkpt>
      <trkpt lat="43.63591" lon="6.66535">
        <ele>391</ele>
        <time>2009-10-17T08:58:00Z</time>
      </trkpt>
      <trkpt lat="43.63599" lon="6.66539">
        <ele>393</ele>
        <time>2009-10-17T08:58:02Z</time>
      </trkpt>
      <trkpt lat="43.63603" lon="6.66542">
        <ele>393</ele>
        <time>2009-10-17T08:58:04Z</time>
      </trkpt>
      <trkpt lat="43.63601" lon="6.66548">
        <ele>395</ele>
        <time>2009-10-17T08:58:10Z</time>
      </trkpt>
      <trkpt lat="43.63606" lon="6.66551">
        <ele>395</ele>
        <time>2009-10-17T08:58:17Z</time>
      </trkpt>
      <trkpt lat="43.6361" lon="6.66558">
        <ele>395</ele>
        <time>2009-10-17T08:58:21Z</time>
      </trkpt>
      <trkpt lat="43.63602" lon="6.66557">
        <ele>395</ele>
        <time>2009-10-17T08:58:22Z</time>
      </trkpt>
      <trkpt lat="43.63596" lon="6.66556">
        <ele>395</ele>
        <time>2009-10-17T08:58:24Z</time>
      </trkpt>
      <trkpt lat="43.63595" lon="6.66563">
        <ele>395</ele>
        <time>2009-10-17T08:58:36Z</time>
      </trkpt>
      <trkpt lat="43.63581" lon="6.66569">
        <ele>394</ele>
        <time>2009-10-17T08:58:39Z</time>
      </trkpt>
      <trkpt lat="43.63573" lon="6.66572">
        <ele>394</ele>
        <time>2009-10-17T08:58:40Z</time>
      </trkpt>
      <trkpt lat="43.6356" lon="6.66574">
        <ele>394</ele>
        <time>2009-10-17T08:58:41Z</time>
      </trkpt>
      <trkpt lat="43.63554" lon="6.66578">
        <ele>395</ele>
        <time>2009-10-17T08:58:44Z</time>
      </trkpt>
      <trkpt lat="43.6355" lon="6.66582">
        <ele>395</ele>
        <time>2009-10-17T08:58:48Z</time>
      </trkpt>
      <trkpt lat="43.63554" lon="6.66585">
        <ele>395</ele>
        <time>2009-10-17T08:58:49Z</time>
      </trkpt>
      <trkpt lat="43.6356" lon="6.66591">
        <ele>396</ele>
        <time>2009-10-17T08:58:52Z</time>
      </trkpt>
      <trkpt lat="43.63566" lon="6.66594">
        <ele>395</ele>
        <time>2009-10-17T08:58:54Z</time>
      </trkpt>
      <trkpt lat="43.63563" lon="6.666">
        <ele>395</ele>
        <time>2009-10-17T08:59:01Z</time>
      </trkpt>
      <trkpt lat="43.63555" lon="6.66606">
        <ele>395</ele>
        <time>2009-10-17T08:59:06Z</time>
      </trkpt>
      <trkpt lat="43.63549" lon="6.66607">
        <ele>394</ele>
        <time>2009-10-17T08:59:07Z</time>
      </trkpt>
      <trkpt lat="43.63544" lon="6.66609">
        <ele>394</ele>
        <time>2009-10-17T08:59:08Z</time>
      </trkpt>
      <trkpt lat="43.63544" lon="6.66616">
        <ele>396</ele>
        <time>2009-10-17T08:59:10Z</time>
      </trkpt>
      <trkpt lat="43.63525" lon="6.66623">
        <ele>395</ele>
        <time>2009-10-17T08:59:18Z</time>
      </trkpt>
      <trkpt lat="43.63512" lon="6.66626">
        <ele>393</ele>
        <time>2009-10-17T08:59:19Z</time>
      </trkpt>
      <trkpt lat="43.63503" lon="6.66629">
        <ele>392</ele>
        <time>2009-10-17T08:59:20Z</time>
      </trkpt>
      <trkpt lat="43.63494" lon="6.66631">
        <ele>391</ele>
        <time>2009-10-17T08:59:21Z</time>
      </trkpt>
      <trkpt lat="43.63486" lon="6.66633">
        <ele>390</ele>
        <time>2009-10-17T08:59:22Z</time>
      </trkpt>
      <trkpt lat="43.63502" lon="6.6664">
        <ele>392</ele>
        <time>2009-10-17T08:59:23Z</time>
      </trkpt>
      <trkpt lat="43.63508" lon="6.66643">
        <ele>393</ele>
        <time>2009-10-17T08:59:25Z</time>
      </trkpt>
      <trkpt lat="43.63513" lon="6.66645">
        <ele>393</ele>
        <time>2009-10-17T08:59:27Z</time>
      </trkpt>
      <trkpt lat="43.6351" lon="6.6665">
        <ele>394</ele>
        <time>2009-10-17T08:59:35Z</time>
      </trkpt>
      <trkpt lat="43.63521" lon="6.66659">
        <ele>392</ele>
        <time>2009-10-17T08:59:42Z</time>
      </trkpt>
      <trkpt lat="43.63542" lon="6.66669">
        <ele>388</ele>
        <time>2009-10-17T08:59:45Z</time>
      </trkpt>
      <trkpt lat="43.6355" lon="6.66675">
        <ele>391</ele>
        <time>2009-10-17T08:59:50Z</time>
      </trkpt>
      <trkpt lat="43.63502" lon="6.66715">
        <ele>397</ele>
        <time>2009-10-17T09:00:49Z</time>
      </trkpt>
      <trkpt lat="43.63494" lon="6.66713">
        <ele>397</ele>
        <time>2009-10-17T09:00:50Z</time>
      </trkpt>
      <trkpt lat="43.63486" lon="6.6671">
        <ele>396</ele>
        <time>2009-10-17T09:00:51Z</time>
      </trkpt>
      <trkpt lat="43.63479" lon="6.66708">
        <ele>397</ele>
        <time>2009-10-17T09:00:52Z</time>
      </trkpt>
      <trkpt lat="43.63485" lon="6.66708">
        <ele>398</ele>
        <time>2009-10-17T09:01:00Z</time>
      </trkpt>
      <trkpt lat="43.63488" lon="6.66707">
        <ele>399</ele>
        <time>2009-10-17T09:01:03Z</time>
      </trkpt>
      <trkpt lat="43.63488" lon="6.66707">
        <ele>399</ele>
        <time>2009-10-17T09:01:04Z</time>
      </trkpt>
      <trkpt lat="43.63512" lon="6.66716">
        <ele>408</ele>
        <time>2009-10-17T09:01:05Z</time>
      </trkpt>
      <trkpt lat="43.63521" lon="6.6672">
        <ele>414</ele>
        <time>2009-10-17T09:01:06Z</time>
      </trkpt>
      <trkpt lat="43.63526" lon="6.66723">
        <ele>418</ele>
        <time>2009-10-17T09:01:07Z</time>
      </trkpt>
      <trkpt lat="43.6353" lon="6.66725">
        <ele>422</ele>
        <time>2009-10-17T09:01:08Z</time>
      </trkpt>
      <trkpt lat="43.63536" lon="6.66727">
        <ele>424</ele>
        <time>2009-10-17T09:01:09Z</time>
      </trkpt>
      <trkpt lat="43.63541" lon="6.6673">
        <ele>424</ele>
        <time>2009-10-17T09:01:17Z</time>
      </trkpt>
      <trkpt lat="43.63547" lon="6.66732">
        <ele>420</ele>
        <time>2009-10-17T09:01:20Z</time>
      </trkpt>
      <trkpt lat="43.63575" lon="6.6674">
        <ele>429</ele>
        <time>2009-10-17T09:01:22Z</time>
      </trkpt>
      <trkpt lat="43.63591" lon="6.66748">
        <ele>437</ele>
        <time>2009-10-17T09:01:23Z</time>
      </trkpt>
      <trkpt lat="43.63604" lon="6.66753">
        <ele>444</ele>
        <time>2009-10-17T09:01:24Z</time>
      </trkpt>
      <trkpt lat="43.63609" lon="6.66757">
        <ele>449</ele>
        <time>2009-10-17T09:01:26Z</time>
      </trkpt>
      <trkpt lat="43.6361" lon="6.66765">
        <ele>466</ele>
        <time>2009-10-17T09:01:47Z</time>
      </trkpt>
      <trkpt lat="43.63601" lon="6.66766">
        <ele>461</ele>
        <time>2009-10-17T09:01:48Z</time>
      </trkpt>
      <trkpt lat="43.63598" lon="6.66772">
        <ele>462</ele>
        <time>2009-10-17T09:01:50Z</time>
      </trkpt>
      <trkpt lat="43.63593" lon="6.66776">
        <ele>459</ele>
        <time>2009-10-17T09:01:53Z</time>
      </trkpt>
      <trkpt lat="43.63596" lon="6.66779">
        <ele>470</ele>
        <time>2009-10-17T09:02:03Z</time>
      </trkpt>
      <trkpt lat="43.63601" lon="6.66782">
        <ele>472</ele>
        <time>2009-10-17T09:02:06Z</time>
      </trkpt>
      <trkpt lat="43.63614" lon="6.66786">
        <ele>475</ele>
        <time>2009-10-17T09:02:08Z</time>
      </trkpt>
      <trkpt lat="43.63618" lon="6.66788">
        <ele>477</ele>
        <time>2009-10-17T09:02:09Z</time>
      </trkpt>
      <trkpt lat="43.63619" lon="6.66788">
        <ele>470</ele>
        <time>2009-10-17T09:02:44Z</time>
      </trkpt>
      <trkpt lat="43.63639" lon="6.66792">
        <ele>467</ele>
        <time>2009-10-17T09:02:45Z</time>
      </trkpt>
      <trkpt lat="43.63657" lon="6.66797">
        <ele>464</ele>
        <time>2009-10-17T09:02:46Z</time>
      </trkpt>
      <trkpt lat="43.63645" lon="6.66978">
        <ele>428</ele>
        <time>2009-10-17T09:02:47Z</time>
      </trkpt>
      <trkpt lat="43.63631" lon="6.66999">
        <ele>440</ele>
        <time>2009-10-17T09:02:49Z</time>
      </trkpt>
      <trkpt lat="43.63668" lon="6.67197">
        <ele>434</ele>
        <time>2009-10-17T09:03:49Z</time>
      </trkpt>
      <trkpt lat="43.63662" lon="6.67191">
        <ele>411</ele>
        <time>2009-10-17T09:03:50Z</time>
      </trkpt>
      <trkpt lat="43.63725" lon="6.67246">
        <ele>358</ele>
        <time>2009-10-17T09:04:58Z</time>
      </trkpt>
      <trkpt lat="43.63758" lon="6.67272">
        <ele>347</ele>
        <time>2009-10-17T09:05:10Z</time>
      </trkpt>
      <trkpt lat="43.63764" lon="6.67277">
        <ele>342</ele>
        <time>2009-10-17T09:05:11Z</time>
      </trkpt>
      <trkpt lat="43.6377" lon="6.67282">
        <ele>338</ele>
        <time>2009-10-17T09:05:12Z</time>
      </trkpt>
      <trkpt lat="43.63777" lon="6.6729">
        <ele>332</ele>
        <time>2009-10-17T09:05:13Z</time>
      </trkpt>
      <trkpt lat="43.63787" lon="6.673">
        <ele>318</ele>
        <time>2009-10-17T09:05:15Z</time>
      </trkpt>
      <trkpt lat="43.63788" lon="6.67307">
        <ele>328</ele>
        <time>2009-10-17T09:05:23Z</time>
      </trkpt>
      <trkpt lat="43.63673" lon="6.67476">
        <ele>426</ele>
        <time>2009-10-17T09:05:27Z</time>
      </trkpt>
      <trkpt lat="43.63652" lon="6.67499">
        <ele>407</ele>
        <time>2009-10-17T09:05:28Z</time>
      </trkpt>
      <trkpt lat="43.63645" lon="6.67515">
        <ele>406</ele>
        <time>2009-10-17T09:05:29Z</time>
      </trkpt>
      <trkpt lat="43.6364" lon="6.67528">
        <ele>403</ele>
        <time>2009-10-17T09:05:30Z</time>
      </trkpt>
      <trkpt lat="43.63639" lon="6.67541">
        <ele>407</ele>
        <time>2009-10-17T09:05:31Z</time>
      </trkpt>
      <trkpt lat="43.63636" lon="6.6755">
        <ele>407</ele>
        <time>2009-10-17T09:05:32Z</time>
      </trkpt>
      <trkpt lat="43.63633" lon="6.67592">
        <ele>406</ele>
        <time>2009-10-17T09:05:38Z</time>
      </trkpt>
      <trkpt lat="43.63631" lon="6.67606">
        <ele>408</ele>
        <time>2009-10-17T09:05:40Z</time>
      </trkpt>
      <trkpt lat="43.63631" lon="6.67621">
        <ele>413</ele>
        <time>2009-10-17T09:05:44Z</time>
      </trkpt>
      <trkpt lat="43.6363" lon="6.67628">
        <ele>413</ele>
        <time>2009-10-17T09:05:46Z</time>
      </trkpt>
      <trkpt lat="43.63628" lon="6.67636">
        <ele>413</ele>
        <time>2009-10-17T09:05:48Z</time>
      </trkpt>
      <trkpt lat="43.6356" lon="6.67641">
        <ele>409</ele>
        <time>2009-10-17T09:05:49Z</time>
      </trkpt>
      <trkpt lat="43.63509" lon="6.67643">
        <ele>410</ele>
        <time>2009-10-17T09:05:50Z</time>
      </trkpt>
      <trkpt lat="43.6347" lon="6.67643">
        <ele>413</ele>
        <time>2009-10-17T09:05:51Z</time>
      </trkpt>
      <trkpt lat="43.63444" lon="6.67644">
        <ele>414</ele>
        <time>2009-10-17T09:05:52Z</time>
      </trkpt>
      <trkpt lat="43.63439" lon="6.67645">
        <ele>415</ele>
        <time>2009-10-17T09:05:53Z</time>
      </trkpt>
      <trkpt lat="43.63432" lon="6.67647">
        <ele>416</ele>
        <time>2009-10-17T09:05:54Z</time>
      </trkpt>
      <trkpt lat="43.6337" lon="6.67651">
        <ele>418</ele>
        <time>2009-10-17T09:06:01Z</time>
      </trkpt>
      <trkpt lat="43.63355" lon="6.67661">
        <ele>422</ele>
        <time>2009-10-17T09:06:02Z</time>
      </trkpt>
      <trkpt lat="43.63342" lon="6.67668">
        <ele>425</ele>
        <time>2009-10-17T09:06:03Z</time>
      </trkpt>
      <trkpt lat="43.63328" lon="6.67676">
        <ele>429</ele>
        <time>2009-10-17T09:06:04Z</time>
      </trkpt>
      <trkpt lat="43.63311" lon="6.67686">
        <ele>436</ele>
        <time>2009-10-17T09:06:05Z</time>
      </trkpt>
      <trkpt lat="43.63436" lon="6.67739">
        <ele>364</ele>
        <time>2009-10-17T09:06:06Z</time>
      </trkpt>
      <trkpt lat="43.63446" lon="6.67746">
        <ele>363</ele>
        <time>2009-10-17T09:06:07Z</time>
      </trkpt>
      <trkpt lat="43.63453" lon="6.6775">
        <ele>365</ele>
        <time>2009-10-17T09:06:08Z</time>
      </trkpt>
      <trkpt lat="43.63448" lon="6.6776">
        <ele>371</ele>
        <time>2009-10-17T09:06:11Z</time>
      </trkpt>
      <trkpt lat="43.63422" lon="6.67795">
        <ele>374</ele>
        <time>2009-10-17T09:06:17Z</time>
      </trkpt>
      <trkpt lat="43.63417" lon="6.67799">
        <ele>376</ele>
        <time>2009-10-17T09:06:19Z</time>
      </trkpt>
      <trkpt lat="43.63411" lon="6.678">
        <ele>376</ele>
        <time>2009-10-17T09:06:21Z</time>
      </trkpt>
      <trkpt lat="43.63425" lon="6.67806">
        <ele>377</ele>
        <time>2009-10-17T09:06:23Z</time>
      </trkpt>
      <trkpt lat="43.63428" lon="6.67812">
        <ele>373</ele>
        <time>2009-10-17T09:06:25Z</time>
      </trkpt>
      <trkpt lat="43.63435" lon="6.67809">
        <ele>384</ele>
        <time>2009-10-17T09:06:36Z</time>
      </trkpt>
      <trkpt lat="43.63447" lon="6.67791">
        <ele>384</ele>
        <time>2009-10-17T09:06:44Z</time>
      </trkpt>
      <trkpt lat="43.63451" lon="6.67785">
        <ele>385</ele>
        <time>2009-10-17T09:06:46Z</time>
      </trkpt>
      <trkpt lat="43.63457" lon="6.67783">
        <ele>386</ele>
        <time>2009-10-17T09:06:47Z</time>
      </trkpt>
      <trkpt lat="43.63383" lon="6.67992">
        <ele>389</ele>
        <time>2009-10-17T09:07:49Z</time>
      </trkpt>
      <trkpt lat="43.63387" lon="6.68">
        <ele>396</ele>
        <time>2009-10-17T09:07:51Z</time>
      </trkpt>
      <trkpt lat="43.63396" lon="6.68006">
        <ele>407</ele>
        <time>2009-10-17T09:07:52Z</time>
      </trkpt>
      <trkpt lat="43.63394" lon="6.68014">
        <ele>412</ele>
        <time>2009-10-17T09:08:01Z</time>
      </trkpt>
      <trkpt lat="43.63391" lon="6.6802">
        <ele>423</ele>
        <time>2009-10-17T09:08:05Z</time>
      </trkpt>
      <trkpt lat="43.63399" lon="6.68023">
        <ele>418</ele>
        <time>2009-10-17T09:08:06Z</time>
      </trkpt>
      <trkpt lat="43.63405" lon="6.68028">
        <ele>414</ele>
        <time>2009-10-17T09:08:08Z</time>
      </trkpt>
      <trkpt lat="43.63464" lon="6.68091">
        <ele>372</ele>
        <time>2009-10-17T09:08:49Z</time>
      </trkpt>
      <trkpt lat="43.63468" lon="6.68095">
        <ele>367</ele>
        <time>2009-10-17T09:08:50Z</time>
      </trkpt>
      <trkpt lat="43.63472" lon="6.681">
        <ele>358</ele>
        <time>2009-10-17T09:08:51Z</time>
      </trkpt>
      <trkpt lat="43.63467" lon="6.68103">
        <ele>363</ele>
        <time>2009-10-17T09:09:01Z</time>
      </trkpt>
      <trkpt lat="43.63466" lon="6.68104">
        <ele>373</ele>
        <time>2009-10-17T09:09:03Z</time>
      </trkpt>
      <trkpt lat="43.6347" lon="6.68104">
        <ele>384</ele>
        <time>2009-10-17T09:09:45Z</time>
      </trkpt>
      <trkpt lat="43.63473" lon="6.68104">
        <ele>386</ele>
        <time>2009-10-17T09:09:46Z</time>
      </trkpt>
      <trkpt lat="43.63522" lon="6.68116">
        <ele>381</ele>
        <time>2009-10-17T09:10:49Z</time>
      </trkpt>
      <trkpt lat="43.63527" lon="6.68117">
        <ele>388</ele>
        <time>2009-10-17T09:10:51Z</time>
      </trkpt>
      <trkpt lat="43.63523" lon="6.68121">
        <ele>386</ele>
        <time>2009-10-17T09:11:44Z</time>
      </trkpt>
      <trkpt lat="43.63524" lon="6.68129">
        <ele>402</ele>
        <time>2009-10-17T09:11:55Z</time>
      </trkpt>
      <trkpt lat="43.63527" lon="6.68135">
        <ele>415</ele>
        <time>2009-10-17T09:12:00Z</time>
      </trkpt>
      <trkpt lat="43.63527" lon="6.68135">
        <ele>415</ele>
        <time>2009-10-17T09:12:12Z</time>
      </trkpt>
      <trkpt lat="43.6353" lon="6.68135">
        <ele>419</ele>
        <time>2009-10-17T09:12:49Z</time>
      </trkpt>
      <trkpt lat="43.63532" lon="6.68135">
        <ele>420</ele>
        <time>2009-10-17T09:12:50Z</time>
      </trkpt>
      <trkpt lat="43.63746" lon="6.68254">
        <ele>411</ele>
        <time>2009-10-17T09:13:48Z</time>
      </trkpt>
      <trkpt lat="43.63759" lon="6.6826">
        <ele>413</ele>
        <time>2009-10-17T09:13:49Z</time>
      </trkpt>
      <trkpt lat="43.63772" lon="6.68262">
        <ele>417</ele>
        <time>2009-10-17T09:13:50Z</time>
      </trkpt>
      <trkpt lat="43.64067" lon="6.67974">
        <ele>415</ele>
        <time>2009-10-17T09:14:50Z</time>
      </trkpt>
      <trkpt lat="43.6409" lon="6.67993">
        <ele>478</ele>
        <time>2009-10-17T09:14:53Z</time>
      </trkpt>
      <trkpt lat="43.64085" lon="6.67977">
        <ele>451</ele>
        <time>2009-10-17T09:14:54Z</time>
      </trkpt>
      <trkpt lat="43.64142" lon="6.67919">
        <ele>447</ele>
        <time>2009-10-17T09:15:49Z</time>
      </trkpt>
      <trkpt lat="43.64151" lon="6.67922">
        <ele>444</ele>
        <time>2009-10-17T09:15:50Z</time>
      </trkpt>
      <trkpt lat="43.64155" lon="6.67924">
        <ele>442</ele>
        <time>2009-10-17T09:15:51Z</time>
      </trkpt>
      <trkpt lat="43.64147" lon="6.67927">
        <ele>441</ele>
        <time>2009-10-17T09:15:53Z</time>
      </trkpt>
      <trkpt lat="43.6414" lon="6.67939">
        <ele>440</ele>
        <time>2009-10-17T09:16:00Z</time>
      </trkpt>
      <trkpt lat="43.6413" lon="6.67944">
        <ele>445</ele>
        <time>2009-10-17T09:16:05Z</time>
      </trkpt>
      <trkpt lat="43.64124" lon="6.67945">
        <ele>447</ele>
        <time>2009-10-17T09:16:06Z</time>
      </trkpt>
      <trkpt lat="43.64114" lon="6.67948">
        <ele>444</ele>
        <time>2009-10-17T09:16:08Z</time>
      </trkpt>
      <trkpt lat="43.64109" lon="6.6795">
        <ele>443</ele>
        <time>2009-10-17T09:16:09Z</time>
      </trkpt>
      <trkpt lat="43.64092" lon="6.67961">
        <ele>446</ele>
        <time>2009-10-17T09:16:17Z</time>
      </trkpt>
      <trkpt lat="43.64086" lon="6.67967">
        <ele>449</ele>
        <time>2009-10-17T09:16:19Z</time>
      </trkpt>
      <trkpt lat="43.64082" lon="6.67972">
        <ele>450</ele>
        <time>2009-10-17T09:16:21Z</time>
      </trkpt>
      <trkpt lat="43.64069" lon="6.67971">
        <ele>451</ele>
        <time>2009-10-17T09:16:22Z</time>
      </trkpt>
      <trkpt lat="43.64061" lon="6.67971">
        <ele>452</ele>
        <time>2009-10-17T09:16:23Z</time>
      </trkpt>
      <trkpt lat="43.64056" lon="6.67977">
        <ele>451</ele>
        <time>2009-10-17T09:16:26Z</time>
      </trkpt>
      <trkpt lat="43.64042" lon="6.67999">
        <ele>449</ele>
        <time>2009-10-17T09:16:39Z</time>
      </trkpt>
      <trkpt lat="43.64057" lon="6.68006">
        <ele>448</ele>
        <time>2009-10-17T09:16:40Z</time>
      </trkpt>
      <trkpt lat="43.64069" lon="6.6801">
        <ele>445</ele>
        <time>2009-10-17T09:16:41Z</time>
      </trkpt>
      <trkpt lat="43.6408" lon="6.68011">
        <ele>445</ele>
        <time>2009-10-17T09:16:42Z</time>
      </trkpt>
      <trkpt lat="43.64088" lon="6.68017">
        <ele>442</ele>
        <time>2009-10-17T09:16:45Z</time>
      </trkpt>
      <trkpt lat="43.64094" lon="6.6802">
        <ele>441</ele>
        <time>2009-10-17T09:16:46Z</time>
      </trkpt>
      <trkpt lat="43.64103" lon="6.68023">
        <ele>440</ele>
        <time>2009-10-17T09:16:47Z</time>
      </trkpt>
      <trkpt lat="43.64106" lon="6.68028">
        <ele>440</ele>
        <time>2009-10-17T09:16:50Z</time>
      </trkpt>
      <trkpt lat="43.64104" lon="6.68037">
        <ele>441</ele>
        <time>2009-10-17T09:16:52Z</time>
      </trkpt>
      <trkpt lat="43.64098" lon="6.68042">
        <ele>440</ele>
        <time>2009-10-17T09:16:54Z</time>
      </trkpt>
      <trkpt lat="43.64086" lon="6.68056">
        <ele>441</ele>
        <time>2009-10-17T09:17:02Z</time>
      </trkpt>
      <trkpt lat="43.64082" lon="6.68059">
        <ele>441</ele>
        <time>2009-10-17T09:17:03Z</time>
      </trkpt>
      <trkpt lat="43.64076" lon="6.68064">
        <ele>443</ele>
        <time>2009-10-17T09:17:05Z</time>
      </trkpt>
      <trkpt lat="43.64072" lon="6.68068">
        <ele>447</ele>
        <time>2009-10-17T09:17:07Z</time>
      </trkpt>
      <trkpt lat="43.64067" lon="6.68069">
        <ele>448</ele>
        <time>2009-10-17T09:17:11Z</time>
      </trkpt>
      <trkpt lat="43.64056" lon="6.68069">
        <ele>448</ele>
        <time>2009-10-17T09:17:19Z</time>
      </trkpt>
      <trkpt lat="43.64065" lon="6.68074">
        <ele>448</ele>
        <time>2009-10-17T09:17:22Z</time>
      </trkpt>
      <trkpt lat="43.6408" lon="6.68078">
        <ele>448</ele>
        <time>2009-10-17T09:17:28Z</time>
      </trkpt>
      <trkpt lat="43.64076" lon="6.68086">
        <ele>449</ele>
        <time>2009-10-17T09:17:36Z</time>
      </trkpt>
      <trkpt lat="43.64072" lon="6.6809">
        <ele>450</ele>
        <time>2009-10-17T09:17:38Z</time>
      </trkpt>
      <trkpt lat="43.6404" lon="6.68111">
        <ele>452</ele>
        <time>2009-10-17T09:17:41Z</time>
      </trkpt>
      <trkpt lat="43.64023" lon="6.68122">
        <ele>451</ele>
        <time>2009-10-17T09:17:42Z</time>
      </trkpt>
      <trkpt lat="43.64013" lon="6.68138">
        <ele>452</ele>
        <time>2009-10-17T09:17:44Z</time>
      </trkpt>
      <trkpt lat="43.64006" lon="6.68147">
        <ele>453</ele>
        <time>2009-10-17T09:17:45Z</time>
      </trkpt>
      <trkpt lat="43.63999" lon="6.68157">
        <ele>454</ele>
        <time>2009-10-17T09:17:46Z</time>
      </trkpt>
      <trkpt lat="43.63993" lon="6.68166">
        <ele>455</ele>
        <time>2009-10-17T09:17:47Z</time>
      </trkpt>
      <trkpt lat="43.63987" lon="6.68174">
        <ele>456</ele>
        <time>2009-10-17T09:17:48Z</time>
      </trkpt>
      <trkpt lat="43.63955" lon="6.68177">
        <ele>454</ele>
        <time>2009-10-17T09:17:49Z</time>
      </trkpt>
      <trkpt lat="43.63939" lon="6.68182">
        <ele>455</ele>
        <time>2009-10-17T09:17:50Z</time>
      </trkpt>
      <trkpt lat="43.63933" lon="6.68188">
        <ele>455</ele>
        <time>2009-10-17T09:17:51Z</time>
      </trkpt>
      <trkpt lat="43.63923" lon="6.68195">
        <ele>455</ele>
        <time>2009-10-17T09:17:52Z</time>
      </trkpt>
      <trkpt lat="43.63915" lon="6.682">
        <ele>456</ele>
        <time>2009-10-17T09:17:53Z</time>
      </trkpt>
      <trkpt lat="43.6389" lon="6.68203">
        <ele>456</ele>
        <time>2009-10-17T09:17:54Z</time>
      </trkpt>
      <trkpt lat="43.6382" lon="6.68234">
        <ele>457</ele>
        <time>2009-10-17T09:18:01Z</time>
      </trkpt>
      <trkpt lat="43.6381" lon="6.68239">
        <ele>457</ele>
        <time>2009-10-17T09:18:02Z</time>
      </trkpt>
      <trkpt lat="43.638" lon="6.68242">
        <ele>457</ele>
        <time>2009-10-17T09:18:03Z</time>
      </trkpt>
      <trkpt lat="43.6379" lon="6.68244">
        <ele>457</ele>
        <time>2009-10-17T09:18:04Z</time>
      </trkpt>
      <trkpt lat="43.6378" lon="6.68246">
        <ele>457</ele>
        <time>2009-10-17T09:18:05Z</time>
      </trkpt>
      <trkpt lat="43.63832" lon="6.68254">
        <ele>457</ele>
        <time>2009-10-17T09:18:06Z</time>
      </trkpt>
      <trkpt lat="43.63886" lon="6.68266">
        <ele>454</ele>
        <time>2009-10-17T09:18:07Z</time>
      </trkpt>
      <trkpt lat="43.64009" lon="6.68296">
        <ele>449</ele>
        <time>2009-10-17T09:18:08Z</time>
      </trkpt>
      <trkpt lat="43.64022" lon="6.6831">
        <ele>448</ele>
        <time>2009-10-17T09:18:09Z</time>
      </trkpt>
      <trkpt lat="43.64016" lon="6.68316">
        <ele>449</ele>
        <time>2009-10-17T09:18:10Z</time>
      </trkpt>
      <trkpt lat="43.64076" lon="6.68587">
        <ele>429</ele>
        <time>2009-10-17T09:18:49Z</time>
      </trkpt>
      <trkpt lat="43.64082" lon="6.68589">
        <ele>430</ele>
        <time>2009-10-17T09:18:50Z</time>
      </trkpt>
      <trkpt lat="43.64059" lon="6.68809">
        <ele>496</ele>
        <time>2009-10-17T09:19:51Z</time>
      </trkpt>
      <trkpt lat="43.6403" lon="6.68804">
        <ele>507</ele>
        <time>2009-10-17T09:19:52Z</time>
      </trkpt>
      <trkpt lat="43.63993" lon="6.68808">
        <ele>512</ele>
        <time>2009-10-17T09:19:53Z</time>
      </trkpt>
      <trkpt lat="43.63961" lon="6.68809">
        <ele>505</ele>
        <time>2009-10-17T09:19:54Z</time>
      </trkpt>
      <trkpt lat="43.6394" lon="6.68809">
        <ele>505</ele>
        <time>2009-10-17T09:19:55Z</time>
      </trkpt>
      <trkpt lat="43.63904" lon="6.68806">
        <ele>505</ele>
        <time>2009-10-17T09:19:56Z</time>
      </trkpt>
      <trkpt lat="43.63895" lon="6.68807">
        <ele>507</ele>
        <time>2009-10-17T09:19:58Z</time>
      </trkpt>
      <trkpt lat="43.63873" lon="6.68817">
        <ele>506</ele>
        <time>2009-10-17T09:20:05Z</time>
      </trkpt>
      <trkpt lat="43.63867" lon="6.68821">
        <ele>506</ele>
        <time>2009-10-17T09:20:07Z</time>
      </trkpt>
      <trkpt lat="43.63863" lon="6.68827">
        <ele>504</ele>
        <time>2009-10-17T09:20:09Z</time>
      </trkpt>
      <trkpt lat="43.63875" lon="6.68824">
        <ele>502</ele>
        <time>2009-10-17T09:20:10Z</time>
      </trkpt>
      <trkpt lat="43.63872" lon="6.68829">
        <ele>494</ele>
        <time>2009-10-17T09:20:12Z</time>
      </trkpt>
      <trkpt lat="43.63864" lon="6.68831">
        <ele>484</ele>
        <time>2009-10-17T09:20:13Z</time>
      </trkpt>
      <trkpt lat="43.63856" lon="6.68836">
        <ele>484</ele>
        <time>2009-10-17T09:20:43Z</time>
      </trkpt>
      <trkpt lat="43.63856" lon="6.68836">
        <ele>484</ele>
        <time>2009-10-17T09:20:43Z</time>
      </trkpt>
      <trkpt lat="43.63854" lon="6.68832">
        <ele>484</ele>
        <time>2009-10-17T09:20:47Z</time>
      </trkpt>
      <trkpt lat="43.63818" lon="6.68921">
        <ele>455</ele>
        <time>2009-10-17T09:20:49Z</time>
      </trkpt>
      <trkpt lat="43.63823" lon="6.68924">
        <ele>450</ele>
        <time>2009-10-17T09:20:52Z</time>
      </trkpt>
      <trkpt lat="43.63794" lon="6.68962">
        <ele>451</ele>
        <time>2009-10-17T09:21:00Z</time>
      </trkpt>
      <trkpt lat="43.63789" lon="6.68969">
        <ele>452</ele>
        <time>2009-10-17T09:21:02Z</time>
      </trkpt>
      <trkpt lat="43.63784" lon="6.68975">
        <ele>449</ele>
        <time>2009-10-17T09:21:04Z</time>
      </trkpt>
      <trkpt lat="43.63772" lon="6.68978">
        <ele>447</ele>
        <time>2009-10-17T09:21:05Z</time>
      </trkpt>
      <trkpt lat="43.63767" lon="6.68982">
        <ele>447</ele>
        <time>2009-10-17T09:21:06Z</time>
      </trkpt>
      <trkpt lat="43.63762" lon="6.68991">
        <ele>446</ele>
        <time>2009-10-17T09:21:08Z</time>
      </trkpt>
      <trkpt lat="43.63763" lon="6.69002">
        <ele>443</ele>
        <time>2009-10-17T09:21:10Z</time>
      </trkpt>
      <trkpt lat="43.63743" lon="6.6905">
        <ele>429</ele>
        <time>2009-10-17T09:21:17Z</time>
      </trkpt>
      <trkpt lat="43.63735" lon="6.69059">
        <ele>424</ele>
        <time>2009-10-17T09:21:18Z</time>
      </trkpt>
      <trkpt lat="43.63732" lon="6.69069">
        <ele>425</ele>
        <time>2009-10-17T09:21:19Z</time>
      </trkpt>
      <trkpt lat="43.6373" lon="6.69077">
        <ele>424</ele>
        <time>2009-10-17T09:21:20Z</time>
      </trkpt>
      <trkpt lat="43.63723" lon="6.69085">
        <ele>421</ele>
        <time>2009-10-17T09:21:21Z</time>
      </trkpt>
      <trkpt lat="43.63723" lon="6.69091">
        <ele>421</ele>
        <time>2009-10-17T09:21:22Z</time>
      </trkpt>
      <trkpt lat="43.63717" lon="6.69098">
        <ele>420</ele>
        <time>2009-10-17T09:21:24Z</time>
      </trkpt>
      <trkpt lat="43.63701" lon="6.69099">
        <ele>425</ele>
        <time>2009-10-17T09:21:25Z</time>
      </trkpt>
      <trkpt lat="43.63692" lon="6.691">
        <ele>426</ele>
        <time>2009-10-17T09:21:27Z</time>
      </trkpt>
      <trkpt lat="43.63664" lon="6.69097">
        <ele>420</ele>
        <time>2009-10-17T09:21:34Z</time>
      </trkpt>
      <trkpt lat="43.6366" lon="6.69093">
        <ele>415</ele>
        <time>2009-10-17T09:21:35Z</time>
      </trkpt>
      <trkpt lat="43.63655" lon="6.69088">
        <ele>415</ele>
        <time>2009-10-17T09:21:36Z</time>
      </trkpt>
      <trkpt lat="43.63648" lon="6.69077">
        <ele>415</ele>
        <time>2009-10-17T09:21:38Z</time>
      </trkpt>
      <trkpt lat="43.63608" lon="6.69064">
        <ele>419</ele>
        <time>2009-10-17T09:21:39Z</time>
      </trkpt>
      <trkpt lat="43.63576" lon="6.69046">
        <ele>419</ele>
        <time>2009-10-17T09:21:44Z</time>
      </trkpt>
      <trkpt lat="43.63568" lon="6.69042">
        <ele>419</ele>
        <time>2009-10-17T09:21:45Z</time>
      </trkpt>
      <trkpt lat="43.63561" lon="6.69039">
        <ele>418</ele>
        <time>2009-10-17T09:21:46Z</time>
      </trkpt>
      <trkpt lat="43.63553" lon="6.69037">
        <ele>418</ele>
        <time>2009-10-17T09:21:47Z</time>
      </trkpt>
      <trkpt lat="43.632" lon="6.69328">
        <ele>400</ele>
        <time>2009-10-17T09:22:50Z</time>
      </trkpt>
      <trkpt lat="43.63227" lon="6.69336">
        <ele>400</ele>
        <time>2009-10-17T09:22:51Z</time>
      </trkpt>
      <trkpt lat="43.63231" lon="6.69342">
        <ele>396</ele>
        <time>2009-10-17T09:22:52Z</time>
      </trkpt>
      <trkpt lat="43.63235" lon="6.69346">
        <ele>394</ele>
        <time>2009-10-17T09:22:53Z</time>
      </trkpt>
      <trkpt lat="43.63214" lon="6.69438">
        <ele>384</ele>
        <time>2009-10-17T09:23:05Z</time>
      </trkpt>
      <trkpt lat="43.63216" lon="6.69451">
        <ele>379</ele>
        <time>2009-10-17T09:23:06Z</time>
      </trkpt>
      <trkpt lat="43.63214" lon="6.69461">
        <ele>374</ele>
        <time>2009-10-17T09:23:07Z</time>
      </trkpt>
      <trkpt lat="43.63212" lon="6.69471">
        <ele>371</ele>
        <time>2009-10-17T09:23:08Z</time>
      </trkpt>
      <trkpt lat="43.6321" lon="6.69481">
        <ele>370</ele>
        <time>2009-10-17T09:23:09Z</time>
      </trkpt>
      <trkpt lat="43.63209" lon="6.69491">
        <ele>372</ele>
        <time>2009-10-17T09:23:10Z</time>
      </trkpt>
      <trkpt lat="43.63209" lon="6.69498">
        <ele>372</ele>
        <time>2009-10-17T09:23:11Z</time>
      </trkpt>
      <trkpt lat="43.63098" lon="6.69389">
        <ele>379</ele>
        <time>2009-10-17T09:23:49Z</time>
      </trkpt>
      <trkpt lat="43.63096" lon="6.69379">
        <ele>381</ele>
        <time>2009-10-17T09:23:51Z</time>
      </trkpt>
      <trkpt lat="43.6301" lon="6.69322">
        <ele>438</ele>
        <time>2009-10-17T09:24:49Z</time>
      </trkpt>
      <trkpt lat="43.63006" lon="6.69316">
        <ele>439</ele>
        <time>2009-10-17T09:24:51Z</time>
      </trkpt>
      <trkpt lat="43.62707" lon="6.69302">
        <ele>528</ele>
        <time>2009-10-17T09:25:51Z</time>
      </trkpt>
      <trkpt lat="43.62701" lon="6.69311">
        <ele>532</ele>
        <time>2009-10-17T09:25:53Z</time>
      </trkpt>
      <trkpt lat="43.62695" lon="6.69315">
        <ele>531</ele>
        <time>2009-10-17T09:25:54Z</time>
      </trkpt>
      <trkpt lat="43.62689" lon="6.6932">
        <ele>533</ele>
        <time>2009-10-17T09:25:55Z</time>
      </trkpt>
      <trkpt lat="43.62682" lon="6.69329">
        <ele>531</ele>
        <time>2009-10-17T09:25:57Z</time>
      </trkpt>
      <trkpt lat="43.62545" lon="6.69502">
        <ele>523</ele>
        <time>2009-10-17T09:26:48Z</time>
      </trkpt>
      <trkpt lat="43.6255" lon="6.69499">
        <ele>507</ele>
        <time>2009-10-17T09:26:50Z</time>
      </trkpt>
      <trkpt lat="43.62545" lon="6.695">
        <ele>501</ele>
        <time>2009-10-17T09:26:52Z</time>
      </trkpt>
      <trkpt lat="43.62541" lon="6.69502">
        <ele>503</ele>
        <time>2009-10-17T09:26:53Z</time>
      </trkpt>
      <trkpt lat="43.62535" lon="6.69505">
        <ele>501</ele>
        <time>2009-10-17T09:26:55Z</time>
      </trkpt>
      <trkpt lat="43.62487" lon="6.6958">
        <ele>408</ele>
        <time>2009-10-17T09:27:49Z</time>
      </trkpt>
      <trkpt lat="43.6248" lon="6.69583">
        <ele>404</ele>
        <time>2009-10-17T09:27:51Z</time>
      </trkpt>
      <trkpt lat="43.62488" lon="6.6959">
        <ele>395</ele>
        <time>2009-10-17T09:28:44Z</time>
      </trkpt>
      <trkpt lat="43.62493" lon="6.69594">
        <ele>392</ele>
        <time>2009-10-17T09:28:45Z</time>
      </trkpt>
      <trkpt lat="43.62498" lon="6.69597">
        <ele>391</ele>
        <time>2009-10-17T09:28:48Z</time>
      </trkpt>
      <trkpt lat="43.62504" lon="6.69758">
        <ele>395</ele>
        <time>2009-10-17T09:29:49Z</time>
      </trkpt>
      <trkpt lat="43.62499" lon="6.69764">
        <ele>383</ele>
        <time>2009-10-17T09:29:51Z</time>
      </trkpt>
      <trkpt lat="43.62473" lon="6.69796">
        <ele>386</ele>
        <time>2009-10-17T09:30:43Z</time>
      </trkpt>
      <trkpt lat="43.62494" lon="6.698">
        <ele>408</ele>
        <time>2009-10-17T09:30:44Z</time>
      </trkpt>
      <trkpt lat="43.62505" lon="6.698">
        <ele>418</ele>
        <time>2009-10-17T09:30:45Z</time>
      </trkpt>
      <trkpt lat="43.62619" lon="6.69813">
        <ele>393</ele>
        <time>2009-10-17T09:30:49Z</time>
      </trkpt>
      <trkpt lat="43.62768" lon="6.69863">
        <ele>408</ele>
        <time>2009-10-17T09:31:48Z</time>
      </trkpt>
      <trkpt lat="43.62821" lon="6.70012">
        <ele>401</ele>
        <time>2009-10-17T09:32:43Z</time>
      </trkpt>
      <trkpt lat="43.62813" lon="6.70014">
        <ele>404</ele>
        <time>2009-10-17T09:32:44Z</time>
      </trkpt>
      <trkpt lat="43.62805" lon="6.70015">
        <ele>406</ele>
        <time>2009-10-17T09:32:45Z</time>
      </trkpt>
      <trkpt lat="43.62943" lon="6.70193">
        <ele>444</ele>
        <time>2009-10-17T09:33:44Z</time>
      </trkpt>
      <trkpt lat="43.62952" lon="6.70198">
        <ele>430</ele>
        <time>2009-10-17T09:33:45Z</time>
      </trkpt>
      <trkpt lat="43.62962" lon="6.70196">
        <ele>421</ele>
        <time>2009-10-17T09:33:47Z</time>
      </trkpt>
      <trkpt lat="43.62967" lon="6.702">
        <ele>420</ele>
        <time>2009-10-17T09:33:48Z</time>
      </trkpt>
      <trkpt lat="43.63109" lon="6.70385">
        <ele>427</ele>
        <time>2009-10-17T09:34:49Z</time>
      </trkpt>
      <trkpt lat="43.63112" lon="6.70392">
        <ele>439</ele>
        <time>2009-10-17T09:34:51Z</time>
      </trkpt>
      <trkpt lat="43.63364" lon="6.70555">
        <ele>452</ele>
        <time>2009-10-17T09:35:48Z</time>
      </trkpt>
      <trkpt lat="43.63374" lon="6.70551">
        <ele>451</ele>
        <time>2009-10-17T09:35:49Z</time>
      </trkpt>
      <trkpt lat="43.63385" lon="6.70547">
        <ele>460</ele>
        <time>2009-10-17T09:35:50Z</time>
      </trkpt>
      <trkpt lat="43.63626" lon="6.70668">
        <ele>398</ele>
        <time>2009-10-17T09:36:48Z</time>
      </trkpt>
      <trkpt lat="43.6361" lon="6.7067">
        <ele>407</ele>
        <time>2009-10-17T09:36:49Z</time>
      </trkpt>
      <trkpt lat="43.63602" lon="6.70673">
        <ele>410</ele>
        <time>2009-10-17T09:36:51Z</time>
      </trkpt>
      <trkpt lat="43.63577" lon="6.70756">
        <ele>332</ele>
        <time>2009-10-17T09:37:49Z</time>
      </trkpt>
      <trkpt lat="43.63588" lon="6.70764">
        <ele>335</ele>
        <time>2009-10-17T09:37:50Z</time>
      </trkpt>
      <trkpt lat="43.63598" lon="6.70768">
        <ele>332</ele>
        <time>2009-10-17T09:37:51Z</time>
      </trkpt>
      <trkpt lat="43.63605" lon="6.70775">
        <ele>336</ele>
        <time>2009-10-17T09:37:52Z</time>
      </trkpt>
      <trkpt lat="43.63609" lon="6.70779">
        <ele>339</ele>
        <time>2009-10-17T09:37:53Z</time>
      </trkpt>
      <trkpt lat="43.6365" lon="6.7085">
        <ele>246</ele>
        <time>2009-10-17T09:38:50Z</time>
      </trkpt>
      <trkpt lat="43.63657" lon="6.70861">
        <ele>206</ele>
        <time>2009-10-17T09:38:51Z</time>
      </trkpt>
      <trkpt lat="43.63658" lon="6.7087">
        <ele>199</ele>
        <time>2009-10-17T09:38:52Z</time>
      </trkpt>
      <trkpt lat="43.63658" lon="6.70877">
        <ele>189</ele>
        <time>2009-10-17T09:38:53Z</time>
      </trkpt>
      <trkpt lat="43.63656" lon="6.70888">
        <ele>183</ele>
        <time>2009-10-17T09:38:55Z</time>
      </trkpt>
      <trkpt lat="43.63697" lon="6.71028">
        <ele>168</ele>
        <time>2009-10-17T09:39:49Z</time>
      </trkpt>
      <trkpt lat="43.63701" lon="6.71029">
        <ele>187</ele>
        <time>2009-10-17T09:39:50Z</time>
      </trkpt>
      <trkpt lat="43.63707" lon="6.71031">
        <ele>244</ele>
        <time>2009-10-17T09:39:52Z</time>
      </trkpt>
      <trkpt lat="43.63841" lon="6.71135">
        <ele>340</ele>
        <time>2009-10-17T09:40:44Z</time>
      </trkpt>
      <trkpt lat="43.63848" lon="6.71142">
        <ele>366</ele>
        <time>2009-10-17T09:40:45Z</time>
      </trkpt>
      <trkpt lat="43.63852" lon="6.71146">
        <ele>372</ele>
        <time>2009-10-17T09:40:46Z</time>
      </trkpt>
      <trkpt lat="43.63856" lon="6.71151">
        <ele>378</ele>
        <time>2009-10-17T09:40:47Z</time>
      </trkpt>
      <trkpt lat="43.64127" lon="6.71355">
        <ele>387</ele>
        <time>2009-10-17T09:41:44Z</time>
      </trkpt>
      <trkpt lat="43.64134" lon="6.71358">
        <ele>390</ele>
        <time>2009-10-17T09:41:45Z</time>
      </trkpt>
      <trkpt lat="43.64138" lon="6.71363">
        <ele>397</ele>
        <time>2009-10-17T09:41:46Z</time>
      </trkpt>
      <trkpt lat="43.64145" lon="6.71365">
        <ele>397</ele>
        <time>2009-10-17T09:41:47Z</time>
      </trkpt>
      <trkpt lat="43.64151" lon="6.71367">
        <ele>394</ele>
        <time>2009-10-17T09:41:48Z</time>
      </trkpt>
      <trkpt lat="43.64396" lon="6.71634">
        <ele>587</ele>
        <time>2009-10-17T09:42:48Z</time>
      </trkpt>
      <trkpt lat="43.64398" lon="6.7164">
        <ele>587</ele>
        <time>2009-10-17T09:42:49Z</time>
      </trkpt>
      <trkpt lat="43.64402" lon="6.71642">
        <ele>578</ele>
        <time>2009-10-17T09:42:50Z</time>
      </trkpt>
      <trkpt lat="43.64406" lon="6.71644">
        <ele>569</ele>
        <time>2009-10-17T09:42:51Z</time>
      </trkpt>
      <trkpt lat="43.64413" lon="6.71646">
        <ele>544</ele>
        <time>2009-10-17T09:42:52Z</time>
      </trkpt>
      <trkpt lat="43.64481" lon="6.71867">
        <ele>546</ele>
        <time>2009-10-17T09:43:52Z</time>
      </trkpt>
      <trkpt lat="43.64502" lon="6.71862">
        <ele>535</ele>
        <time>2009-10-17T09:43:53Z</time>
      </trkpt>
      <trkpt lat="43.64521" lon="6.71864">
        <ele>532</ele>
        <time>2009-10-17T09:43:54Z</time>
      </trkpt>
      <trkpt lat="43.64526" lon="6.71867">
        <ele>528</ele>
        <time>2009-10-17T09:43:55Z</time>
      </trkpt>
      <trkpt lat="43.64523" lon="6.71873">
        <ele>522</ele>
        <time>2009-10-17T09:43:57Z</time>
      </trkpt>
      <trkpt lat="43.6452" lon="6.71879">
        <ele>514</ele>
        <time>2009-10-17T09:44:00Z</time>
      </trkpt>
      <trkpt lat="43.64517" lon="6.71885">
        <ele>514</ele>
        <time>2009-10-17T09:44:02Z</time>
      </trkpt>
      <trkpt lat="43.6451" lon="6.71907">
        <ele>514</ele>
        <time>2009-10-17T09:44:09Z</time>
      </trkpt>
      <trkpt lat="43.64508" lon="6.71913">
        <ele>514</ele>
        <time>2009-10-17T09:44:11Z</time>
      </trkpt>
      <trkpt lat="43.64506" lon="6.71919">
        <ele>514</ele>
        <time>2009-10-17T09:44:13Z</time>
      </trkpt>
      <trkpt lat="43.64533" lon="6.71924">
        <ele>514</ele>
        <time>2009-10-17T09:44:14Z</time>
      </trkpt>
      <trkpt lat="43.64523" lon="6.71938">
        <ele>519</ele>
        <time>2009-10-17T09:44:15Z</time>
      </trkpt>
      <trkpt lat="43.64522" lon="6.71945">
        <ele>501</ele>
        <time>2009-10-17T09:44:16Z</time>
      </trkpt>
      <trkpt lat="43.64519" lon="6.72124">
        <ele>483</ele>
        <time>2009-10-17T09:44:44Z</time>
      </trkpt>
      <trkpt lat="43.64514" lon="6.72171">
        <ele>471</ele>
        <time>2009-10-17T09:44:45Z</time>
      </trkpt>
      <trkpt lat="43.64511" lon="6.72195">
        <ele>464</ele>
        <time>2009-10-17T09:44:46Z</time>
      </trkpt>
      <trkpt lat="43.64509" lon="6.72208">
        <ele>462</ele>
        <time>2009-10-17T09:44:47Z</time>
      </trkpt>
      <trkpt lat="43.64508" lon="6.72218">
        <ele>459</ele>
        <time>2009-10-17T09:44:48Z</time>
      </trkpt>
      <trkpt lat="43.64503" lon="6.72235">
        <ele>457</ele>
        <time>2009-10-17T09:44:49Z</time>
      </trkpt>
      <trkpt lat="43.64507" lon="6.72242">
        <ele>452</ele>
        <time>2009-10-17T09:44:50Z</time>
      </trkpt>
      <trkpt lat="43.64509" lon="6.72248">
        <ele>454</ele>
        <time>2009-10-17T09:44:51Z</time>
      </trkpt>
      <trkpt lat="43.64387" lon="6.72518">
        <ele>443</ele>
        <time>2009-10-17T09:46:10Z</time>
      </trkpt>
      <trkpt lat="43.64372" lon="6.72528">
        <ele>443</ele>
        <time>2009-10-17T09:46:11Z</time>
      </trkpt>
      <trkpt lat="43.64367" lon="6.72531">
        <ele>444</ele>
        <time>2009-10-17T09:46:12Z</time>
      </trkpt>
      <trkpt lat="43.6435" lon="6.7254">
        <ele>447</ele>
        <time>2009-10-17T09:46:14Z</time>
      </trkpt>
      <trkpt lat="43.64345" lon="6.72543">
        <ele>437</ele>
        <time>2009-10-17T09:46:15Z</time>
      </trkpt>
      <trkpt lat="43.6434" lon="6.72547">
        <ele>440</ele>
        <time>2009-10-17T09:46:16Z</time>
      </trkpt>
      <trkpt lat="43.64326" lon="6.72554">
        <ele>436</ele>
        <time>2009-10-17T09:46:17Z</time>
      </trkpt>
      <trkpt lat="43.64324" lon="6.72544">
        <ele>457</ele>
        <time>2009-10-17T09:46:31Z</time>
      </trkpt>
      <trkpt lat="43.64318" lon="6.72551">
        <ele>465</ele>
        <time>2009-10-17T09:46:32Z</time>
      </trkpt>
      <trkpt lat="43.64315" lon="6.72555">
        <ele>482</ele>
        <time>2009-10-17T09:46:33Z</time>
      </trkpt>
      <trkpt lat="43.6431" lon="6.72557">
        <ele>480</ele>
        <time>2009-10-17T09:46:34Z</time>
      </trkpt>
      <trkpt lat="43.64302" lon="6.72561">
        <ele>502</ele>
        <time>2009-10-17T09:46:35Z</time>
      </trkpt>
      <trkpt lat="43.64297" lon="6.72564">
        <ele>505</ele>
        <time>2009-10-17T09:46:36Z</time>
      </trkpt>
      <trkpt lat="43.64292" lon="6.72568">
        <ele>502</ele>
        <time>2009-10-17T09:46:37Z</time>
      </trkpt>
      <trkpt lat="43.64287" lon="6.72566">
        <ele>515</ele>
        <time>2009-10-17T09:46:41Z</time>
      </trkpt>
      <trkpt lat="43.64285" lon="6.72561">
        <ele>516</ele>
        <time>2009-10-17T09:46:45Z</time>
      </trkpt>
      <trkpt lat="43.64282" lon="6.72554">
        <ele>515</ele>
        <time>2009-10-17T09:46:48Z</time>
      </trkpt>
      <trkpt lat="43.64274" lon="6.72553">
        <ele>533</ele>
        <time>2009-10-17T09:46:50Z</time>
      </trkpt>
      <trkpt lat="43.64262" lon="6.72557">
        <ele>534</ele>
        <time>2009-10-17T09:46:52Z</time>
      </trkpt>
      <trkpt lat="43.63941" lon="6.7271">
        <ele>436</ele>
        <time>2009-10-17T09:47:48Z</time>
      </trkpt>
      <trkpt lat="43.63925" lon="6.72725">
        <ele>433</ele>
        <time>2009-10-17T09:47:49Z</time>
      </trkpt>
      <trkpt lat="43.63923" lon="6.72734">
        <ele>431</ele>
        <time>2009-10-17T09:47:50Z</time>
      </trkpt>
      <trkpt lat="43.63912" lon="6.72751">
        <ele>435</ele>
        <time>2009-10-17T09:47:51Z</time>
      </trkpt>
      <trkpt lat="43.63853" lon="6.73153">
        <ele>445</ele>
        <time>2009-10-17T09:48:49Z</time>
      </trkpt>
      <trkpt lat="43.63865" lon="6.73158">
        <ele>443</ele>
        <time>2009-10-17T09:48:50Z</time>
      </trkpt>
      <trkpt lat="43.63862" lon="6.73164">
        <ele>436</ele>
        <time>2009-10-17T09:48:52Z</time>
      </trkpt>
      <trkpt lat="43.63776" lon="6.73675">
        <ele>487</ele>
        <time>2009-10-17T09:50:04Z</time>
      </trkpt>
      <trkpt lat="43.63787" lon="6.73683">
        <ele>458</ele>
        <time>2009-10-17T09:50:05Z</time>
      </trkpt>
      <trkpt lat="43.6377" lon="6.73865">
        <ele>468</ele>
        <time>2009-10-17T09:50:48Z</time>
      </trkpt>
      <trkpt lat="43.6376" lon="6.73869">
        <ele>465</ele>
        <time>2009-10-17T09:50:49Z</time>
      </trkpt>
      <trkpt lat="43.63755" lon="6.7387">
        <ele>469</ele>
        <time>2009-10-17T09:50:50Z</time>
      </trkpt>
      <trkpt lat="43.63756" lon="6.73884">
        <ele>464</ele>
        <time>2009-10-17T09:51:49Z</time>
      </trkpt>
      <trkpt lat="43.63756" lon="6.73898">
        <ele>452</ele>
        <time>2009-10-17T09:51:50Z</time>
      </trkpt>
      <trkpt lat="43.63753" lon="6.73911">
        <ele>441</ele>
        <time>2009-10-17T09:51:51Z</time>
      </trkpt>
      <trkpt lat="43.63752" lon="6.73923">
        <ele>438</ele>
        <time>2009-10-17T09:51:53Z</time>
      </trkpt>
      <trkpt lat="43.63749" lon="6.73933">
        <ele>433</ele>
        <time>2009-10-17T09:51:55Z</time>
      </trkpt>
      <trkpt lat="43.63747" lon="6.73943">
        <ele>430</ele>
        <time>2009-10-17T09:51:57Z</time>
      </trkpt>
      <trkpt lat="43.63779" lon="6.7405">
        <ele>420</ele>
        <time>2009-10-17T09:52:49Z</time>
      </trkpt>
      <trkpt lat="43.63777" lon="6.74069">
        <ele>414</ele>
        <time>2009-10-17T09:52:50Z</time>
      </trkpt>
      <trkpt lat="43.63775" lon="6.74082">
        <ele>409</ele>
        <time>2009-10-17T09:52:51Z</time>
      </trkpt>
      <trkpt lat="43.63773" lon="6.74088">
        <ele>408</ele>
        <time>2009-10-17T09:52:53Z</time>
      </trkpt>
      <trkpt lat="43.6377" lon="6.74098">
        <ele>402</ele>
        <time>2009-10-17T09:52:56Z</time>
      </trkpt>
      <trkpt lat="43.63765" lon="6.74105">
        <ele>399</ele>
        <time>2009-10-17T09:52:57Z</time>
      </trkpt>
      <trkpt lat="43.63761" lon="6.7411">
        <ele>396</ele>
        <time>2009-10-17T09:53:05Z</time>
      </trkpt>
      <trkpt lat="43.63759" lon="6.74114">
        <ele>394</ele>
        <time>2009-10-17T09:53:07Z</time>
      </trkpt>
      <trkpt lat="43.63759" lon="6.74114">
        <ele>394</ele>
        <time>2009-10-17T09:53:08Z</time>
      </trkpt>
      <trkpt lat="43.63755" lon="6.74118">
        <ele>391</ele>
        <time>2009-10-17T09:53:09Z</time>
      </trkpt>
      <trkpt lat="43.63751" lon="6.74125">
        <ele>388</ele>
        <time>2009-10-17T09:53:12Z</time>
      </trkpt>
      <trkpt lat="43.63751" lon="6.74133">
        <ele>384</ele>
        <time>2009-10-17T09:53:26Z</time>
      </trkpt>
      <trkpt lat="43.6375" lon="6.74142">
        <ele>380</ele>
        <time>2009-10-17T09:53:29Z</time>
      </trkpt>
      <trkpt lat="43.63744" lon="6.74151">
        <ele>377</ele>
        <time>2009-10-17T09:53:31Z</time>
      </trkpt>
      <trkpt lat="43.63747" lon="6.74158">
        <ele>383</ele>
        <time>2009-10-17T09:53:34Z</time>
      </trkpt>
      <trkpt lat="43.63745" lon="6.74164">
        <ele>383</ele>
        <time>2009-10-17T09:53:44Z</time>
      </trkpt>
      <trkpt lat="43.63743" lon="6.74171">
        <ele>380</ele>
        <time>2009-10-17T09:53:49Z</time>
      </trkpt>
      <trkpt lat="43.63742" lon="6.74177">
        <ele>379</ele>
        <time>2009-10-17T09:53:54Z</time>
      </trkpt>
      <trkpt lat="43.6374" lon="6.74183">
        <ele>379</ele>
        <time>2009-10-17T09:54:10Z</time>
      </trkpt>
      <trkpt lat="43.63739" lon="6.74188">
        <ele>379</ele>
        <time>2009-10-17T09:54:15Z</time>
      </trkpt>
      <trkpt lat="43.63738" lon="6.74193">
        <ele>380</ele>
        <time>2009-10-17T09:54:30Z</time>
      </trkpt>
      <trkpt lat="43.63738" lon="6.74195">
        <ele>378</ele>
        <time>2009-10-17T09:54:31Z</time>
      </trkpt>
      <trkpt lat="43.63736" lon="6.74202">
        <ele>377</ele>
        <time>2009-10-17T09:54:33Z</time>
      </trkpt>
      <trkpt lat="43.63693" lon="6.74331">
        <ele>442</ele>
        <time>2009-10-17T09:54:37Z</time>
      </trkpt>
      <trkpt lat="43.63693" lon="6.74341">
        <ele>443</ele>
        <time>2009-10-17T09:54:44Z</time>
      </trkpt>
      <trkpt lat="43.63697" lon="6.74349">
        <ele>449</ele>
        <time>2009-10-17T09:54:47Z</time>
      </trkpt>
      <trkpt lat="43.63693" lon="6.74369">
        <ele>453</ele>
        <time>2009-10-17T09:54:49Z</time>
      </trkpt>
      <trkpt lat="43.63692" lon="6.74378">
        <ele>456</ele>
        <time>2009-10-17T09:54:50Z</time>
      </trkpt>
      <trkpt lat="43.63689" lon="6.74388">
        <ele>467</ele>
        <time>2009-10-17T09:54:51Z</time>
      </trkpt>
      <trkpt lat="43.63686" lon="6.74398">
        <ele>464</ele>
        <time>2009-10-17T09:54:52Z</time>
      </trkpt>
      <trkpt lat="43.63665" lon="6.74433">
        <ele>459</ele>
        <time>2009-10-17T09:55:49Z</time>
      </trkpt>
      <trkpt lat="43.63664" lon="6.74446">
        <ele>443</ele>
        <time>2009-10-17T09:55:51Z</time>
      </trkpt>
      <trkpt lat="43.6366" lon="6.74455">
        <ele>436</ele>
        <time>2009-10-17T09:55:52Z</time>
      </trkpt>
      <trkpt lat="43.63667" lon="6.74457">
        <ele>414</ele>
        <time>2009-10-17T09:55:54Z</time>
      </trkpt>
      <trkpt lat="43.63664" lon="6.74465">
        <ele>407</ele>
        <time>2009-10-17T09:55:55Z</time>
      </trkpt>
      <trkpt lat="43.63662" lon="6.7447">
        <ele>396</ele>
        <time>2009-10-17T09:55:56Z</time>
      </trkpt>
      <trkpt lat="43.63655" lon="6.74481">
        <ele>388</ele>
        <time>2009-10-17T09:55:57Z</time>
      </trkpt>
      <trkpt lat="43.63654" lon="6.74489">
        <ele>377</ele>
        <time>2009-10-17T09:55:59Z</time>
      </trkpt>
      <trkpt lat="43.63652" lon="6.745">
        <ele>367</ele>
        <time>2009-10-17T09:56:11Z</time>
      </trkpt>
      <trkpt lat="43.63649" lon="6.74506">
        <ele>364</ele>
        <time>2009-10-17T09:56:12Z</time>
      </trkpt>
      <trkpt lat="43.63656" lon="6.74509">
        <ele>349</ele>
        <time>2009-10-17T09:56:13Z</time>
      </trkpt>
      <trkpt lat="43.63663" lon="6.74511">
        <ele>340</ele>
        <time>2009-10-17T09:56:16Z</time>
      </trkpt>
      <trkpt lat="43.63646" lon="6.74655">
        <ele>445</ele>
        <time>2009-10-17T09:56:30Z</time>
      </trkpt>
      <trkpt lat="43.63638" lon="6.74664">
        <ele>440</ele>
        <time>2009-10-17T09:56:31Z</time>
      </trkpt>
      <trkpt lat="43.63634" lon="6.74671">
        <ele>437</ele>
        <time>2009-10-17T09:56:32Z</time>
      </trkpt>
      <trkpt lat="43.63625" lon="6.74701">
        <ele>438</ele>
        <time>2009-10-17T09:56:49Z</time>
      </trkpt>
      <trkpt lat="43.6362" lon="6.74706">
        <ele>443</ele>
        <time>2009-10-17T09:56:50Z</time>
      </trkpt>
      <trkpt lat="43.63625" lon="6.74712">
        <ele>450</ele>
        <time>2009-10-17T09:56:52Z</time>
      </trkpt>
      <trkpt lat="43.63599" lon="6.74755">
        <ele>452</ele>
        <time>2009-10-17T09:57:48Z</time>
      </trkpt>
      <trkpt lat="43.63593" lon="6.7476">
        <ele>450</ele>
        <time>2009-10-17T09:57:49Z</time>
      </trkpt>
      <trkpt lat="43.63579" lon="6.7478">
        <ele>452</ele>
        <time>2009-10-17T09:58:55Z</time>
      </trkpt>
      <trkpt lat="43.63577" lon="6.74789">
        <ele>456</ele>
        <time>2009-10-17T09:59:13Z</time>
      </trkpt>
      <trkpt lat="43.63574" lon="6.74771">
        <ele>447</ele>
        <time>2009-10-17T09:59:49Z</time>
      </trkpt>
      <trkpt lat="43.63573" lon="6.74777">
        <ele>439</ele>
        <time>2009-10-17T09:59:51Z</time>
      </trkpt>
      <trkpt lat="43.63574" lon="6.74784">
        <ele>435</ele>
        <time>2009-10-17T09:59:56Z</time>
      </trkpt>
      <trkpt lat="43.63577" lon="6.74791">
        <ele>439</ele>
        <time>2009-10-17T09:59:57Z</time>
      </trkpt>
      <trkpt lat="43.63582" lon="6.74794">
        <ele>439</ele>
        <time>2009-10-17T10:00:52Z</time>
      </trkpt>
      <trkpt lat="43.63587" lon="6.74794">
        <ele>440</ele>
        <time>2009-10-17T10:00:53Z</time>
      </trkpt>
      <trkpt lat="43.63577" lon="6.74816">
        <ele>423</ele>
        <time>2009-10-17T10:01:50Z</time>
      </trkpt>
      <trkpt lat="43.63561" lon="6.7483">
        <ele>411</ele>
        <time>2009-10-17T10:01:52Z</time>
      </trkpt>
      <trkpt lat="43.63553" lon="6.74837">
        <ele>405</ele>
        <time>2009-10-17T10:01:55Z</time>
      </trkpt>
      <trkpt lat="43.63546" lon="6.74844">
        <ele>399</ele>
        <time>2009-10-17T10:01:57Z</time>
      </trkpt>
      <trkpt lat="43.63539" lon="6.74852">
        <ele>392</ele>
        <time>2009-10-17T10:01:59Z</time>
      </trkpt>
      <trkpt lat="43.63539" lon="6.74852">
        <ele>392</ele>
        <time>2009-10-17T10:02:06Z</time>
      </trkpt>
      <trkpt lat="43.63539" lon="6.74855">
        <ele>392</ele>
        <time>2009-10-17T10:02:10Z</time>
      </trkpt>
      <trkpt lat="43.63519" lon="6.74869">
        <ele>440</ele>
        <time>2009-10-17T10:02:11Z</time>
      </trkpt>
      <trkpt lat="43.63516" lon="6.74874">
        <ele>453</ele>
        <time>2009-10-17T10:02:12Z</time>
      </trkpt>
      <trkpt lat="43.63495" lon="6.74894">
        <ele>434</ele>
        <time>2009-10-17T10:02:13Z</time>
      </trkpt>
      <trkpt lat="43.63489" lon="6.74905">
        <ele>441</ele>
        <time>2009-10-17T10:02:15Z</time>
      </trkpt>
      <trkpt lat="43.63472" lon="6.74923">
        <ele>421</ele>
        <time>2009-10-17T10:02:16Z</time>
      </trkpt>
      <trkpt lat="43.63464" lon="6.74938">
        <ele>413</ele>
        <time>2009-10-17T10:02:29Z</time>
      </trkpt>
      <trkpt lat="43.63457" lon="6.74947">
        <ele>412</ele>
        <time>2009-10-17T10:02:30Z</time>
      </trkpt>
      <trkpt lat="43.63455" lon="6.74955">
        <ele>418</ele>
        <time>2009-10-17T10:02:32Z</time>
      </trkpt>
      <trkpt lat="43.63445" lon="6.74966">
        <ele>404</ele>
        <time>2009-10-17T10:02:33Z</time>
      </trkpt>
      <trkpt lat="43.63442" lon="6.74971">
        <ele>400</ele>
        <time>2009-10-17T10:02:34Z</time>
      </trkpt>
      <trkpt lat="43.63436" lon="6.74979">
        <ele>392</ele>
        <time>2009-10-17T10:02:35Z</time>
      </trkpt>
      <trkpt lat="43.63436" lon="6.74986">
        <ele>426</ele>
        <time>2009-10-17T10:02:51Z</time>
      </trkpt>
      <trkpt lat="43.63393" lon="6.75116">
        <ele>462</ele>
        <time>2009-10-17T10:02:52Z</time>
      </trkpt>
      <trkpt lat="43.63391" lon="6.75124">
        <ele>470</ele>
        <time>2009-10-17T10:02:53Z</time>
      </trkpt>
      <trkpt lat="43.63388" lon="6.75134">
        <ele>490</ele>
        <time>2009-10-17T10:02:54Z</time>
      </trkpt>
      <trkpt lat="43.63264" lon="6.75356">
        <ele>480</ele>
        <time>2009-10-17T10:03:49Z</time>
      </trkpt>
      <trkpt lat="43.63259" lon="6.75364">
        <ele>486</ele>
        <time>2009-10-17T10:03:51Z</time>
      </trkpt>
      <trkpt lat="43.63257" lon="6.7537">
        <ele>489</ele>
        <time>2009-10-17T10:03:52Z</time>
      </trkpt>
      <trkpt lat="43.631" lon="6.75622">
        <ele>482</ele>
        <time>2009-10-17T10:04:51Z</time>
      </trkpt>
      <trkpt lat="43.63091" lon="6.75635">
        <ele>487</ele>
        <time>2009-10-17T10:04:52Z</time>
      </trkpt>
      <trkpt lat="43.63082" lon="6.75643">
        <ele>483</ele>
        <time>2009-10-17T10:04:53Z</time>
      </trkpt>
      <trkpt lat="43.63072" lon="6.75652">
        <ele>484</ele>
        <time>2009-10-17T10:04:55Z</time>
      </trkpt>
      <trkpt lat="43.63066" lon="6.75658">
        <ele>476</ele>
        <time>2009-10-17T10:04:56Z</time>
      </trkpt>
      <trkpt lat="43.6306" lon="6.75663">
        <ele>470</ele>
        <time>2009-10-17T10:04:57Z</time>
      </trkpt>
      <trkpt lat="43.62968" lon="6.76037">
        <ele>460</ele>
        <time>2009-10-17T10:05:49Z</time>
      </trkpt>
      <trkpt lat="43.62965" lon="6.76048">
        <ele>457</ele>
        <time>2009-10-17T10:05:50Z</time>
      </trkpt>
      <trkpt lat="43.62967" lon="6.76057">
        <ele>448</ele>
        <time>2009-10-17T10:05:52Z</time>
      </trkpt>
      <trkpt lat="43.62852" lon="6.76359">
        <ele>487</ele>
        <time>2009-10-17T10:06:50Z</time>
      </trkpt>
      <trkpt lat="43.62848" lon="6.76372">
        <ele>484</ele>
        <time>2009-10-17T10:06:52Z</time>
      </trkpt>
      <trkpt lat="43.6284" lon="6.76391">
        <ele>467</ele>
        <time>2009-10-17T10:06:54Z</time>
      </trkpt>
      <trkpt lat="43.62825" lon="6.76409">
        <ele>437</ele>
        <time>2009-10-17T10:06:55Z</time>
      </trkpt>
      <trkpt lat="43.62718" lon="6.76746">
        <ele>421</ele>
        <time>2009-10-17T10:07:44Z</time>
      </trkpt>
      <trkpt lat="43.6271" lon="6.76755">
        <ele>424</ele>
        <time>2009-10-17T10:07:45Z</time>
      </trkpt>
      <trkpt lat="43.62706" lon="6.76762">
        <ele>425</ele>
        <time>2009-10-17T10:07:46Z</time>
      </trkpt>
      <trkpt lat="43.62699" lon="6.76771">
        <ele>424</ele>
        <time>2009-10-17T10:07:47Z</time>
      </trkpt>
      <trkpt lat="43.62695" lon="6.76777">
        <ele>424</ele>
        <time>2009-10-17T10:07:48Z</time>
      </trkpt>
      <trkpt lat="43.6269" lon="6.76784">
        <ele>424</ele>
        <time>2009-10-17T10:07:49Z</time>
      </trkpt>
      <trkpt lat="43.62683" lon="6.76791">
        <ele>427</ele>
        <time>2009-10-17T10:07:50Z</time>
      </trkpt>
      <trkpt lat="43.62486" lon="6.77233">
        <ele>413</ele>
        <time>2009-10-17T10:08:50Z</time>
      </trkpt>
      <trkpt lat="43.62484" lon="6.77239">
        <ele>410</ele>
        <time>2009-10-17T10:08:51Z</time>
      </trkpt>
      <trkpt lat="43.62483" lon="6.77247">
        <ele>414</ele>
        <time>2009-10-17T10:08:53Z</time>
      </trkpt>
      <trkpt lat="43.62413" lon="6.77594">
        <ele>456</ele>
        <time>2009-10-17T10:09:50Z</time>
      </trkpt>
      <trkpt lat="43.62421" lon="6.77597">
        <ele>493</ele>
        <time>2009-10-17T10:09:52Z</time>
      </trkpt>
      <trkpt lat="43.62419" lon="6.77606">
        <ele>499</ele>
        <time>2009-10-17T10:09:53Z</time>
      </trkpt>
      <trkpt lat="43.62414" lon="6.7762">
        <ele>504</ele>
        <time>2009-10-17T10:09:54Z</time>
      </trkpt>
      <trkpt lat="43.62409" lon="6.7763">
        <ele>504</ele>
        <time>2009-10-17T10:09:55Z</time>
      </trkpt>
      <trkpt lat="43.62401" lon="6.77641">
        <ele>505</ele>
        <time>2009-10-17T10:09:56Z</time>
      </trkpt>
      <trkpt lat="43.62397" lon="6.77648">
        <ele>507</ele>
        <time>2009-10-17T10:09:57Z</time>
      </trkpt>
      <trkpt lat="43.62392" lon="6.77653">
        <ele>507</ele>
        <time>2009-10-17T10:09:58Z</time>
      </trkpt>
      <trkpt lat="43.62389" lon="6.77658">
        <ele>507</ele>
        <time>2009-10-17T10:09:59Z</time>
      </trkpt>
      <trkpt lat="43.62377" lon="6.77675">
        <ele>507</ele>
        <time>2009-10-17T10:10:06Z</time>
      </trkpt>
      <trkpt lat="43.62374" lon="6.7768">
        <ele>506</ele>
        <time>2009-10-17T10:10:08Z</time>
      </trkpt>
      <trkpt lat="43.62372" lon="6.77686">
        <ele>506</ele>
        <time>2009-10-17T10:10:10Z</time>
      </trkpt>
      <trkpt lat="43.62368" lon="6.77697">
        <ele>507</ele>
        <time>2009-10-17T10:10:12Z</time>
      </trkpt>
      <trkpt lat="43.6236" lon="6.77708">
        <ele>504</ele>
        <time>2009-10-17T10:10:13Z</time>
      </trkpt>
      <trkpt lat="43.62354" lon="6.77717">
        <ele>502</ele>
        <time>2009-10-17T10:10:14Z</time>
      </trkpt>
      <trkpt lat="43.62341" lon="6.77734">
        <ele>477</ele>
        <time>2009-10-17T10:10:15Z</time>
      </trkpt>
      <trkpt lat="43.62325" lon="6.77755">
        <ele>449</ele>
        <time>2009-10-17T10:10:16Z</time>
      </trkpt>
      <trkpt lat="43.62315" lon="6.77803">
        <ele>449</ele>
        <time>2009-10-17T10:10:28Z</time>
      </trkpt>
      <trkpt lat="43.62324" lon="6.77789">
        <ele>447</ele>
        <time>2009-10-17T10:10:29Z</time>
      </trkpt>
      <trkpt lat="43.6232" lon="6.77797">
        <ele>441</ele>
        <time>2009-10-17T10:10:30Z</time>
      </trkpt>
      <trkpt lat="43.62307" lon="6.77814">
        <ele>420</ele>
        <time>2009-10-17T10:10:31Z</time>
      </trkpt>
      <trkpt lat="43.62304" lon="6.77821">
        <ele>418</ele>
        <time>2009-10-17T10:10:32Z</time>
      </trkpt>
      <trkpt lat="43.62301" lon="6.77851">
        <ele>419</ele>
        <time>2009-10-17T10:10:44Z</time>
      </trkpt>
      <trkpt lat="43.62294" lon="6.77861">
        <ele>430</ele>
        <time>2009-10-17T10:10:45Z</time>
      </trkpt>
      <trkpt lat="43.6229" lon="6.77868">
        <ele>438</ele>
        <time>2009-10-17T10:10:46Z</time>
      </trkpt>
      <trkpt lat="43.62286" lon="6.77875">
        <ele>445</ele>
        <time>2009-10-17T10:10:47Z</time>
      </trkpt>
      <trkpt lat="43.62283" lon="6.77883">
        <ele>449</ele>
        <time>2009-10-17T10:10:49Z</time>
      </trkpt>
      <trkpt lat="43.62263" lon="6.77826">
        <ele>448</ele>
        <time>2009-10-17T10:10:50Z</time>
      </trkpt>
      <trkpt lat="43.62228" lon="6.77857">
        <ele>435</ele>
        <time>2009-10-17T10:11:49Z</time>
      </trkpt>
      <trkpt lat="43.62221" lon="6.77857">
        <ele>431</ele>
        <time>2009-10-17T10:11:50Z</time>
      </trkpt>
      <trkpt lat="43.62188" lon="6.77713">
        <ele>462</ele>
        <time>2009-10-17T10:11:51Z</time>
      </trkpt>
      <trkpt lat="43.62109" lon="6.77615">
        <ele>458</ele>
        <time>2009-10-17T10:12:49Z</time>
      </trkpt>
      <trkpt lat="43.62108" lon="6.77605">
        <ele>461</ele>
        <time>2009-10-17T10:12:50Z</time>
      </trkpt>
      <trkpt lat="43.62117" lon="6.77503">
        <ele>477</ele>
        <time>2009-10-17T10:13:52Z</time>
      </trkpt>
      <trkpt lat="43.62126" lon="6.77493">
        <ele>482</ele>
        <time>2009-10-17T10:13:53Z</time>
      </trkpt>
      <trkpt lat="43.6213" lon="6.77487">
        <ele>479</ele>
        <time>2009-10-17T10:13:55Z</time>
      </trkpt>
      <trkpt lat="43.62134" lon="6.7748">
        <ele>466</ele>
        <time>2009-10-17T10:13:57Z</time>
      </trkpt>
    </trkseg>
  </trk>
</gpx>